<?xml version="1.0" encoding="UTF-8" standalone="no" ?>
<gpx xmlns="http://www.topografix.com/GPX/1/1" xmlns:xsi="http://www.w3.org/2001/XMLSchema-instance" xsi:schemaLocation="http://www.topografix.com/GPX/1/1 http://www.topografix.com/GPX/1/1/gpx.xsd" version="1.1" creator="VisuGPX - https://www.visugpx.com">
  <metadata>
    <name>Randonnée du 16/10/25 Boucle de 8kms depuis la route forestière du ruisseau de la truite à Grandfontaine</name>
  </metadata>
  <trk>
    <name><![CDATA[Parcours du 16/10/2025 16h51]]></name>
    <trkseg>
      <trkpt lat="48.46843" lon="7.14493">
        <ele>495.7686</ele>
        <time>2025-10-16T12:27:28Z</time>
      </trkpt>
      <trkpt lat="48.46843" lon="7.14491">
        <ele>496.4245</ele>
        <time>2025-10-16T12:27:29Z</time>
      </trkpt>
      <trkpt lat="48.46848" lon="7.14488">
        <ele>496.4245</ele>
        <time>2025-10-16T12:27:46Z</time>
      </trkpt>
      <trkpt lat="48.46853" lon="7.14486">
        <ele>496.4245</ele>
        <time>2025-10-16T12:27:51Z</time>
      </trkpt>
      <trkpt lat="48.46856" lon="7.14495">
        <ele>496.2933</ele>
        <time>2025-10-16T12:27:57Z</time>
      </trkpt>
      <trkpt lat="48.4686" lon="7.145">
        <ele>496.4245</ele>
        <time>2025-10-16T12:27:59Z</time>
      </trkpt>
      <trkpt lat="48.46849" lon="7.14487">
        <ele>496.4245</ele>
        <time>2025-10-16T12:28:00Z</time>
      </trkpt>
      <trkpt lat="48.46846" lon="7.1448">
        <ele>496.4245</ele>
        <time>2025-10-16T12:28:01Z</time>
      </trkpt>
      <trkpt lat="48.46847" lon="7.1445">
        <ele>496.4245</ele>
        <time>2025-10-16T12:28:22Z</time>
      </trkpt>
      <trkpt lat="48.46849" lon="7.14461">
        <ele>496.4245</ele>
        <time>2025-10-16T12:28:23Z</time>
      </trkpt>
      <trkpt lat="48.46846" lon="7.14449">
        <ele>496.4245</ele>
        <time>2025-10-16T12:28:25Z</time>
      </trkpt>
      <trkpt lat="48.46838" lon="7.14446">
        <ele>496.4245</ele>
        <time>2025-10-16T12:28:28Z</time>
      </trkpt>
      <trkpt lat="48.46842" lon="7.14457">
        <ele>496.4245</ele>
        <time>2025-10-16T12:28:29Z</time>
      </trkpt>
      <trkpt lat="48.46837" lon="7.14446">
        <ele>496.4245</ele>
        <time>2025-10-16T12:28:31Z</time>
      </trkpt>
      <trkpt lat="48.46832" lon="7.14451">
        <ele>496.4245</ele>
        <time>2025-10-16T12:28:32Z</time>
      </trkpt>
      <trkpt lat="48.46832" lon="7.14442">
        <ele>496.4245</ele>
        <time>2025-10-16T12:28:33Z</time>
      </trkpt>
      <trkpt lat="48.46832" lon="7.14429">
        <ele>496.4245</ele>
        <time>2025-10-16T12:28:35Z</time>
      </trkpt>
      <trkpt lat="48.46832" lon="7.14422">
        <ele>496.4245</ele>
        <time>2025-10-16T12:28:39Z</time>
      </trkpt>
      <trkpt lat="48.46834" lon="7.14414">
        <ele>496.4245</ele>
        <time>2025-10-16T12:28:41Z</time>
      </trkpt>
      <trkpt lat="48.46833" lon="7.14407">
        <ele>496.4245</ele>
        <time>2025-10-16T12:28:42Z</time>
      </trkpt>
      <trkpt lat="48.46828" lon="7.14402">
        <ele>496.4245</ele>
        <time>2025-10-16T12:28:44Z</time>
      </trkpt>
      <trkpt lat="48.46832" lon="7.1441">
        <ele>496.4245</ele>
        <time>2025-10-16T12:28:47Z</time>
      </trkpt>
      <trkpt lat="48.46837" lon="7.14406">
        <ele>496.4245</ele>
        <time>2025-10-16T12:28:59Z</time>
      </trkpt>
      <trkpt lat="48.46835" lon="7.14399">
        <ele>496.4245</ele>
        <time>2025-10-16T12:29:06Z</time>
      </trkpt>
      <trkpt lat="48.4684" lon="7.14394">
        <ele>496.4245</ele>
        <time>2025-10-16T12:29:10Z</time>
      </trkpt>
      <trkpt lat="48.46841" lon="7.14387">
        <ele>496.4245</ele>
        <time>2025-10-16T12:29:16Z</time>
      </trkpt>
      <trkpt lat="48.46843" lon="7.1438">
        <ele>496.4245</ele>
        <time>2025-10-16T12:29:21Z</time>
      </trkpt>
      <trkpt lat="48.46835" lon="7.14376">
        <ele>496.4245</ele>
        <time>2025-10-16T12:29:24Z</time>
      </trkpt>
      <trkpt lat="48.46839" lon="7.1437">
        <ele>496.4245</ele>
        <time>2025-10-16T12:29:29Z</time>
      </trkpt>
      <trkpt lat="48.46839" lon="7.14362">
        <ele>496.4245</ele>
        <time>2025-10-16T12:29:34Z</time>
      </trkpt>
      <trkpt lat="48.46834" lon="7.14362">
        <ele>496.4245</ele>
        <time>2025-10-16T12:29:35Z</time>
      </trkpt>
      <trkpt lat="48.46828" lon="7.14358">
        <ele>496.4245</ele>
        <time>2025-10-16T12:29:37Z</time>
      </trkpt>
      <trkpt lat="48.46827" lon="7.14351">
        <ele>496.4245</ele>
        <time>2025-10-16T12:29:41Z</time>
      </trkpt>
      <trkpt lat="48.46829" lon="7.14345">
        <ele>496.4245</ele>
        <time>2025-10-16T12:29:45Z</time>
      </trkpt>
      <trkpt lat="48.46832" lon="7.1434">
        <ele>496.4245</ele>
        <time>2025-10-16T12:29:48Z</time>
      </trkpt>
      <trkpt lat="48.4683" lon="7.14334">
        <ele>496.4245</ele>
        <time>2025-10-16T12:29:53Z</time>
      </trkpt>
      <trkpt lat="48.46833" lon="7.14328">
        <ele>496.4245</ele>
        <time>2025-10-16T12:29:55Z</time>
      </trkpt>
      <trkpt lat="48.46836" lon="7.14322">
        <ele>496.4245</ele>
        <time>2025-10-16T12:29:59Z</time>
      </trkpt>
      <trkpt lat="48.4683" lon="7.14316">
        <ele>496.4245</ele>
        <time>2025-10-16T12:30:01Z</time>
      </trkpt>
      <trkpt lat="48.46828" lon="7.14308">
        <ele>496.4245</ele>
        <time>2025-10-16T12:30:07Z</time>
      </trkpt>
      <trkpt lat="48.4683" lon="7.14303">
        <ele>496.4245</ele>
        <time>2025-10-16T12:30:13Z</time>
      </trkpt>
      <trkpt lat="48.46825" lon="7.14295">
        <ele>496.4245</ele>
        <time>2025-10-16T12:30:17Z</time>
      </trkpt>
      <trkpt lat="48.46826" lon="7.14288">
        <ele>496.4245</ele>
        <time>2025-10-16T12:30:22Z</time>
      </trkpt>
      <trkpt lat="48.46827" lon="7.14281">
        <ele>496.4245</ele>
        <time>2025-10-16T12:30:25Z</time>
      </trkpt>
      <trkpt lat="48.46832" lon="7.14278">
        <ele>496.4245</ele>
        <time>2025-10-16T12:30:26Z</time>
      </trkpt>
      <trkpt lat="48.46832" lon="7.1427">
        <ele>496.4245</ele>
        <time>2025-10-16T12:30:29Z</time>
      </trkpt>
      <trkpt lat="48.46837" lon="7.14279">
        <ele>496.4245</ele>
        <time>2025-10-16T12:30:31Z</time>
      </trkpt>
      <trkpt lat="48.46839" lon="7.14271">
        <ele>496.4245</ele>
        <time>2025-10-16T12:30:35Z</time>
      </trkpt>
      <trkpt lat="48.46837" lon="7.14265">
        <ele>496.4245</ele>
        <time>2025-10-16T12:30:38Z</time>
      </trkpt>
      <trkpt lat="48.46833" lon="7.14256">
        <ele>496.4245</ele>
        <time>2025-10-16T12:30:40Z</time>
      </trkpt>
      <trkpt lat="48.46835" lon="7.14248">
        <ele>496.4245</ele>
        <time>2025-10-16T12:30:45Z</time>
      </trkpt>
      <trkpt lat="48.46839" lon="7.14241">
        <ele>496.4245</ele>
        <time>2025-10-16T12:30:51Z</time>
      </trkpt>
      <trkpt lat="48.46845" lon="7.14239">
        <ele>496.4245</ele>
        <time>2025-10-16T12:30:52Z</time>
      </trkpt>
      <trkpt lat="48.46843" lon="7.14233">
        <ele>496.4245</ele>
        <time>2025-10-16T12:30:54Z</time>
      </trkpt>
      <trkpt lat="48.46844" lon="7.14226">
        <ele>498.63403</ele>
        <time>2025-10-16T12:30:57Z</time>
      </trkpt>
      <trkpt lat="48.46843" lon="7.14218">
        <ele>500.8436</ele>
        <time>2025-10-16T12:31:02Z</time>
      </trkpt>
      <trkpt lat="48.4684" lon="7.14213">
        <ele>503.05313</ele>
        <time>2025-10-16T12:31:05Z</time>
      </trkpt>
      <trkpt lat="48.46835" lon="7.1421">
        <ele>505.2627</ele>
        <time>2025-10-16T12:31:07Z</time>
      </trkpt>
      <trkpt lat="48.46836" lon="7.14202">
        <ele>507.47223</ele>
        <time>2025-10-16T12:31:14Z</time>
      </trkpt>
      <trkpt lat="48.46834" lon="7.14195">
        <ele>507.47223</ele>
        <time>2025-10-16T12:31:19Z</time>
      </trkpt>
      <trkpt lat="48.46831" lon="7.14187">
        <ele>507.47223</ele>
        <time>2025-10-16T12:31:24Z</time>
      </trkpt>
      <trkpt lat="48.46827" lon="7.14182">
        <ele>507.47223</ele>
        <time>2025-10-16T12:31:28Z</time>
      </trkpt>
      <trkpt lat="48.46828" lon="7.14174">
        <ele>507.47223</ele>
        <time>2025-10-16T12:31:33Z</time>
      </trkpt>
      <trkpt lat="48.46826" lon="7.14167">
        <ele>507.47223</ele>
        <time>2025-10-16T12:31:40Z</time>
      </trkpt>
      <trkpt lat="48.46825" lon="7.1416">
        <ele>507.47223</ele>
        <time>2025-10-16T12:31:44Z</time>
      </trkpt>
      <trkpt lat="48.46821" lon="7.14157">
        <ele>507.47223</ele>
        <time>2025-10-16T12:31:47Z</time>
      </trkpt>
      <trkpt lat="48.46822" lon="7.14149">
        <ele>507.47223</ele>
        <time>2025-10-16T12:31:51Z</time>
      </trkpt>
      <trkpt lat="48.46817" lon="7.14142">
        <ele>507.47223</ele>
        <time>2025-10-16T12:31:53Z</time>
      </trkpt>
      <trkpt lat="48.46812" lon="7.14131">
        <ele>507.47223</ele>
        <time>2025-10-16T12:32:02Z</time>
      </trkpt>
      <trkpt lat="48.46808" lon="7.14124">
        <ele>507.47223</ele>
        <time>2025-10-16T12:32:04Z</time>
      </trkpt>
      <trkpt lat="48.46804" lon="7.14119">
        <ele>507.47223</ele>
        <time>2025-10-16T12:32:07Z</time>
      </trkpt>
      <trkpt lat="48.468" lon="7.14115">
        <ele>507.47223</ele>
        <time>2025-10-16T12:32:10Z</time>
      </trkpt>
      <trkpt lat="48.468" lon="7.14107">
        <ele>507.47223</ele>
        <time>2025-10-16T12:32:16Z</time>
      </trkpt>
      <trkpt lat="48.46798" lon="7.141">
        <ele>507.47223</ele>
        <time>2025-10-16T12:32:20Z</time>
      </trkpt>
      <trkpt lat="48.46795" lon="7.14093">
        <ele>507.47223</ele>
        <time>2025-10-16T12:32:24Z</time>
      </trkpt>
      <trkpt lat="48.46793" lon="7.14087">
        <ele>507.47223</ele>
        <time>2025-10-16T12:32:28Z</time>
      </trkpt>
      <trkpt lat="48.46792" lon="7.1408">
        <ele>507.47223</ele>
        <time>2025-10-16T12:32:32Z</time>
      </trkpt>
      <trkpt lat="48.4679" lon="7.14072">
        <ele>507.47223</ele>
        <time>2025-10-16T12:32:38Z</time>
      </trkpt>
      <trkpt lat="48.46791" lon="7.14065">
        <ele>507.47223</ele>
        <time>2025-10-16T12:32:44Z</time>
      </trkpt>
      <trkpt lat="48.46793" lon="7.14057">
        <ele>507.47223</ele>
        <time>2025-10-16T12:32:50Z</time>
      </trkpt>
      <trkpt lat="48.46792" lon="7.1405">
        <ele>507.47223</ele>
        <time>2025-10-16T12:32:55Z</time>
      </trkpt>
      <trkpt lat="48.46791" lon="7.14042">
        <ele>507.47223</ele>
        <time>2025-10-16T12:33:01Z</time>
      </trkpt>
      <trkpt lat="48.4679" lon="7.14035">
        <ele>507.47223</ele>
        <time>2025-10-16T12:33:05Z</time>
      </trkpt>
      <trkpt lat="48.4679" lon="7.14027">
        <ele>507.47223</ele>
        <time>2025-10-16T12:33:10Z</time>
      </trkpt>
      <trkpt lat="48.46789" lon="7.14021">
        <ele>507.47223</ele>
        <time>2025-10-16T12:33:14Z</time>
      </trkpt>
      <trkpt lat="48.46788" lon="7.14013">
        <ele>507.47223</ele>
        <time>2025-10-16T12:33:19Z</time>
      </trkpt>
      <trkpt lat="48.46788" lon="7.14007">
        <ele>507.47223</ele>
        <time>2025-10-16T12:33:23Z</time>
      </trkpt>
      <trkpt lat="48.46787" lon="7.14">
        <ele>507.47223</ele>
        <time>2025-10-16T12:33:27Z</time>
      </trkpt>
      <trkpt lat="48.46787" lon="7.13992">
        <ele>507.47223</ele>
        <time>2025-10-16T12:33:32Z</time>
      </trkpt>
      <trkpt lat="48.46786" lon="7.13984">
        <ele>507.47223</ele>
        <time>2025-10-16T12:33:37Z</time>
      </trkpt>
      <trkpt lat="48.46786" lon="7.13977">
        <ele>507.47223</ele>
        <time>2025-10-16T12:33:41Z</time>
      </trkpt>
      <trkpt lat="48.46788" lon="7.1397">
        <ele>507.47223</ele>
        <time>2025-10-16T12:33:45Z</time>
      </trkpt>
      <trkpt lat="48.4679" lon="7.13964">
        <ele>509.56854</ele>
        <time>2025-10-16T12:33:50Z</time>
      </trkpt>
      <trkpt lat="48.46793" lon="7.13958">
        <ele>511.66486</ele>
        <time>2025-10-16T12:33:55Z</time>
      </trkpt>
      <trkpt lat="48.46796" lon="7.13952">
        <ele>513.76117</ele>
        <time>2025-10-16T12:33:59Z</time>
      </trkpt>
      <trkpt lat="48.46797" lon="7.13943">
        <ele>515.8575</ele>
        <time>2025-10-16T12:34:05Z</time>
      </trkpt>
      <trkpt lat="48.46801" lon="7.1394">
        <ele>517.9538</ele>
        <time>2025-10-16T12:34:08Z</time>
      </trkpt>
      <trkpt lat="48.46801" lon="7.13932">
        <ele>517.9538</ele>
        <time>2025-10-16T12:34:13Z</time>
      </trkpt>
      <trkpt lat="48.46802" lon="7.13924">
        <ele>517.9538</ele>
        <time>2025-10-16T12:34:18Z</time>
      </trkpt>
      <trkpt lat="48.46801" lon="7.13916">
        <ele>517.9538</ele>
        <time>2025-10-16T12:34:24Z</time>
      </trkpt>
      <trkpt lat="48.468" lon="7.1391">
        <ele>517.9538</ele>
        <time>2025-10-16T12:34:29Z</time>
      </trkpt>
      <trkpt lat="48.46798" lon="7.13903">
        <ele>517.9538</ele>
        <time>2025-10-16T12:34:34Z</time>
      </trkpt>
      <trkpt lat="48.46795" lon="7.13896">
        <ele>517.9538</ele>
        <time>2025-10-16T12:34:38Z</time>
      </trkpt>
      <trkpt lat="48.46793" lon="7.13888">
        <ele>517.9538</ele>
        <time>2025-10-16T12:34:43Z</time>
      </trkpt>
      <trkpt lat="48.4679" lon="7.13881">
        <ele>517.9538</ele>
        <time>2025-10-16T12:34:48Z</time>
      </trkpt>
      <trkpt lat="48.46788" lon="7.13873">
        <ele>517.9538</ele>
        <time>2025-10-16T12:34:53Z</time>
      </trkpt>
      <trkpt lat="48.46787" lon="7.13866">
        <ele>517.9538</ele>
        <time>2025-10-16T12:34:58Z</time>
      </trkpt>
      <trkpt lat="48.46784" lon="7.1386">
        <ele>517.9538</ele>
        <time>2025-10-16T12:35:03Z</time>
      </trkpt>
      <trkpt lat="48.46782" lon="7.13853">
        <ele>517.9538</ele>
        <time>2025-10-16T12:35:08Z</time>
      </trkpt>
      <trkpt lat="48.4678" lon="7.13845">
        <ele>517.9538</ele>
        <time>2025-10-16T12:35:13Z</time>
      </trkpt>
      <trkpt lat="48.46778" lon="7.13839">
        <ele>517.9538</ele>
        <time>2025-10-16T12:35:18Z</time>
      </trkpt>
      <trkpt lat="48.46775" lon="7.13832">
        <ele>517.9538</ele>
        <time>2025-10-16T12:35:25Z</time>
      </trkpt>
      <trkpt lat="48.46772" lon="7.13826">
        <ele>517.9538</ele>
        <time>2025-10-16T12:35:29Z</time>
      </trkpt>
      <trkpt lat="48.46771" lon="7.13818">
        <ele>517.9538</ele>
        <time>2025-10-16T12:35:34Z</time>
      </trkpt>
      <trkpt lat="48.46771" lon="7.1381">
        <ele>517.9538</ele>
        <time>2025-10-16T12:35:39Z</time>
      </trkpt>
      <trkpt lat="48.46768" lon="7.13803">
        <ele>517.9538</ele>
        <time>2025-10-16T12:35:43Z</time>
      </trkpt>
      <trkpt lat="48.46766" lon="7.13796">
        <ele>517.9538</ele>
        <time>2025-10-16T12:35:48Z</time>
      </trkpt>
      <trkpt lat="48.46764" lon="7.13789">
        <ele>517.9538</ele>
        <time>2025-10-16T12:35:53Z</time>
      </trkpt>
      <trkpt lat="48.46762" lon="7.13781">
        <ele>517.9538</ele>
        <time>2025-10-16T12:35:57Z</time>
      </trkpt>
      <trkpt lat="48.46761" lon="7.13774">
        <ele>517.9538</ele>
        <time>2025-10-16T12:36:02Z</time>
      </trkpt>
      <trkpt lat="48.4676" lon="7.13767">
        <ele>517.9538</ele>
        <time>2025-10-16T12:36:06Z</time>
      </trkpt>
      <trkpt lat="48.46758" lon="7.1376">
        <ele>517.9538</ele>
        <time>2025-10-16T12:36:11Z</time>
      </trkpt>
      <trkpt lat="48.46757" lon="7.13753">
        <ele>517.9538</ele>
        <time>2025-10-16T12:36:16Z</time>
      </trkpt>
      <trkpt lat="48.46757" lon="7.13745">
        <ele>517.9538</ele>
        <time>2025-10-16T12:36:21Z</time>
      </trkpt>
      <trkpt lat="48.46757" lon="7.13738">
        <ele>517.9538</ele>
        <time>2025-10-16T12:36:25Z</time>
      </trkpt>
      <trkpt lat="48.46757" lon="7.13731">
        <ele>517.9538</ele>
        <time>2025-10-16T12:36:29Z</time>
      </trkpt>
      <trkpt lat="48.46757" lon="7.13723">
        <ele>517.9538</ele>
        <time>2025-10-16T12:36:33Z</time>
      </trkpt>
      <trkpt lat="48.46755" lon="7.13717">
        <ele>517.9538</ele>
        <time>2025-10-16T12:36:37Z</time>
      </trkpt>
      <trkpt lat="48.46755" lon="7.13709">
        <ele>517.9538</ele>
        <time>2025-10-16T12:36:42Z</time>
      </trkpt>
      <trkpt lat="48.46755" lon="7.13701">
        <ele>517.9538</ele>
        <time>2025-10-16T12:36:46Z</time>
      </trkpt>
      <trkpt lat="48.46754" lon="7.13694">
        <ele>517.9538</ele>
        <time>2025-10-16T12:36:52Z</time>
      </trkpt>
      <trkpt lat="48.46753" lon="7.13686">
        <ele>520.08044</ele>
        <time>2025-10-16T12:36:56Z</time>
      </trkpt>
      <trkpt lat="48.46753" lon="7.13678">
        <ele>522.20703</ele>
        <time>2025-10-16T12:37:00Z</time>
      </trkpt>
      <trkpt lat="48.46754" lon="7.13671">
        <ele>524.3337</ele>
        <time>2025-10-16T12:37:03Z</time>
      </trkpt>
      <trkpt lat="48.46755" lon="7.13664">
        <ele>526.46027</ele>
        <time>2025-10-16T12:37:07Z</time>
      </trkpt>
      <trkpt lat="48.4676" lon="7.13661">
        <ele>528.5869</ele>
        <time>2025-10-16T12:37:22Z</time>
      </trkpt>
      <trkpt lat="48.46765" lon="7.13657">
        <ele>528.5869</ele>
        <time>2025-10-16T12:37:39Z</time>
      </trkpt>
      <trkpt lat="48.46764" lon="7.13649">
        <ele>528.5869</ele>
        <time>2025-10-16T12:37:43Z</time>
      </trkpt>
      <trkpt lat="48.46765" lon="7.13642">
        <ele>528.5869</ele>
        <time>2025-10-16T12:37:47Z</time>
      </trkpt>
      <trkpt lat="48.46767" lon="7.13635">
        <ele>528.5869</ele>
        <time>2025-10-16T12:37:50Z</time>
      </trkpt>
      <trkpt lat="48.46769" lon="7.13628">
        <ele>528.5869</ele>
        <time>2025-10-16T12:37:54Z</time>
      </trkpt>
      <trkpt lat="48.46772" lon="7.13621">
        <ele>528.5869</ele>
        <time>2025-10-16T12:37:59Z</time>
      </trkpt>
      <trkpt lat="48.46775" lon="7.13615">
        <ele>528.5869</ele>
        <time>2025-10-16T12:38:04Z</time>
      </trkpt>
      <trkpt lat="48.46778" lon="7.13609">
        <ele>528.5869</ele>
        <time>2025-10-16T12:38:09Z</time>
      </trkpt>
      <trkpt lat="48.4678" lon="7.13603">
        <ele>528.5869</ele>
        <time>2025-10-16T12:38:13Z</time>
      </trkpt>
      <trkpt lat="48.46782" lon="7.13597">
        <ele>528.5869</ele>
        <time>2025-10-16T12:38:18Z</time>
      </trkpt>
      <trkpt lat="48.46784" lon="7.1359">
        <ele>528.5869</ele>
        <time>2025-10-16T12:38:23Z</time>
      </trkpt>
      <trkpt lat="48.46785" lon="7.13583">
        <ele>528.5869</ele>
        <time>2025-10-16T12:38:28Z</time>
      </trkpt>
      <trkpt lat="48.46787" lon="7.13576">
        <ele>528.5869</ele>
        <time>2025-10-16T12:38:33Z</time>
      </trkpt>
      <trkpt lat="48.46788" lon="7.13569">
        <ele>528.5869</ele>
        <time>2025-10-16T12:38:38Z</time>
      </trkpt>
      <trkpt lat="48.4679" lon="7.13561">
        <ele>528.5869</ele>
        <time>2025-10-16T12:38:43Z</time>
      </trkpt>
      <trkpt lat="48.46792" lon="7.13555">
        <ele>528.5869</ele>
        <time>2025-10-16T12:38:52Z</time>
      </trkpt>
      <trkpt lat="48.46794" lon="7.13547">
        <ele>528.5869</ele>
        <time>2025-10-16T12:38:57Z</time>
      </trkpt>
      <trkpt lat="48.46795" lon="7.1354">
        <ele>528.5869</ele>
        <time>2025-10-16T12:39:02Z</time>
      </trkpt>
      <trkpt lat="48.46796" lon="7.13533">
        <ele>528.5869</ele>
        <time>2025-10-16T12:39:07Z</time>
      </trkpt>
      <trkpt lat="48.46796" lon="7.13526">
        <ele>528.5869</ele>
        <time>2025-10-16T12:39:12Z</time>
      </trkpt>
      <trkpt lat="48.46797" lon="7.13519">
        <ele>528.5869</ele>
        <time>2025-10-16T12:39:17Z</time>
      </trkpt>
      <trkpt lat="48.46797" lon="7.13511">
        <ele>528.5869</ele>
        <time>2025-10-16T12:39:22Z</time>
      </trkpt>
      <trkpt lat="48.46798" lon="7.13503">
        <ele>528.5869</ele>
        <time>2025-10-16T12:39:28Z</time>
      </trkpt>
      <trkpt lat="48.46798" lon="7.13495">
        <ele>528.5869</ele>
        <time>2025-10-16T12:39:33Z</time>
      </trkpt>
      <trkpt lat="48.46798" lon="7.13488">
        <ele>530.923</ele>
        <time>2025-10-16T12:39:38Z</time>
      </trkpt>
      <trkpt lat="48.46798" lon="7.1348">
        <ele>533.25903</ele>
        <time>2025-10-16T12:39:43Z</time>
      </trkpt>
      <trkpt lat="48.46799" lon="7.13473">
        <ele>535.59503</ele>
        <time>2025-10-16T12:39:49Z</time>
      </trkpt>
      <trkpt lat="48.46799" lon="7.13466">
        <ele>537.9311</ele>
        <time>2025-10-16T12:39:54Z</time>
      </trkpt>
      <trkpt lat="48.46799" lon="7.13458">
        <ele>540.26715</ele>
        <time>2025-10-16T12:39:58Z</time>
      </trkpt>
      <trkpt lat="48.468" lon="7.1345">
        <ele>540.26715</ele>
        <time>2025-10-16T12:40:03Z</time>
      </trkpt>
      <trkpt lat="48.46801" lon="7.13444">
        <ele>540.26715</ele>
        <time>2025-10-16T12:40:08Z</time>
      </trkpt>
      <trkpt lat="48.468" lon="7.13436">
        <ele>540.26715</ele>
        <time>2025-10-16T12:40:14Z</time>
      </trkpt>
      <trkpt lat="48.46801" lon="7.13429">
        <ele>540.26715</ele>
        <time>2025-10-16T12:40:18Z</time>
      </trkpt>
      <trkpt lat="48.46802" lon="7.13422">
        <ele>540.26715</ele>
        <time>2025-10-16T12:40:23Z</time>
      </trkpt>
      <trkpt lat="48.46803" lon="7.13414">
        <ele>540.26715</ele>
        <time>2025-10-16T12:40:28Z</time>
      </trkpt>
      <trkpt lat="48.46804" lon="7.13407">
        <ele>540.26715</ele>
        <time>2025-10-16T12:40:33Z</time>
      </trkpt>
      <trkpt lat="48.46804" lon="7.134">
        <ele>540.26715</ele>
        <time>2025-10-16T12:40:38Z</time>
      </trkpt>
      <trkpt lat="48.46806" lon="7.13392">
        <ele>540.26715</ele>
        <time>2025-10-16T12:40:42Z</time>
      </trkpt>
      <trkpt lat="48.46806" lon="7.13384">
        <ele>540.26715</ele>
        <time>2025-10-16T12:40:47Z</time>
      </trkpt>
      <trkpt lat="48.46805" lon="7.13377">
        <ele>540.26715</ele>
        <time>2025-10-16T12:40:52Z</time>
      </trkpt>
      <trkpt lat="48.46805" lon="7.1337">
        <ele>540.26715</ele>
        <time>2025-10-16T12:40:58Z</time>
      </trkpt>
      <trkpt lat="48.46805" lon="7.13363">
        <ele>540.26715</ele>
        <time>2025-10-16T12:41:02Z</time>
      </trkpt>
      <trkpt lat="48.46806" lon="7.13355">
        <ele>540.26715</ele>
        <time>2025-10-16T12:41:08Z</time>
      </trkpt>
      <trkpt lat="48.46805" lon="7.13348">
        <ele>540.26715</ele>
        <time>2025-10-16T12:41:13Z</time>
      </trkpt>
      <trkpt lat="48.46806" lon="7.13341">
        <ele>540.26715</ele>
        <time>2025-10-16T12:41:18Z</time>
      </trkpt>
      <trkpt lat="48.46806" lon="7.13333">
        <ele>540.26715</ele>
        <time>2025-10-16T12:41:23Z</time>
      </trkpt>
      <trkpt lat="48.46807" lon="7.13325">
        <ele>540.26715</ele>
        <time>2025-10-16T12:41:29Z</time>
      </trkpt>
      <trkpt lat="48.46806" lon="7.13317">
        <ele>540.26715</ele>
        <time>2025-10-16T12:41:35Z</time>
      </trkpt>
      <trkpt lat="48.46807" lon="7.1331">
        <ele>542.5446</ele>
        <time>2025-10-16T12:41:41Z</time>
      </trkpt>
      <trkpt lat="48.46807" lon="7.13303">
        <ele>544.8221</ele>
        <time>2025-10-16T12:41:46Z</time>
      </trkpt>
      <trkpt lat="48.46808" lon="7.13295">
        <ele>547.09955</ele>
        <time>2025-10-16T12:41:51Z</time>
      </trkpt>
      <trkpt lat="48.46809" lon="7.13287">
        <ele>549.377</ele>
        <time>2025-10-16T12:41:56Z</time>
      </trkpt>
      <trkpt lat="48.46808" lon="7.1328">
        <ele>551.6545</ele>
        <time>2025-10-16T12:42:02Z</time>
      </trkpt>
      <trkpt lat="48.46809" lon="7.13273">
        <ele>551.6545</ele>
        <time>2025-10-16T12:42:06Z</time>
      </trkpt>
      <trkpt lat="48.4681" lon="7.13265">
        <ele>551.6545</ele>
        <time>2025-10-16T12:42:10Z</time>
      </trkpt>
      <trkpt lat="48.46811" lon="7.13257">
        <ele>551.6545</ele>
        <time>2025-10-16T12:42:16Z</time>
      </trkpt>
      <trkpt lat="48.46812" lon="7.13249">
        <ele>551.6545</ele>
        <time>2025-10-16T12:42:21Z</time>
      </trkpt>
      <trkpt lat="48.46813" lon="7.13241">
        <ele>551.6545</ele>
        <time>2025-10-16T12:42:26Z</time>
      </trkpt>
      <trkpt lat="48.46813" lon="7.13234">
        <ele>551.6545</ele>
        <time>2025-10-16T12:42:31Z</time>
      </trkpt>
      <trkpt lat="48.46814" lon="7.13226">
        <ele>551.6545</ele>
        <time>2025-10-16T12:42:36Z</time>
      </trkpt>
      <trkpt lat="48.46814" lon="7.13219">
        <ele>551.6545</ele>
        <time>2025-10-16T12:42:41Z</time>
      </trkpt>
      <trkpt lat="48.46814" lon="7.13212">
        <ele>551.6545</ele>
        <time>2025-10-16T12:42:47Z</time>
      </trkpt>
      <trkpt lat="48.46818" lon="7.13206">
        <ele>551.6545</ele>
        <time>2025-10-16T12:42:52Z</time>
      </trkpt>
      <trkpt lat="48.46815" lon="7.13201">
        <ele>551.6545</ele>
        <time>2025-10-16T12:42:54Z</time>
      </trkpt>
      <trkpt lat="48.46812" lon="7.13195">
        <ele>551.6545</ele>
        <time>2025-10-16T12:42:57Z</time>
      </trkpt>
      <trkpt lat="48.46811" lon="7.13187">
        <ele>551.6545</ele>
        <time>2025-10-16T12:43:04Z</time>
      </trkpt>
      <trkpt lat="48.46809" lon="7.13179">
        <ele>551.6545</ele>
        <time>2025-10-16T12:43:10Z</time>
      </trkpt>
      <trkpt lat="48.46808" lon="7.13171">
        <ele>551.6545</ele>
        <time>2025-10-16T12:43:15Z</time>
      </trkpt>
      <trkpt lat="48.46806" lon="7.13164">
        <ele>551.6545</ele>
        <time>2025-10-16T12:43:19Z</time>
      </trkpt>
      <trkpt lat="48.46805" lon="7.13157">
        <ele>551.6545</ele>
        <time>2025-10-16T12:43:22Z</time>
      </trkpt>
      <trkpt lat="48.46805" lon="7.1315">
        <ele>551.6545</ele>
        <time>2025-10-16T12:43:26Z</time>
      </trkpt>
      <trkpt lat="48.46804" lon="7.13142">
        <ele>551.6545</ele>
        <time>2025-10-16T12:43:33Z</time>
      </trkpt>
      <trkpt lat="48.46807" lon="7.13134">
        <ele>551.6545</ele>
        <time>2025-10-16T12:43:39Z</time>
      </trkpt>
      <trkpt lat="48.46806" lon="7.13127">
        <ele>551.6545</ele>
        <time>2025-10-16T12:43:44Z</time>
      </trkpt>
      <trkpt lat="48.46804" lon="7.1312">
        <ele>551.6545</ele>
        <time>2025-10-16T12:43:51Z</time>
      </trkpt>
      <trkpt lat="48.46805" lon="7.13113">
        <ele>551.6545</ele>
        <time>2025-10-16T12:43:56Z</time>
      </trkpt>
      <trkpt lat="48.46804" lon="7.13105">
        <ele>551.6545</ele>
        <time>2025-10-16T12:44:00Z</time>
      </trkpt>
      <trkpt lat="48.46805" lon="7.13096">
        <ele>551.6545</ele>
        <time>2025-10-16T12:44:05Z</time>
      </trkpt>
      <trkpt lat="48.46804" lon="7.13089">
        <ele>551.6545</ele>
        <time>2025-10-16T12:44:11Z</time>
      </trkpt>
      <trkpt lat="48.46803" lon="7.13081">
        <ele>551.6545</ele>
        <time>2025-10-16T12:44:15Z</time>
      </trkpt>
      <trkpt lat="48.46802" lon="7.13074">
        <ele>551.6545</ele>
        <time>2025-10-16T12:44:19Z</time>
      </trkpt>
      <trkpt lat="48.46798" lon="7.13069">
        <ele>553.7679</ele>
        <time>2025-10-16T12:44:23Z</time>
      </trkpt>
      <trkpt lat="48.46799" lon="7.1306">
        <ele>555.8813</ele>
        <time>2025-10-16T12:44:27Z</time>
      </trkpt>
      <trkpt lat="48.46799" lon="7.13053">
        <ele>557.9946</ele>
        <time>2025-10-16T12:44:31Z</time>
      </trkpt>
      <trkpt lat="48.46798" lon="7.13046">
        <ele>560.10803</ele>
        <time>2025-10-16T12:44:39Z</time>
      </trkpt>
      <trkpt lat="48.46798" lon="7.13039">
        <ele>562.22144</ele>
        <time>2025-10-16T12:44:45Z</time>
      </trkpt>
      <trkpt lat="48.46799" lon="7.13031">
        <ele>562.22144</ele>
        <time>2025-10-16T12:44:50Z</time>
      </trkpt>
      <trkpt lat="48.468" lon="7.13023">
        <ele>562.22144</ele>
        <time>2025-10-16T12:44:55Z</time>
      </trkpt>
      <trkpt lat="48.46801" lon="7.13015">
        <ele>562.22144</ele>
        <time>2025-10-16T12:45:01Z</time>
      </trkpt>
      <trkpt lat="48.46801" lon="7.13008">
        <ele>562.22144</ele>
        <time>2025-10-16T12:45:05Z</time>
      </trkpt>
      <trkpt lat="48.46799" lon="7.13001">
        <ele>562.22144</ele>
        <time>2025-10-16T12:45:09Z</time>
      </trkpt>
      <trkpt lat="48.46799" lon="7.12993">
        <ele>562.22144</ele>
        <time>2025-10-16T12:45:14Z</time>
      </trkpt>
      <trkpt lat="48.46799" lon="7.12985">
        <ele>562.22144</ele>
        <time>2025-10-16T12:45:19Z</time>
      </trkpt>
      <trkpt lat="48.46798" lon="7.12977">
        <ele>562.22144</ele>
        <time>2025-10-16T12:45:23Z</time>
      </trkpt>
      <trkpt lat="48.46796" lon="7.1297">
        <ele>564.4142</ele>
        <time>2025-10-16T12:45:27Z</time>
      </trkpt>
      <trkpt lat="48.468" lon="7.12966">
        <ele>566.60693</ele>
        <time>2025-10-16T12:45:35Z</time>
      </trkpt>
      <trkpt lat="48.46801" lon="7.12959">
        <ele>568.7996</ele>
        <time>2025-10-16T12:45:41Z</time>
      </trkpt>
      <trkpt lat="48.46802" lon="7.12952">
        <ele>570.9924</ele>
        <time>2025-10-16T12:45:47Z</time>
      </trkpt>
      <trkpt lat="48.46802" lon="7.12945">
        <ele>573.1851</ele>
        <time>2025-10-16T12:45:52Z</time>
      </trkpt>
      <trkpt lat="48.46802" lon="7.12938">
        <ele>573.1851</ele>
        <time>2025-10-16T12:45:58Z</time>
      </trkpt>
      <trkpt lat="48.46802" lon="7.12931">
        <ele>573.1851</ele>
        <time>2025-10-16T12:46:04Z</time>
      </trkpt>
      <trkpt lat="48.46801" lon="7.12923">
        <ele>573.1851</ele>
        <time>2025-10-16T12:46:10Z</time>
      </trkpt>
      <trkpt lat="48.46801" lon="7.12916">
        <ele>573.1851</ele>
        <time>2025-10-16T12:46:14Z</time>
      </trkpt>
      <trkpt lat="48.468" lon="7.12909">
        <ele>573.1851</ele>
        <time>2025-10-16T12:46:20Z</time>
      </trkpt>
      <trkpt lat="48.468" lon="7.12902">
        <ele>573.1851</ele>
        <time>2025-10-16T12:46:25Z</time>
      </trkpt>
      <trkpt lat="48.46799" lon="7.12894">
        <ele>573.1851</ele>
        <time>2025-10-16T12:46:31Z</time>
      </trkpt>
      <trkpt lat="48.46798" lon="7.12886">
        <ele>573.1851</ele>
        <time>2025-10-16T12:46:36Z</time>
      </trkpt>
      <trkpt lat="48.46796" lon="7.12879">
        <ele>573.1851</ele>
        <time>2025-10-16T12:46:40Z</time>
      </trkpt>
      <trkpt lat="48.46795" lon="7.12872">
        <ele>573.1851</ele>
        <time>2025-10-16T12:46:45Z</time>
      </trkpt>
      <trkpt lat="48.46795" lon="7.12865">
        <ele>573.1851</ele>
        <time>2025-10-16T12:46:50Z</time>
      </trkpt>
      <trkpt lat="48.46793" lon="7.12857">
        <ele>573.1851</ele>
        <time>2025-10-16T12:46:55Z</time>
      </trkpt>
      <trkpt lat="48.46793" lon="7.12849">
        <ele>573.1851</ele>
        <time>2025-10-16T12:47:01Z</time>
      </trkpt>
      <trkpt lat="48.46793" lon="7.12842">
        <ele>573.1851</ele>
        <time>2025-10-16T12:47:06Z</time>
      </trkpt>
      <trkpt lat="48.46792" lon="7.12835">
        <ele>573.1851</ele>
        <time>2025-10-16T12:47:11Z</time>
      </trkpt>
      <trkpt lat="48.46791" lon="7.12826">
        <ele>575.3513</ele>
        <time>2025-10-16T12:47:17Z</time>
      </trkpt>
      <trkpt lat="48.46791" lon="7.1282">
        <ele>577.5175</ele>
        <time>2025-10-16T12:47:22Z</time>
      </trkpt>
      <trkpt lat="48.4679" lon="7.12811">
        <ele>579.6837</ele>
        <time>2025-10-16T12:47:28Z</time>
      </trkpt>
      <trkpt lat="48.4679" lon="7.12804">
        <ele>581.8499</ele>
        <time>2025-10-16T12:47:34Z</time>
      </trkpt>
      <trkpt lat="48.4679" lon="7.12796">
        <ele>584.0161</ele>
        <time>2025-10-16T12:47:40Z</time>
      </trkpt>
      <trkpt lat="48.46787" lon="7.12788">
        <ele>584.0161</ele>
        <time>2025-10-16T12:47:46Z</time>
      </trkpt>
      <trkpt lat="48.46784" lon="7.12782">
        <ele>584.0161</ele>
        <time>2025-10-16T12:47:50Z</time>
      </trkpt>
      <trkpt lat="48.46779" lon="7.12773">
        <ele>584.0161</ele>
        <time>2025-10-16T12:48:12Z</time>
      </trkpt>
      <trkpt lat="48.46781" lon="7.1278">
        <ele>584.0161</ele>
        <time>2025-10-16T12:48:19Z</time>
      </trkpt>
      <trkpt lat="48.46777" lon="7.12785">
        <ele>584.0161</ele>
        <time>2025-10-16T12:48:26Z</time>
      </trkpt>
      <trkpt lat="48.46781" lon="7.1278">
        <ele>584.0161</ele>
        <time>2025-10-16T12:48:35Z</time>
      </trkpt>
      <trkpt lat="48.46783" lon="7.12773">
        <ele>584.0161</ele>
        <time>2025-10-16T12:48:39Z</time>
      </trkpt>
      <trkpt lat="48.46783" lon="7.12766">
        <ele>584.0161</ele>
        <time>2025-10-16T12:48:44Z</time>
      </trkpt>
      <trkpt lat="48.46781" lon="7.12758">
        <ele>584.0161</ele>
        <time>2025-10-16T12:48:50Z</time>
      </trkpt>
      <trkpt lat="48.4678" lon="7.12751">
        <ele>584.0161</ele>
        <time>2025-10-16T12:48:55Z</time>
      </trkpt>
      <trkpt lat="48.46779" lon="7.12744">
        <ele>584.0161</ele>
        <time>2025-10-16T12:49:00Z</time>
      </trkpt>
      <trkpt lat="48.46778" lon="7.12735">
        <ele>584.0161</ele>
        <time>2025-10-16T12:49:05Z</time>
      </trkpt>
      <trkpt lat="48.46778" lon="7.12729">
        <ele>584.0161</ele>
        <time>2025-10-16T12:49:09Z</time>
      </trkpt>
      <trkpt lat="48.46777" lon="7.12721">
        <ele>584.0161</ele>
        <time>2025-10-16T12:49:14Z</time>
      </trkpt>
      <trkpt lat="48.46777" lon="7.12714">
        <ele>584.0161</ele>
        <time>2025-10-16T12:49:19Z</time>
      </trkpt>
      <trkpt lat="48.46776" lon="7.12707">
        <ele>584.0161</ele>
        <time>2025-10-16T12:49:24Z</time>
      </trkpt>
      <trkpt lat="48.46775" lon="7.127">
        <ele>584.0161</ele>
        <time>2025-10-16T12:49:28Z</time>
      </trkpt>
      <trkpt lat="48.46775" lon="7.12692">
        <ele>584.0161</ele>
        <time>2025-10-16T12:49:33Z</time>
      </trkpt>
      <trkpt lat="48.46775" lon="7.12685">
        <ele>584.0161</ele>
        <time>2025-10-16T12:49:38Z</time>
      </trkpt>
      <trkpt lat="48.46774" lon="7.12678">
        <ele>584.0161</ele>
        <time>2025-10-16T12:49:55Z</time>
      </trkpt>
      <trkpt lat="48.4677" lon="7.12673">
        <ele>586.0187</ele>
        <time>2025-10-16T12:50:07Z</time>
      </trkpt>
      <trkpt lat="48.46768" lon="7.12666">
        <ele>588.0213</ele>
        <time>2025-10-16T12:50:25Z</time>
      </trkpt>
      <trkpt lat="48.4677" lon="7.1266">
        <ele>590.02386</ele>
        <time>2025-10-16T12:51:12Z</time>
      </trkpt>
      <trkpt lat="48.46769" lon="7.12653">
        <ele>592.0265</ele>
        <time>2025-10-16T12:51:19Z</time>
      </trkpt>
      <trkpt lat="48.46768" lon="7.12645">
        <ele>594.02905</ele>
        <time>2025-10-16T12:51:25Z</time>
      </trkpt>
      <trkpt lat="48.46766" lon="7.12638">
        <ele>594.02905</ele>
        <time>2025-10-16T12:51:32Z</time>
      </trkpt>
      <trkpt lat="48.46764" lon="7.12631">
        <ele>594.02905</ele>
        <time>2025-10-16T12:51:39Z</time>
      </trkpt>
      <trkpt lat="48.46762" lon="7.12624">
        <ele>594.02905</ele>
        <time>2025-10-16T12:51:46Z</time>
      </trkpt>
      <trkpt lat="48.4676" lon="7.12617">
        <ele>594.02905</ele>
        <time>2025-10-16T12:51:52Z</time>
      </trkpt>
      <trkpt lat="48.46758" lon="7.12611">
        <ele>594.02905</ele>
        <time>2025-10-16T12:51:57Z</time>
      </trkpt>
      <trkpt lat="48.46757" lon="7.12603">
        <ele>594.02905</ele>
        <time>2025-10-16T12:52:02Z</time>
      </trkpt>
      <trkpt lat="48.46756" lon="7.12595">
        <ele>594.02905</ele>
        <time>2025-10-16T12:52:08Z</time>
      </trkpt>
      <trkpt lat="48.46754" lon="7.12587">
        <ele>594.02905</ele>
        <time>2025-10-16T12:52:14Z</time>
      </trkpt>
      <trkpt lat="48.46752" lon="7.12581">
        <ele>594.02905</ele>
        <time>2025-10-16T12:52:19Z</time>
      </trkpt>
      <trkpt lat="48.46749" lon="7.12574">
        <ele>594.02905</ele>
        <time>2025-10-16T12:52:24Z</time>
      </trkpt>
      <trkpt lat="48.46746" lon="7.12567">
        <ele>594.02905</ele>
        <time>2025-10-16T12:52:29Z</time>
      </trkpt>
      <trkpt lat="48.46745" lon="7.12559">
        <ele>594.02905</ele>
        <time>2025-10-16T12:52:35Z</time>
      </trkpt>
      <trkpt lat="48.46743" lon="7.12553">
        <ele>594.02905</ele>
        <time>2025-10-16T12:52:40Z</time>
      </trkpt>
      <trkpt lat="48.46742" lon="7.12545">
        <ele>594.02905</ele>
        <time>2025-10-16T12:52:45Z</time>
      </trkpt>
      <trkpt lat="48.46743" lon="7.12537">
        <ele>594.02905</ele>
        <time>2025-10-16T12:52:50Z</time>
      </trkpt>
      <trkpt lat="48.46741" lon="7.1253">
        <ele>594.02905</ele>
        <time>2025-10-16T12:52:55Z</time>
      </trkpt>
      <trkpt lat="48.4674" lon="7.12523">
        <ele>594.02905</ele>
        <time>2025-10-16T12:53:00Z</time>
      </trkpt>
      <trkpt lat="48.4674" lon="7.12515">
        <ele>596.14984</ele>
        <time>2025-10-16T12:53:06Z</time>
      </trkpt>
      <trkpt lat="48.46738" lon="7.12508">
        <ele>598.2706</ele>
        <time>2025-10-16T12:53:11Z</time>
      </trkpt>
      <trkpt lat="48.46738" lon="7.12501">
        <ele>600.3914</ele>
        <time>2025-10-16T12:53:17Z</time>
      </trkpt>
      <trkpt lat="48.46738" lon="7.12494">
        <ele>602.5122</ele>
        <time>2025-10-16T12:53:22Z</time>
      </trkpt>
      <trkpt lat="48.46739" lon="7.12488">
        <ele>604.633</ele>
        <time>2025-10-16T12:53:27Z</time>
      </trkpt>
      <trkpt lat="48.46739" lon="7.1248">
        <ele>604.633</ele>
        <time>2025-10-16T12:53:33Z</time>
      </trkpt>
      <trkpt lat="48.46737" lon="7.12474">
        <ele>604.633</ele>
        <time>2025-10-16T12:53:38Z</time>
      </trkpt>
      <trkpt lat="48.46734" lon="7.12468">
        <ele>604.633</ele>
        <time>2025-10-16T12:53:41Z</time>
      </trkpt>
      <trkpt lat="48.46731" lon="7.1246">
        <ele>604.633</ele>
        <time>2025-10-16T12:53:45Z</time>
      </trkpt>
      <trkpt lat="48.46728" lon="7.12452">
        <ele>604.633</ele>
        <time>2025-10-16T12:53:48Z</time>
      </trkpt>
      <trkpt lat="48.46726" lon="7.12445">
        <ele>604.633</ele>
        <time>2025-10-16T12:53:52Z</time>
      </trkpt>
      <trkpt lat="48.46726" lon="7.12437">
        <ele>604.633</ele>
        <time>2025-10-16T12:53:58Z</time>
      </trkpt>
      <trkpt lat="48.46726" lon="7.1243">
        <ele>604.633</ele>
        <time>2025-10-16T12:54:04Z</time>
      </trkpt>
      <trkpt lat="48.46727" lon="7.12423">
        <ele>604.633</ele>
        <time>2025-10-16T12:54:11Z</time>
      </trkpt>
      <trkpt lat="48.46727" lon="7.12415">
        <ele>604.633</ele>
        <time>2025-10-16T12:54:16Z</time>
      </trkpt>
      <trkpt lat="48.46725" lon="7.12408">
        <ele>604.633</ele>
        <time>2025-10-16T12:54:22Z</time>
      </trkpt>
      <trkpt lat="48.46724" lon="7.12401">
        <ele>604.633</ele>
        <time>2025-10-16T12:54:26Z</time>
      </trkpt>
      <trkpt lat="48.46723" lon="7.12392">
        <ele>604.633</ele>
        <time>2025-10-16T12:54:31Z</time>
      </trkpt>
      <trkpt lat="48.46725" lon="7.12384">
        <ele>604.633</ele>
        <time>2025-10-16T12:54:34Z</time>
      </trkpt>
      <trkpt lat="48.46724" lon="7.12375">
        <ele>604.633</ele>
        <time>2025-10-16T12:54:40Z</time>
      </trkpt>
      <trkpt lat="48.46725" lon="7.12368">
        <ele>604.633</ele>
        <time>2025-10-16T12:54:46Z</time>
      </trkpt>
      <trkpt lat="48.46726" lon="7.12361">
        <ele>604.633</ele>
        <time>2025-10-16T12:54:51Z</time>
      </trkpt>
      <trkpt lat="48.46727" lon="7.12353">
        <ele>604.633</ele>
        <time>2025-10-16T12:54:57Z</time>
      </trkpt>
      <trkpt lat="48.46727" lon="7.12346">
        <ele>604.633</ele>
        <time>2025-10-16T12:55:01Z</time>
      </trkpt>
      <trkpt lat="48.46728" lon="7.12337">
        <ele>604.633</ele>
        <time>2025-10-16T12:55:06Z</time>
      </trkpt>
      <trkpt lat="48.46729" lon="7.12331">
        <ele>604.633</ele>
        <time>2025-10-16T12:55:11Z</time>
      </trkpt>
      <trkpt lat="48.4673" lon="7.12323">
        <ele>604.633</ele>
        <time>2025-10-16T12:55:16Z</time>
      </trkpt>
      <trkpt lat="48.4673" lon="7.12315">
        <ele>604.633</ele>
        <time>2025-10-16T12:55:22Z</time>
      </trkpt>
      <trkpt lat="48.4673" lon="7.12308">
        <ele>606.79553</ele>
        <time>2025-10-16T12:55:26Z</time>
      </trkpt>
      <trkpt lat="48.46727" lon="7.123">
        <ele>608.95807</ele>
        <time>2025-10-16T12:55:30Z</time>
      </trkpt>
      <trkpt lat="48.46724" lon="7.12294">
        <ele>611.12067</ele>
        <time>2025-10-16T12:55:35Z</time>
      </trkpt>
      <trkpt lat="48.46723" lon="7.12287">
        <ele>613.2832</ele>
        <time>2025-10-16T12:55:41Z</time>
      </trkpt>
      <trkpt lat="48.46721" lon="7.1228">
        <ele>615.44574</ele>
        <time>2025-10-16T12:55:47Z</time>
      </trkpt>
      <trkpt lat="48.46718" lon="7.12273">
        <ele>615.44574</ele>
        <time>2025-10-16T12:55:52Z</time>
      </trkpt>
      <trkpt lat="48.46713" lon="7.12271">
        <ele>615.44574</ele>
        <time>2025-10-16T12:55:57Z</time>
      </trkpt>
      <trkpt lat="48.46709" lon="7.12266">
        <ele>615.44574</ele>
        <time>2025-10-16T12:56:01Z</time>
      </trkpt>
      <trkpt lat="48.46706" lon="7.12259">
        <ele>615.44574</ele>
        <time>2025-10-16T12:56:07Z</time>
      </trkpt>
      <trkpt lat="48.46702" lon="7.12256">
        <ele>615.44574</ele>
        <time>2025-10-16T12:56:10Z</time>
      </trkpt>
      <trkpt lat="48.467" lon="7.12249">
        <ele>615.44574</ele>
        <time>2025-10-16T12:56:15Z</time>
      </trkpt>
      <trkpt lat="48.46696" lon="7.12245">
        <ele>615.44574</ele>
        <time>2025-10-16T12:56:19Z</time>
      </trkpt>
      <trkpt lat="48.46692" lon="7.12241">
        <ele>615.44574</ele>
        <time>2025-10-16T12:56:25Z</time>
      </trkpt>
      <trkpt lat="48.46689" lon="7.12236">
        <ele>615.44574</ele>
        <time>2025-10-16T12:56:29Z</time>
      </trkpt>
      <trkpt lat="48.46685" lon="7.12231">
        <ele>615.44574</ele>
        <time>2025-10-16T12:56:33Z</time>
      </trkpt>
      <trkpt lat="48.46682" lon="7.12226">
        <ele>615.44574</ele>
        <time>2025-10-16T12:56:41Z</time>
      </trkpt>
      <trkpt lat="48.46679" lon="7.12219">
        <ele>615.44574</ele>
        <time>2025-10-16T12:56:45Z</time>
      </trkpt>
      <trkpt lat="48.46676" lon="7.12214">
        <ele>615.44574</ele>
        <time>2025-10-16T12:56:52Z</time>
      </trkpt>
      <trkpt lat="48.46672" lon="7.12209">
        <ele>615.44574</ele>
        <time>2025-10-16T12:56:57Z</time>
      </trkpt>
      <trkpt lat="48.46668" lon="7.12206">
        <ele>615.44574</ele>
        <time>2025-10-16T12:57:02Z</time>
      </trkpt>
      <trkpt lat="48.46663" lon="7.12204">
        <ele>615.44574</ele>
        <time>2025-10-16T12:57:06Z</time>
      </trkpt>
      <trkpt lat="48.46658" lon="7.12204">
        <ele>615.44574</ele>
        <time>2025-10-16T12:57:11Z</time>
      </trkpt>
      <trkpt lat="48.46656" lon="7.12197">
        <ele>615.44574</ele>
        <time>2025-10-16T12:57:29Z</time>
      </trkpt>
      <trkpt lat="48.46652" lon="7.12195">
        <ele>615.44574</ele>
        <time>2025-10-16T12:57:34Z</time>
      </trkpt>
      <trkpt lat="48.46647" lon="7.12194">
        <ele>615.44574</ele>
        <time>2025-10-16T12:57:40Z</time>
      </trkpt>
      <trkpt lat="48.46642" lon="7.12193">
        <ele>615.44574</ele>
        <time>2025-10-16T12:57:44Z</time>
      </trkpt>
      <trkpt lat="48.46637" lon="7.12194">
        <ele>615.44574</ele>
        <time>2025-10-16T12:57:49Z</time>
      </trkpt>
      <trkpt lat="48.46632" lon="7.12194">
        <ele>615.44574</ele>
        <time>2025-10-16T12:57:55Z</time>
      </trkpt>
      <trkpt lat="48.46628" lon="7.12192">
        <ele>615.44574</ele>
        <time>2025-10-16T12:57:59Z</time>
      </trkpt>
      <trkpt lat="48.46623" lon="7.12189">
        <ele>615.44574</ele>
        <time>2025-10-16T12:58:04Z</time>
      </trkpt>
      <trkpt lat="48.46619" lon="7.12186">
        <ele>615.44574</ele>
        <time>2025-10-16T12:58:10Z</time>
      </trkpt>
      <trkpt lat="48.46615" lon="7.12185">
        <ele>615.44574</ele>
        <time>2025-10-16T12:58:18Z</time>
      </trkpt>
      <trkpt lat="48.46611" lon="7.12189">
        <ele>615.44574</ele>
        <time>2025-10-16T12:58:45Z</time>
      </trkpt>
      <trkpt lat="48.46616" lon="7.12188">
        <ele>615.44574</ele>
        <time>2025-10-16T12:59:10Z</time>
      </trkpt>
      <trkpt lat="48.46611" lon="7.12178">
        <ele>615.44574</ele>
        <time>2025-10-16T12:59:46Z</time>
      </trkpt>
      <trkpt lat="48.46611" lon="7.12186">
        <ele>615.44574</ele>
        <time>2025-10-16T12:59:57Z</time>
      </trkpt>
      <trkpt lat="48.46613" lon="7.12195">
        <ele>615.44574</ele>
        <time>2025-10-16T13:00:48Z</time>
      </trkpt>
      <trkpt lat="48.46615" lon="7.12188">
        <ele>615.44574</ele>
        <time>2025-10-16T13:00:53Z</time>
      </trkpt>
      <trkpt lat="48.46616" lon="7.12181">
        <ele>615.44574</ele>
        <time>2025-10-16T13:00:56Z</time>
      </trkpt>
      <trkpt lat="48.46617" lon="7.12174">
        <ele>615.44574</ele>
        <time>2025-10-16T13:01:00Z</time>
      </trkpt>
      <trkpt lat="48.4662" lon="7.12169">
        <ele>615.44574</ele>
        <time>2025-10-16T13:01:05Z</time>
      </trkpt>
      <trkpt lat="48.46624" lon="7.12166">
        <ele>615.44574</ele>
        <time>2025-10-16T13:01:09Z</time>
      </trkpt>
      <trkpt lat="48.46629" lon="7.12166">
        <ele>615.44574</ele>
        <time>2025-10-16T13:01:13Z</time>
      </trkpt>
      <trkpt lat="48.46634" lon="7.12165">
        <ele>615.44574</ele>
        <time>2025-10-16T13:01:18Z</time>
      </trkpt>
      <trkpt lat="48.46639" lon="7.12165">
        <ele>615.44574</ele>
        <time>2025-10-16T13:01:23Z</time>
      </trkpt>
      <trkpt lat="48.46643" lon="7.12165">
        <ele>617.5311</ele>
        <time>2025-10-16T13:01:27Z</time>
      </trkpt>
      <trkpt lat="48.46649" lon="7.12166">
        <ele>619.6166</ele>
        <time>2025-10-16T13:01:31Z</time>
      </trkpt>
      <trkpt lat="48.46654" lon="7.12166">
        <ele>621.70197</ele>
        <time>2025-10-16T13:01:37Z</time>
      </trkpt>
      <trkpt lat="48.4666" lon="7.12166">
        <ele>623.7874</ele>
        <time>2025-10-16T13:01:43Z</time>
      </trkpt>
      <trkpt lat="48.46665" lon="7.12165">
        <ele>625.8728</ele>
        <time>2025-10-16T13:01:48Z</time>
      </trkpt>
      <trkpt lat="48.4667" lon="7.12166">
        <ele>625.8728</ele>
        <time>2025-10-16T13:01:54Z</time>
      </trkpt>
      <trkpt lat="48.46675" lon="7.12168">
        <ele>625.8728</ele>
        <time>2025-10-16T13:02:00Z</time>
      </trkpt>
      <trkpt lat="48.4668" lon="7.12169">
        <ele>625.8728</ele>
        <time>2025-10-16T13:02:05Z</time>
      </trkpt>
      <trkpt lat="48.46685" lon="7.12169">
        <ele>625.8728</ele>
        <time>2025-10-16T13:02:11Z</time>
      </trkpt>
      <trkpt lat="48.4669" lon="7.1217">
        <ele>625.8728</ele>
        <time>2025-10-16T13:02:17Z</time>
      </trkpt>
      <trkpt lat="48.46696" lon="7.12173">
        <ele>625.8728</ele>
        <time>2025-10-16T13:02:22Z</time>
      </trkpt>
      <trkpt lat="48.46701" lon="7.12173">
        <ele>625.8728</ele>
        <time>2025-10-16T13:02:28Z</time>
      </trkpt>
      <trkpt lat="48.46705" lon="7.12175">
        <ele>625.8728</ele>
        <time>2025-10-16T13:02:33Z</time>
      </trkpt>
      <trkpt lat="48.4671" lon="7.12176">
        <ele>625.8728</ele>
        <time>2025-10-16T13:02:37Z</time>
      </trkpt>
      <trkpt lat="48.46716" lon="7.12177">
        <ele>625.8728</ele>
        <time>2025-10-16T13:02:43Z</time>
      </trkpt>
      <trkpt lat="48.46721" lon="7.12178">
        <ele>625.8728</ele>
        <time>2025-10-16T13:02:48Z</time>
      </trkpt>
      <trkpt lat="48.46726" lon="7.12179">
        <ele>625.8728</ele>
        <time>2025-10-16T13:02:53Z</time>
      </trkpt>
      <trkpt lat="48.46734" lon="7.1218">
        <ele>625.8728</ele>
        <time>2025-10-16T13:03:00Z</time>
      </trkpt>
      <trkpt lat="48.46739" lon="7.12182">
        <ele>625.8728</ele>
        <time>2025-10-16T13:03:04Z</time>
      </trkpt>
      <trkpt lat="48.46743" lon="7.12184">
        <ele>625.8728</ele>
        <time>2025-10-16T13:03:07Z</time>
      </trkpt>
      <trkpt lat="48.46748" lon="7.12188">
        <ele>625.8728</ele>
        <time>2025-10-16T13:03:13Z</time>
      </trkpt>
      <trkpt lat="48.46753" lon="7.1219">
        <ele>625.8728</ele>
        <time>2025-10-16T13:03:17Z</time>
      </trkpt>
      <trkpt lat="48.46758" lon="7.12193">
        <ele>625.8728</ele>
        <time>2025-10-16T13:03:22Z</time>
      </trkpt>
      <trkpt lat="48.46763" lon="7.12196">
        <ele>625.8728</ele>
        <time>2025-10-16T13:03:27Z</time>
      </trkpt>
      <trkpt lat="48.46767" lon="7.12201">
        <ele>625.8728</ele>
        <time>2025-10-16T13:03:32Z</time>
      </trkpt>
      <trkpt lat="48.46771" lon="7.12205">
        <ele>625.8728</ele>
        <time>2025-10-16T13:03:37Z</time>
      </trkpt>
      <trkpt lat="48.46775" lon="7.12208">
        <ele>625.8728</ele>
        <time>2025-10-16T13:03:42Z</time>
      </trkpt>
      <trkpt lat="48.4678" lon="7.12212">
        <ele>625.8728</ele>
        <time>2025-10-16T13:03:47Z</time>
      </trkpt>
      <trkpt lat="48.46785" lon="7.12215">
        <ele>625.8728</ele>
        <time>2025-10-16T13:03:52Z</time>
      </trkpt>
      <trkpt lat="48.46789" lon="7.12219">
        <ele>625.8728</ele>
        <time>2025-10-16T13:03:57Z</time>
      </trkpt>
      <trkpt lat="48.46793" lon="7.12223">
        <ele>625.8728</ele>
        <time>2025-10-16T13:04:02Z</time>
      </trkpt>
      <trkpt lat="48.46797" lon="7.12228">
        <ele>625.8728</ele>
        <time>2025-10-16T13:04:07Z</time>
      </trkpt>
      <trkpt lat="48.468" lon="7.12233">
        <ele>625.8728</ele>
        <time>2025-10-16T13:04:12Z</time>
      </trkpt>
      <trkpt lat="48.46804" lon="7.12238">
        <ele>627.90955</ele>
        <time>2025-10-16T13:04:17Z</time>
      </trkpt>
      <trkpt lat="48.46808" lon="7.12244">
        <ele>629.9463</ele>
        <time>2025-10-16T13:04:23Z</time>
      </trkpt>
      <trkpt lat="48.46811" lon="7.12249">
        <ele>631.9831</ele>
        <time>2025-10-16T13:04:28Z</time>
      </trkpt>
      <trkpt lat="48.46814" lon="7.12255">
        <ele>634.01984</ele>
        <time>2025-10-16T13:04:33Z</time>
      </trkpt>
      <trkpt lat="48.46816" lon="7.12261">
        <ele>636.0566</ele>
        <time>2025-10-16T13:04:38Z</time>
      </trkpt>
      <trkpt lat="48.46819" lon="7.12267">
        <ele>636.0566</ele>
        <time>2025-10-16T13:04:43Z</time>
      </trkpt>
      <trkpt lat="48.4682" lon="7.12274">
        <ele>636.0566</ele>
        <time>2025-10-16T13:04:48Z</time>
      </trkpt>
      <trkpt lat="48.46823" lon="7.12279">
        <ele>636.0566</ele>
        <time>2025-10-16T13:04:53Z</time>
      </trkpt>
      <trkpt lat="48.46826" lon="7.12286">
        <ele>636.0566</ele>
        <time>2025-10-16T13:04:58Z</time>
      </trkpt>
      <trkpt lat="48.46828" lon="7.12292">
        <ele>636.0566</ele>
        <time>2025-10-16T13:05:01Z</time>
      </trkpt>
      <trkpt lat="48.46831" lon="7.12298">
        <ele>636.0566</ele>
        <time>2025-10-16T13:05:06Z</time>
      </trkpt>
      <trkpt lat="48.46834" lon="7.12304">
        <ele>636.0566</ele>
        <time>2025-10-16T13:05:11Z</time>
      </trkpt>
      <trkpt lat="48.46837" lon="7.12312">
        <ele>636.0566</ele>
        <time>2025-10-16T13:05:16Z</time>
      </trkpt>
      <trkpt lat="48.46841" lon="7.12316">
        <ele>636.0566</ele>
        <time>2025-10-16T13:05:21Z</time>
      </trkpt>
      <trkpt lat="48.46843" lon="7.12323">
        <ele>636.0566</ele>
        <time>2025-10-16T13:05:29Z</time>
      </trkpt>
      <trkpt lat="48.46846" lon="7.12328">
        <ele>636.0566</ele>
        <time>2025-10-16T13:05:34Z</time>
      </trkpt>
      <trkpt lat="48.46848" lon="7.12335">
        <ele>636.0566</ele>
        <time>2025-10-16T13:05:39Z</time>
      </trkpt>
      <trkpt lat="48.46851" lon="7.1234">
        <ele>636.0566</ele>
        <time>2025-10-16T13:05:43Z</time>
      </trkpt>
      <trkpt lat="48.46853" lon="7.12347">
        <ele>636.0566</ele>
        <time>2025-10-16T13:05:47Z</time>
      </trkpt>
      <trkpt lat="48.46856" lon="7.12354">
        <ele>636.0566</ele>
        <time>2025-10-16T13:05:52Z</time>
      </trkpt>
      <trkpt lat="48.46857" lon="7.12361">
        <ele>636.0566</ele>
        <time>2025-10-16T13:05:56Z</time>
      </trkpt>
      <trkpt lat="48.46859" lon="7.12368">
        <ele>636.0566</ele>
        <time>2025-10-16T13:06:01Z</time>
      </trkpt>
      <trkpt lat="48.46861" lon="7.12375">
        <ele>636.0566</ele>
        <time>2025-10-16T13:06:06Z</time>
      </trkpt>
      <trkpt lat="48.46862" lon="7.12381">
        <ele>636.0566</ele>
        <time>2025-10-16T13:06:10Z</time>
      </trkpt>
      <trkpt lat="48.46863" lon="7.12388">
        <ele>636.0566</ele>
        <time>2025-10-16T13:06:16Z</time>
      </trkpt>
      <trkpt lat="48.46864" lon="7.12395">
        <ele>636.0566</ele>
        <time>2025-10-16T13:06:21Z</time>
      </trkpt>
      <trkpt lat="48.46866" lon="7.12401">
        <ele>636.0566</ele>
        <time>2025-10-16T13:06:25Z</time>
      </trkpt>
      <trkpt lat="48.46867" lon="7.12408">
        <ele>636.0566</ele>
        <time>2025-10-16T13:06:31Z</time>
      </trkpt>
      <trkpt lat="48.46869" lon="7.12402">
        <ele>636.0566</ele>
        <time>2025-10-16T13:08:33Z</time>
      </trkpt>
      <trkpt lat="48.46874" lon="7.12398">
        <ele>636.0566</ele>
        <time>2025-10-16T13:08:49Z</time>
      </trkpt>
      <trkpt lat="48.4687" lon="7.12403">
        <ele>636.0566</ele>
        <time>2025-10-16T13:09:05Z</time>
      </trkpt>
      <trkpt lat="48.46872" lon="7.1241">
        <ele>636.0566</ele>
        <time>2025-10-16T13:09:09Z</time>
      </trkpt>
      <trkpt lat="48.46872" lon="7.12419">
        <ele>636.0566</ele>
        <time>2025-10-16T13:09:13Z</time>
      </trkpt>
      <trkpt lat="48.46872" lon="7.12426">
        <ele>636.0566</ele>
        <time>2025-10-16T13:09:18Z</time>
      </trkpt>
      <trkpt lat="48.46873" lon="7.12433">
        <ele>636.0566</ele>
        <time>2025-10-16T13:09:23Z</time>
      </trkpt>
      <trkpt lat="48.46875" lon="7.12441">
        <ele>636.0566</ele>
        <time>2025-10-16T13:09:28Z</time>
      </trkpt>
      <trkpt lat="48.46877" lon="7.12448">
        <ele>636.0566</ele>
        <time>2025-10-16T13:09:33Z</time>
      </trkpt>
      <trkpt lat="48.46879" lon="7.12455">
        <ele>636.0566</ele>
        <time>2025-10-16T13:09:38Z</time>
      </trkpt>
      <trkpt lat="48.4688" lon="7.12461">
        <ele>636.0566</ele>
        <time>2025-10-16T13:09:43Z</time>
      </trkpt>
      <trkpt lat="48.46881" lon="7.12469">
        <ele>636.0566</ele>
        <time>2025-10-16T13:09:48Z</time>
      </trkpt>
      <trkpt lat="48.46882" lon="7.12476">
        <ele>636.0566</ele>
        <time>2025-10-16T13:09:53Z</time>
      </trkpt>
      <trkpt lat="48.46884" lon="7.12483">
        <ele>638.08966</ele>
        <time>2025-10-16T13:09:58Z</time>
      </trkpt>
      <trkpt lat="48.46885" lon="7.12491">
        <ele>640.1228</ele>
        <time>2025-10-16T13:10:03Z</time>
      </trkpt>
      <trkpt lat="48.46886" lon="7.12499">
        <ele>642.1559</ele>
        <time>2025-10-16T13:10:08Z</time>
      </trkpt>
      <trkpt lat="48.46889" lon="7.12505">
        <ele>644.189</ele>
        <time>2025-10-16T13:10:13Z</time>
      </trkpt>
      <trkpt lat="48.46891" lon="7.12513">
        <ele>646.2221</ele>
        <time>2025-10-16T13:10:18Z</time>
      </trkpt>
      <trkpt lat="48.46893" lon="7.1252">
        <ele>646.2221</ele>
        <time>2025-10-16T13:10:24Z</time>
      </trkpt>
      <trkpt lat="48.46895" lon="7.12527">
        <ele>646.2221</ele>
        <time>2025-10-16T13:10:29Z</time>
      </trkpt>
      <trkpt lat="48.46897" lon="7.12534">
        <ele>646.2221</ele>
        <time>2025-10-16T13:10:34Z</time>
      </trkpt>
      <trkpt lat="48.46899" lon="7.12541">
        <ele>646.2221</ele>
        <time>2025-10-16T13:10:39Z</time>
      </trkpt>
      <trkpt lat="48.46901" lon="7.12547">
        <ele>646.2221</ele>
        <time>2025-10-16T13:10:44Z</time>
      </trkpt>
      <trkpt lat="48.46904" lon="7.12553">
        <ele>646.2221</ele>
        <time>2025-10-16T13:10:48Z</time>
      </trkpt>
      <trkpt lat="48.46906" lon="7.12559">
        <ele>646.2221</ele>
        <time>2025-10-16T13:10:53Z</time>
      </trkpt>
      <trkpt lat="48.46909" lon="7.12564">
        <ele>646.2221</ele>
        <time>2025-10-16T13:10:58Z</time>
      </trkpt>
      <trkpt lat="48.46914" lon="7.12567">
        <ele>646.2221</ele>
        <time>2025-10-16T13:11:04Z</time>
      </trkpt>
      <trkpt lat="48.46919" lon="7.12567">
        <ele>646.2221</ele>
        <time>2025-10-16T13:11:10Z</time>
      </trkpt>
      <trkpt lat="48.46923" lon="7.12565">
        <ele>646.2221</ele>
        <time>2025-10-16T13:11:15Z</time>
      </trkpt>
      <trkpt lat="48.46928" lon="7.12563">
        <ele>646.2221</ele>
        <time>2025-10-16T13:11:19Z</time>
      </trkpt>
      <trkpt lat="48.46933" lon="7.12561">
        <ele>646.2221</ele>
        <time>2025-10-16T13:11:23Z</time>
      </trkpt>
      <trkpt lat="48.46938" lon="7.1256">
        <ele>646.2221</ele>
        <time>2025-10-16T13:11:29Z</time>
      </trkpt>
      <trkpt lat="48.46942" lon="7.12557">
        <ele>646.2221</ele>
        <time>2025-10-16T13:11:35Z</time>
      </trkpt>
      <trkpt lat="48.46947" lon="7.12554">
        <ele>646.2221</ele>
        <time>2025-10-16T13:11:40Z</time>
      </trkpt>
      <trkpt lat="48.46952" lon="7.12551">
        <ele>646.2221</ele>
        <time>2025-10-16T13:11:45Z</time>
      </trkpt>
      <trkpt lat="48.46956" lon="7.12548">
        <ele>646.2221</ele>
        <time>2025-10-16T13:11:50Z</time>
      </trkpt>
      <trkpt lat="48.4696" lon="7.12543">
        <ele>646.2221</ele>
        <time>2025-10-16T13:11:56Z</time>
      </trkpt>
      <trkpt lat="48.46965" lon="7.12537">
        <ele>646.2221</ele>
        <time>2025-10-16T13:12:01Z</time>
      </trkpt>
      <trkpt lat="48.46969" lon="7.12532">
        <ele>646.2221</ele>
        <time>2025-10-16T13:12:06Z</time>
      </trkpt>
      <trkpt lat="48.46971" lon="7.12527">
        <ele>646.2221</ele>
        <time>2025-10-16T13:12:11Z</time>
      </trkpt>
      <trkpt lat="48.46974" lon="7.12519">
        <ele>646.2221</ele>
        <time>2025-10-16T13:12:16Z</time>
      </trkpt>
      <trkpt lat="48.46977" lon="7.12514">
        <ele>646.2221</ele>
        <time>2025-10-16T13:12:21Z</time>
      </trkpt>
      <trkpt lat="48.4698" lon="7.12507">
        <ele>646.2221</ele>
        <time>2025-10-16T13:12:26Z</time>
      </trkpt>
      <trkpt lat="48.46983" lon="7.125">
        <ele>648.2314</ele>
        <time>2025-10-16T13:12:32Z</time>
      </trkpt>
      <trkpt lat="48.46985" lon="7.12494">
        <ele>650.24066</ele>
        <time>2025-10-16T13:12:37Z</time>
      </trkpt>
      <trkpt lat="48.46988" lon="7.12489">
        <ele>652.2499</ele>
        <time>2025-10-16T13:12:42Z</time>
      </trkpt>
      <trkpt lat="48.46991" lon="7.12482">
        <ele>654.25916</ele>
        <time>2025-10-16T13:12:48Z</time>
      </trkpt>
      <trkpt lat="48.46993" lon="7.12477">
        <ele>656.26843</ele>
        <time>2025-10-16T13:12:53Z</time>
      </trkpt>
      <trkpt lat="48.46997" lon="7.1247">
        <ele>656.26843</ele>
        <time>2025-10-16T13:12:59Z</time>
      </trkpt>
      <trkpt lat="48.47001" lon="7.12464">
        <ele>656.26843</ele>
        <time>2025-10-16T13:13:04Z</time>
      </trkpt>
      <trkpt lat="48.47004" lon="7.1246">
        <ele>656.26843</ele>
        <time>2025-10-16T13:13:09Z</time>
      </trkpt>
      <trkpt lat="48.47009" lon="7.12454">
        <ele>656.26843</ele>
        <time>2025-10-16T13:13:16Z</time>
      </trkpt>
      <trkpt lat="48.47012" lon="7.1245">
        <ele>656.26843</ele>
        <time>2025-10-16T13:13:21Z</time>
      </trkpt>
      <trkpt lat="48.47017" lon="7.12447">
        <ele>656.26843</ele>
        <time>2025-10-16T13:13:27Z</time>
      </trkpt>
      <trkpt lat="48.47022" lon="7.12444">
        <ele>658.2859</ele>
        <time>2025-10-16T13:13:31Z</time>
      </trkpt>
      <trkpt lat="48.47026" lon="7.12442">
        <ele>660.30334</ele>
        <time>2025-10-16T13:13:35Z</time>
      </trkpt>
      <trkpt lat="48.47031" lon="7.12439">
        <ele>662.32074</ele>
        <time>2025-10-16T13:13:40Z</time>
      </trkpt>
      <trkpt lat="48.47036" lon="7.12438">
        <ele>664.3382</ele>
        <time>2025-10-16T13:13:45Z</time>
      </trkpt>
      <trkpt lat="48.47041" lon="7.12437">
        <ele>666.35565</ele>
        <time>2025-10-16T13:13:50Z</time>
      </trkpt>
      <trkpt lat="48.47047" lon="7.12435">
        <ele>666.35565</ele>
        <time>2025-10-16T13:13:56Z</time>
      </trkpt>
      <trkpt lat="48.47052" lon="7.12433">
        <ele>666.35565</ele>
        <time>2025-10-16T13:14:02Z</time>
      </trkpt>
      <trkpt lat="48.47057" lon="7.12431">
        <ele>666.35565</ele>
        <time>2025-10-16T13:14:07Z</time>
      </trkpt>
      <trkpt lat="48.47062" lon="7.12428">
        <ele>666.35565</ele>
        <time>2025-10-16T13:14:11Z</time>
      </trkpt>
      <trkpt lat="48.47066" lon="7.12426">
        <ele>666.35565</ele>
        <time>2025-10-16T13:14:15Z</time>
      </trkpt>
      <trkpt lat="48.47072" lon="7.12424">
        <ele>666.35565</ele>
        <time>2025-10-16T13:14:19Z</time>
      </trkpt>
      <trkpt lat="48.47076" lon="7.12421">
        <ele>666.35565</ele>
        <time>2025-10-16T13:14:24Z</time>
      </trkpt>
      <trkpt lat="48.47081" lon="7.12419">
        <ele>666.35565</ele>
        <time>2025-10-16T13:14:28Z</time>
      </trkpt>
      <trkpt lat="48.47085" lon="7.12416">
        <ele>666.35565</ele>
        <time>2025-10-16T13:14:34Z</time>
      </trkpt>
      <trkpt lat="48.4709" lon="7.12414">
        <ele>666.35565</ele>
        <time>2025-10-16T13:14:39Z</time>
      </trkpt>
      <trkpt lat="48.47094" lon="7.12412">
        <ele>666.35565</ele>
        <time>2025-10-16T13:14:44Z</time>
      </trkpt>
      <trkpt lat="48.47099" lon="7.1241">
        <ele>666.35565</ele>
        <time>2025-10-16T13:14:49Z</time>
      </trkpt>
      <trkpt lat="48.47104" lon="7.12409">
        <ele>666.35565</ele>
        <time>2025-10-16T13:14:53Z</time>
      </trkpt>
      <trkpt lat="48.47109" lon="7.12408">
        <ele>666.35565</ele>
        <time>2025-10-16T13:14:59Z</time>
      </trkpt>
      <trkpt lat="48.47113" lon="7.12408">
        <ele>666.35565</ele>
        <time>2025-10-16T13:15:04Z</time>
      </trkpt>
      <trkpt lat="48.47118" lon="7.12408">
        <ele>666.35565</ele>
        <time>2025-10-16T13:15:09Z</time>
      </trkpt>
      <trkpt lat="48.47123" lon="7.1241">
        <ele>666.35565</ele>
        <time>2025-10-16T13:15:14Z</time>
      </trkpt>
      <trkpt lat="48.47128" lon="7.12411">
        <ele>666.35565</ele>
        <time>2025-10-16T13:15:20Z</time>
      </trkpt>
      <trkpt lat="48.47133" lon="7.12413">
        <ele>666.35565</ele>
        <time>2025-10-16T13:15:25Z</time>
      </trkpt>
      <trkpt lat="48.47138" lon="7.12414">
        <ele>666.35565</ele>
        <time>2025-10-16T13:15:30Z</time>
      </trkpt>
      <trkpt lat="48.47143" lon="7.12416">
        <ele>666.35565</ele>
        <time>2025-10-16T13:15:34Z</time>
      </trkpt>
      <trkpt lat="48.47148" lon="7.12418">
        <ele>666.35565</ele>
        <time>2025-10-16T13:15:41Z</time>
      </trkpt>
      <trkpt lat="48.47154" lon="7.12419">
        <ele>666.35565</ele>
        <time>2025-10-16T13:15:47Z</time>
      </trkpt>
      <trkpt lat="48.47159" lon="7.12421">
        <ele>666.35565</ele>
        <time>2025-10-16T13:15:54Z</time>
      </trkpt>
      <trkpt lat="48.47163" lon="7.12423">
        <ele>666.35565</ele>
        <time>2025-10-16T13:16:00Z</time>
      </trkpt>
      <trkpt lat="48.47168" lon="7.12425">
        <ele>666.35565</ele>
        <time>2025-10-16T13:16:07Z</time>
      </trkpt>
      <trkpt lat="48.47173" lon="7.12427">
        <ele>666.35565</ele>
        <time>2025-10-16T13:16:14Z</time>
      </trkpt>
      <trkpt lat="48.47178" lon="7.1243">
        <ele>666.35565</ele>
        <time>2025-10-16T13:16:19Z</time>
      </trkpt>
      <trkpt lat="48.47183" lon="7.12432">
        <ele>666.35565</ele>
        <time>2025-10-16T13:16:23Z</time>
      </trkpt>
      <trkpt lat="48.47187" lon="7.12434">
        <ele>666.35565</ele>
        <time>2025-10-16T13:16:27Z</time>
      </trkpt>
      <trkpt lat="48.47192" lon="7.12436">
        <ele>666.35565</ele>
        <time>2025-10-16T13:16:32Z</time>
      </trkpt>
      <trkpt lat="48.47196" lon="7.12437">
        <ele>666.35565</ele>
        <time>2025-10-16T13:16:36Z</time>
      </trkpt>
      <trkpt lat="48.47201" lon="7.12438">
        <ele>668.39197</ele>
        <time>2025-10-16T13:16:39Z</time>
      </trkpt>
      <trkpt lat="48.47206" lon="7.1244">
        <ele>670.4283</ele>
        <time>2025-10-16T13:16:43Z</time>
      </trkpt>
      <trkpt lat="48.4721" lon="7.12442">
        <ele>672.46454</ele>
        <time>2025-10-16T13:16:48Z</time>
      </trkpt>
      <trkpt lat="48.47214" lon="7.12448">
        <ele>674.50085</ele>
        <time>2025-10-16T13:16:53Z</time>
      </trkpt>
      <trkpt lat="48.47216" lon="7.12456">
        <ele>676.5372</ele>
        <time>2025-10-16T13:16:56Z</time>
      </trkpt>
      <trkpt lat="48.47216" lon="7.12464">
        <ele>676.5372</ele>
        <time>2025-10-16T13:17:02Z</time>
      </trkpt>
      <trkpt lat="48.47216" lon="7.12471">
        <ele>676.5372</ele>
        <time>2025-10-16T13:17:07Z</time>
      </trkpt>
      <trkpt lat="48.47217" lon="7.12479">
        <ele>676.5372</ele>
        <time>2025-10-16T13:17:13Z</time>
      </trkpt>
      <trkpt lat="48.4722" lon="7.12486">
        <ele>676.5372</ele>
        <time>2025-10-16T13:17:17Z</time>
      </trkpt>
      <trkpt lat="48.47223" lon="7.1249">
        <ele>676.5372</ele>
        <time>2025-10-16T13:17:21Z</time>
      </trkpt>
      <trkpt lat="48.47222" lon="7.12498">
        <ele>676.5372</ele>
        <time>2025-10-16T13:17:28Z</time>
      </trkpt>
      <trkpt lat="48.4722" lon="7.12506">
        <ele>676.5372</ele>
        <time>2025-10-16T13:17:33Z</time>
      </trkpt>
      <trkpt lat="48.47216" lon="7.1251">
        <ele>676.5372</ele>
        <time>2025-10-16T13:17:38Z</time>
      </trkpt>
      <trkpt lat="48.4721" lon="7.12512">
        <ele>676.5372</ele>
        <time>2025-10-16T13:17:42Z</time>
      </trkpt>
      <trkpt lat="48.47206" lon="7.12515">
        <ele>676.5372</ele>
        <time>2025-10-16T13:17:47Z</time>
      </trkpt>
      <trkpt lat="48.47203" lon="7.12521">
        <ele>676.5372</ele>
        <time>2025-10-16T13:17:55Z</time>
      </trkpt>
      <trkpt lat="48.47199" lon="7.12527">
        <ele>676.5372</ele>
        <time>2025-10-16T13:18:00Z</time>
      </trkpt>
      <trkpt lat="48.47196" lon="7.12534">
        <ele>676.5372</ele>
        <time>2025-10-16T13:18:06Z</time>
      </trkpt>
      <trkpt lat="48.47192" lon="7.1254">
        <ele>676.5372</ele>
        <time>2025-10-16T13:18:12Z</time>
      </trkpt>
      <trkpt lat="48.47189" lon="7.12547">
        <ele>676.5372</ele>
        <time>2025-10-16T13:18:17Z</time>
      </trkpt>
      <trkpt lat="48.47187" lon="7.12554">
        <ele>676.5372</ele>
        <time>2025-10-16T13:18:22Z</time>
      </trkpt>
      <trkpt lat="48.47186" lon="7.1256">
        <ele>676.5372</ele>
        <time>2025-10-16T13:18:26Z</time>
      </trkpt>
      <trkpt lat="48.47185" lon="7.12567">
        <ele>676.5372</ele>
        <time>2025-10-16T13:18:31Z</time>
      </trkpt>
      <trkpt lat="48.47184" lon="7.12575">
        <ele>676.5372</ele>
        <time>2025-10-16T13:18:35Z</time>
      </trkpt>
      <trkpt lat="48.47184" lon="7.12582">
        <ele>676.5372</ele>
        <time>2025-10-16T13:18:39Z</time>
      </trkpt>
      <trkpt lat="48.47184" lon="7.12589">
        <ele>676.5372</ele>
        <time>2025-10-16T13:18:43Z</time>
      </trkpt>
      <trkpt lat="48.47184" lon="7.12596">
        <ele>676.5372</ele>
        <time>2025-10-16T13:18:47Z</time>
      </trkpt>
      <trkpt lat="48.47184" lon="7.12603">
        <ele>676.5372</ele>
        <time>2025-10-16T13:18:51Z</time>
      </trkpt>
      <trkpt lat="48.47184" lon="7.1261">
        <ele>678.78375</ele>
        <time>2025-10-16T13:18:56Z</time>
      </trkpt>
      <trkpt lat="48.47184" lon="7.12618">
        <ele>681.03033</ele>
        <time>2025-10-16T13:19:02Z</time>
      </trkpt>
      <trkpt lat="48.47184" lon="7.12625">
        <ele>683.27686</ele>
        <time>2025-10-16T13:19:08Z</time>
      </trkpt>
      <trkpt lat="48.47184" lon="7.12632">
        <ele>685.52344</ele>
        <time>2025-10-16T13:19:13Z</time>
      </trkpt>
      <trkpt lat="48.47183" lon="7.1264">
        <ele>687.77</ele>
        <time>2025-10-16T13:19:18Z</time>
      </trkpt>
      <trkpt lat="48.47181" lon="7.12646">
        <ele>687.77</ele>
        <time>2025-10-16T13:19:24Z</time>
      </trkpt>
      <trkpt lat="48.47179" lon="7.12653">
        <ele>687.77</ele>
        <time>2025-10-16T13:19:30Z</time>
      </trkpt>
      <trkpt lat="48.47175" lon="7.12661">
        <ele>687.77</ele>
        <time>2025-10-16T13:19:37Z</time>
      </trkpt>
      <trkpt lat="48.47171" lon="7.12667">
        <ele>687.77</ele>
        <time>2025-10-16T13:19:42Z</time>
      </trkpt>
      <trkpt lat="48.47168" lon="7.12672">
        <ele>687.77</ele>
        <time>2025-10-16T13:19:46Z</time>
      </trkpt>
      <trkpt lat="48.47163" lon="7.12677">
        <ele>687.77</ele>
        <time>2025-10-16T13:19:51Z</time>
      </trkpt>
      <trkpt lat="48.4716" lon="7.12682">
        <ele>687.77</ele>
        <time>2025-10-16T13:19:56Z</time>
      </trkpt>
      <trkpt lat="48.47155" lon="7.12686">
        <ele>687.77</ele>
        <time>2025-10-16T13:20:02Z</time>
      </trkpt>
      <trkpt lat="48.47152" lon="7.12691">
        <ele>687.77</ele>
        <time>2025-10-16T13:20:07Z</time>
      </trkpt>
      <trkpt lat="48.47147" lon="7.12695">
        <ele>687.77</ele>
        <time>2025-10-16T13:20:12Z</time>
      </trkpt>
      <trkpt lat="48.47143" lon="7.12701">
        <ele>687.77</ele>
        <time>2025-10-16T13:20:17Z</time>
      </trkpt>
      <trkpt lat="48.47138" lon="7.12704">
        <ele>687.77</ele>
        <time>2025-10-16T13:20:22Z</time>
      </trkpt>
      <trkpt lat="48.47134" lon="7.12708">
        <ele>687.77</ele>
        <time>2025-10-16T13:20:27Z</time>
      </trkpt>
      <trkpt lat="48.4713" lon="7.12713">
        <ele>687.77</ele>
        <time>2025-10-16T13:20:32Z</time>
      </trkpt>
      <trkpt lat="48.47126" lon="7.12717">
        <ele>687.77</ele>
        <time>2025-10-16T13:20:35Z</time>
      </trkpt>
      <trkpt lat="48.4712" lon="7.12722">
        <ele>687.77</ele>
        <time>2025-10-16T13:20:39Z</time>
      </trkpt>
      <trkpt lat="48.47116" lon="7.12726">
        <ele>687.77</ele>
        <time>2025-10-16T13:20:44Z</time>
      </trkpt>
      <trkpt lat="48.47111" lon="7.1273">
        <ele>687.77</ele>
        <time>2025-10-16T13:20:49Z</time>
      </trkpt>
      <trkpt lat="48.47107" lon="7.12733">
        <ele>687.77</ele>
        <time>2025-10-16T13:20:54Z</time>
      </trkpt>
      <trkpt lat="48.47102" lon="7.12737">
        <ele>687.77</ele>
        <time>2025-10-16T13:20:59Z</time>
      </trkpt>
      <trkpt lat="48.47097" lon="7.12741">
        <ele>687.77</ele>
        <time>2025-10-16T13:21:06Z</time>
      </trkpt>
      <trkpt lat="48.47092" lon="7.12746">
        <ele>687.77</ele>
        <time>2025-10-16T13:21:12Z</time>
      </trkpt>
      <trkpt lat="48.47088" lon="7.12749">
        <ele>687.77</ele>
        <time>2025-10-16T13:21:17Z</time>
      </trkpt>
      <trkpt lat="48.47084" lon="7.12754">
        <ele>687.77</ele>
        <time>2025-10-16T13:21:22Z</time>
      </trkpt>
      <trkpt lat="48.4708" lon="7.12758">
        <ele>687.77</ele>
        <time>2025-10-16T13:21:27Z</time>
      </trkpt>
      <trkpt lat="48.47076" lon="7.12763">
        <ele>687.77</ele>
        <time>2025-10-16T13:21:32Z</time>
      </trkpt>
      <trkpt lat="48.47072" lon="7.12768">
        <ele>687.77</ele>
        <time>2025-10-16T13:21:38Z</time>
      </trkpt>
      <trkpt lat="48.47069" lon="7.12773">
        <ele>687.77</ele>
        <time>2025-10-16T13:21:42Z</time>
      </trkpt>
      <trkpt lat="48.47066" lon="7.12779">
        <ele>687.77</ele>
        <time>2025-10-16T13:21:47Z</time>
      </trkpt>
      <trkpt lat="48.47062" lon="7.12785">
        <ele>687.77</ele>
        <time>2025-10-16T13:21:52Z</time>
      </trkpt>
      <trkpt lat="48.47058" lon="7.12792">
        <ele>687.77</ele>
        <time>2025-10-16T13:21:56Z</time>
      </trkpt>
      <trkpt lat="48.47055" lon="7.12799">
        <ele>687.77</ele>
        <time>2025-10-16T13:22:02Z</time>
      </trkpt>
      <trkpt lat="48.47053" lon="7.12806">
        <ele>687.77</ele>
        <time>2025-10-16T13:22:07Z</time>
      </trkpt>
      <trkpt lat="48.47051" lon="7.12812">
        <ele>687.77</ele>
        <time>2025-10-16T13:22:13Z</time>
      </trkpt>
      <trkpt lat="48.47049" lon="7.12819">
        <ele>687.77</ele>
        <time>2025-10-16T13:22:18Z</time>
      </trkpt>
      <trkpt lat="48.47047" lon="7.12826">
        <ele>687.77</ele>
        <time>2025-10-16T13:22:22Z</time>
      </trkpt>
      <trkpt lat="48.47044" lon="7.12833">
        <ele>687.77</ele>
        <time>2025-10-16T13:22:26Z</time>
      </trkpt>
      <trkpt lat="48.47043" lon="7.1284">
        <ele>687.77</ele>
        <time>2025-10-16T13:22:30Z</time>
      </trkpt>
      <trkpt lat="48.47041" lon="7.12848">
        <ele>687.77</ele>
        <time>2025-10-16T13:22:34Z</time>
      </trkpt>
      <trkpt lat="48.47039" lon="7.12854">
        <ele>687.77</ele>
        <time>2025-10-16T13:22:39Z</time>
      </trkpt>
      <trkpt lat="48.47038" lon="7.12861">
        <ele>687.77</ele>
        <time>2025-10-16T13:22:43Z</time>
      </trkpt>
      <trkpt lat="48.47036" lon="7.12868">
        <ele>687.77</ele>
        <time>2025-10-16T13:22:48Z</time>
      </trkpt>
      <trkpt lat="48.47035" lon="7.12874">
        <ele>687.77</ele>
        <time>2025-10-16T13:22:52Z</time>
      </trkpt>
      <trkpt lat="48.47034" lon="7.12882">
        <ele>687.77</ele>
        <time>2025-10-16T13:22:57Z</time>
      </trkpt>
      <trkpt lat="48.47033" lon="7.12889">
        <ele>687.77</ele>
        <time>2025-10-16T13:23:01Z</time>
      </trkpt>
      <trkpt lat="48.47032" lon="7.12897">
        <ele>687.77</ele>
        <time>2025-10-16T13:23:06Z</time>
      </trkpt>
      <trkpt lat="48.47031" lon="7.12905">
        <ele>687.77</ele>
        <time>2025-10-16T13:23:13Z</time>
      </trkpt>
      <trkpt lat="48.47031" lon="7.12912">
        <ele>687.77</ele>
        <time>2025-10-16T13:23:18Z</time>
      </trkpt>
      <trkpt lat="48.4703" lon="7.1292">
        <ele>687.77</ele>
        <time>2025-10-16T13:23:22Z</time>
      </trkpt>
      <trkpt lat="48.4703" lon="7.12928">
        <ele>687.77</ele>
        <time>2025-10-16T13:23:26Z</time>
      </trkpt>
      <trkpt lat="48.4703" lon="7.12936">
        <ele>687.77</ele>
        <time>2025-10-16T13:23:31Z</time>
      </trkpt>
      <trkpt lat="48.4703" lon="7.12944">
        <ele>687.77</ele>
        <time>2025-10-16T13:23:36Z</time>
      </trkpt>
      <trkpt lat="48.4703" lon="7.12952">
        <ele>687.77</ele>
        <time>2025-10-16T13:23:42Z</time>
      </trkpt>
      <trkpt lat="48.47031" lon="7.1296">
        <ele>687.77</ele>
        <time>2025-10-16T13:23:48Z</time>
      </trkpt>
      <trkpt lat="48.47032" lon="7.12967">
        <ele>687.77</ele>
        <time>2025-10-16T13:23:53Z</time>
      </trkpt>
      <trkpt lat="48.47032" lon="7.12974">
        <ele>687.77</ele>
        <time>2025-10-16T13:23:57Z</time>
      </trkpt>
      <trkpt lat="48.47033" lon="7.12981">
        <ele>687.77</ele>
        <time>2025-10-16T13:24:02Z</time>
      </trkpt>
      <trkpt lat="48.47034" lon="7.12988">
        <ele>687.77</ele>
        <time>2025-10-16T13:24:06Z</time>
      </trkpt>
      <trkpt lat="48.47035" lon="7.12996">
        <ele>687.77</ele>
        <time>2025-10-16T13:24:11Z</time>
      </trkpt>
      <trkpt lat="48.47036" lon="7.13003">
        <ele>687.77</ele>
        <time>2025-10-16T13:24:16Z</time>
      </trkpt>
      <trkpt lat="48.47037" lon="7.13011">
        <ele>687.77</ele>
        <time>2025-10-16T13:24:21Z</time>
      </trkpt>
      <trkpt lat="48.47038" lon="7.13018">
        <ele>687.77</ele>
        <time>2025-10-16T13:24:25Z</time>
      </trkpt>
      <trkpt lat="48.47041" lon="7.13024">
        <ele>687.77</ele>
        <time>2025-10-16T13:24:30Z</time>
      </trkpt>
      <trkpt lat="48.47043" lon="7.13032">
        <ele>687.77</ele>
        <time>2025-10-16T13:24:36Z</time>
      </trkpt>
      <trkpt lat="48.47046" lon="7.13039">
        <ele>687.77</ele>
        <time>2025-10-16T13:24:41Z</time>
      </trkpt>
      <trkpt lat="48.47049" lon="7.13047">
        <ele>687.77</ele>
        <time>2025-10-16T13:24:47Z</time>
      </trkpt>
      <trkpt lat="48.4705" lon="7.13054">
        <ele>687.77</ele>
        <time>2025-10-16T13:24:51Z</time>
      </trkpt>
      <trkpt lat="48.47052" lon="7.1306">
        <ele>687.77</ele>
        <time>2025-10-16T13:24:54Z</time>
      </trkpt>
      <trkpt lat="48.47053" lon="7.13067">
        <ele>687.77</ele>
        <time>2025-10-16T13:25:00Z</time>
      </trkpt>
      <trkpt lat="48.47055" lon="7.13074">
        <ele>687.77</ele>
        <time>2025-10-16T13:25:05Z</time>
      </trkpt>
      <trkpt lat="48.47057" lon="7.13081">
        <ele>687.77</ele>
        <time>2025-10-16T13:25:10Z</time>
      </trkpt>
      <trkpt lat="48.47059" lon="7.13087">
        <ele>687.77</ele>
        <time>2025-10-16T13:25:15Z</time>
      </trkpt>
      <trkpt lat="48.47061" lon="7.13094">
        <ele>687.77</ele>
        <time>2025-10-16T13:25:20Z</time>
      </trkpt>
      <trkpt lat="48.47064" lon="7.131">
        <ele>687.77</ele>
        <time>2025-10-16T13:25:25Z</time>
      </trkpt>
      <trkpt lat="48.47067" lon="7.13106">
        <ele>687.77</ele>
        <time>2025-10-16T13:25:30Z</time>
      </trkpt>
      <trkpt lat="48.4707" lon="7.13113">
        <ele>687.77</ele>
        <time>2025-10-16T13:25:36Z</time>
      </trkpt>
      <trkpt lat="48.47073" lon="7.13118">
        <ele>687.77</ele>
        <time>2025-10-16T13:25:41Z</time>
      </trkpt>
      <trkpt lat="48.47075" lon="7.13124">
        <ele>687.77</ele>
        <time>2025-10-16T13:25:47Z</time>
      </trkpt>
      <trkpt lat="48.47079" lon="7.13129">
        <ele>687.77</ele>
        <time>2025-10-16T13:25:51Z</time>
      </trkpt>
      <trkpt lat="48.47082" lon="7.13134">
        <ele>687.77</ele>
        <time>2025-10-16T13:25:56Z</time>
      </trkpt>
      <trkpt lat="48.47086" lon="7.13138">
        <ele>687.77</ele>
        <time>2025-10-16T13:26:01Z</time>
      </trkpt>
      <trkpt lat="48.4709" lon="7.13144">
        <ele>687.77</ele>
        <time>2025-10-16T13:26:05Z</time>
      </trkpt>
      <trkpt lat="48.47094" lon="7.13149">
        <ele>687.77</ele>
        <time>2025-10-16T13:26:10Z</time>
      </trkpt>
      <trkpt lat="48.47097" lon="7.13154">
        <ele>687.77</ele>
        <time>2025-10-16T13:26:16Z</time>
      </trkpt>
      <trkpt lat="48.47101" lon="7.13157">
        <ele>687.77</ele>
        <time>2025-10-16T13:26:20Z</time>
      </trkpt>
      <trkpt lat="48.47106" lon="7.13162">
        <ele>687.77</ele>
        <time>2025-10-16T13:26:25Z</time>
      </trkpt>
      <trkpt lat="48.4711" lon="7.13166">
        <ele>687.77</ele>
        <time>2025-10-16T13:26:30Z</time>
      </trkpt>
      <trkpt lat="48.47113" lon="7.1317">
        <ele>687.77</ele>
        <time>2025-10-16T13:26:35Z</time>
      </trkpt>
      <trkpt lat="48.47117" lon="7.13176">
        <ele>687.77</ele>
        <time>2025-10-16T13:26:40Z</time>
      </trkpt>
      <trkpt lat="48.47121" lon="7.1318">
        <ele>687.77</ele>
        <time>2025-10-16T13:26:45Z</time>
      </trkpt>
      <trkpt lat="48.47125" lon="7.13185">
        <ele>687.77</ele>
        <time>2025-10-16T13:26:50Z</time>
      </trkpt>
      <trkpt lat="48.47129" lon="7.13191">
        <ele>687.77</ele>
        <time>2025-10-16T13:26:58Z</time>
      </trkpt>
      <trkpt lat="48.47133" lon="7.13196">
        <ele>687.77</ele>
        <time>2025-10-16T13:27:04Z</time>
      </trkpt>
      <trkpt lat="48.47137" lon="7.13201">
        <ele>687.77</ele>
        <time>2025-10-16T13:27:09Z</time>
      </trkpt>
      <trkpt lat="48.47141" lon="7.13206">
        <ele>687.77</ele>
        <time>2025-10-16T13:27:14Z</time>
      </trkpt>
      <trkpt lat="48.47144" lon="7.13211">
        <ele>687.77</ele>
        <time>2025-10-16T13:27:20Z</time>
      </trkpt>
      <trkpt lat="48.47149" lon="7.13212">
        <ele>687.77</ele>
        <time>2025-10-16T13:27:25Z</time>
      </trkpt>
      <trkpt lat="48.47155" lon="7.13209">
        <ele>687.77</ele>
        <time>2025-10-16T13:27:28Z</time>
      </trkpt>
      <trkpt lat="48.47159" lon="7.13207">
        <ele>687.77</ele>
        <time>2025-10-16T13:27:30Z</time>
      </trkpt>
      <trkpt lat="48.47163" lon="7.13211">
        <ele>687.77</ele>
        <time>2025-10-16T13:27:35Z</time>
      </trkpt>
      <trkpt lat="48.47168" lon="7.13214">
        <ele>687.77</ele>
        <time>2025-10-16T13:27:40Z</time>
      </trkpt>
      <trkpt lat="48.47173" lon="7.13218">
        <ele>687.77</ele>
        <time>2025-10-16T13:27:46Z</time>
      </trkpt>
      <trkpt lat="48.47177" lon="7.13221">
        <ele>687.77</ele>
        <time>2025-10-16T13:27:51Z</time>
      </trkpt>
      <trkpt lat="48.47182" lon="7.13224">
        <ele>687.77</ele>
        <time>2025-10-16T13:27:57Z</time>
      </trkpt>
      <trkpt lat="48.47186" lon="7.13228">
        <ele>687.77</ele>
        <time>2025-10-16T13:28:03Z</time>
      </trkpt>
      <trkpt lat="48.4719" lon="7.13232">
        <ele>687.77</ele>
        <time>2025-10-16T13:28:07Z</time>
      </trkpt>
      <trkpt lat="48.47195" lon="7.13236">
        <ele>687.77</ele>
        <time>2025-10-16T13:28:12Z</time>
      </trkpt>
      <trkpt lat="48.47199" lon="7.1324">
        <ele>687.77</ele>
        <time>2025-10-16T13:28:17Z</time>
      </trkpt>
      <trkpt lat="48.47203" lon="7.13244">
        <ele>687.77</ele>
        <time>2025-10-16T13:28:22Z</time>
      </trkpt>
      <trkpt lat="48.47207" lon="7.13249">
        <ele>687.77</ele>
        <time>2025-10-16T13:28:27Z</time>
      </trkpt>
      <trkpt lat="48.47211" lon="7.13253">
        <ele>687.77</ele>
        <time>2025-10-16T13:28:32Z</time>
      </trkpt>
      <trkpt lat="48.47215" lon="7.13257">
        <ele>687.77</ele>
        <time>2025-10-16T13:28:36Z</time>
      </trkpt>
      <trkpt lat="48.47219" lon="7.13262">
        <ele>687.77</ele>
        <time>2025-10-16T13:28:41Z</time>
      </trkpt>
      <trkpt lat="48.47223" lon="7.13266">
        <ele>687.77</ele>
        <time>2025-10-16T13:28:46Z</time>
      </trkpt>
      <trkpt lat="48.47227" lon="7.1327">
        <ele>687.77</ele>
        <time>2025-10-16T13:28:51Z</time>
      </trkpt>
      <trkpt lat="48.47231" lon="7.13275">
        <ele>687.77</ele>
        <time>2025-10-16T13:28:55Z</time>
      </trkpt>
      <trkpt lat="48.47235" lon="7.13279">
        <ele>687.77</ele>
        <time>2025-10-16T13:29:00Z</time>
      </trkpt>
      <trkpt lat="48.47238" lon="7.13284">
        <ele>687.77</ele>
        <time>2025-10-16T13:29:05Z</time>
      </trkpt>
      <trkpt lat="48.47242" lon="7.13289">
        <ele>687.77</ele>
        <time>2025-10-16T13:29:10Z</time>
      </trkpt>
      <trkpt lat="48.47246" lon="7.13294">
        <ele>687.77</ele>
        <time>2025-10-16T13:29:15Z</time>
      </trkpt>
      <trkpt lat="48.47249" lon="7.13299">
        <ele>687.77</ele>
        <time>2025-10-16T13:29:20Z</time>
      </trkpt>
      <trkpt lat="48.47253" lon="7.13304">
        <ele>687.77</ele>
        <time>2025-10-16T13:29:24Z</time>
      </trkpt>
      <trkpt lat="48.47256" lon="7.13309">
        <ele>687.77</ele>
        <time>2025-10-16T13:29:29Z</time>
      </trkpt>
      <trkpt lat="48.4726" lon="7.13315">
        <ele>687.77</ele>
        <time>2025-10-16T13:29:34Z</time>
      </trkpt>
      <trkpt lat="48.47263" lon="7.13321">
        <ele>687.77</ele>
        <time>2025-10-16T13:29:39Z</time>
      </trkpt>
      <trkpt lat="48.47267" lon="7.13327">
        <ele>687.77</ele>
        <time>2025-10-16T13:29:44Z</time>
      </trkpt>
      <trkpt lat="48.47269" lon="7.13333">
        <ele>687.77</ele>
        <time>2025-10-16T13:29:49Z</time>
      </trkpt>
      <trkpt lat="48.47272" lon="7.13339">
        <ele>687.77</ele>
        <time>2025-10-16T13:29:54Z</time>
      </trkpt>
      <trkpt lat="48.47276" lon="7.13345">
        <ele>687.77</ele>
        <time>2025-10-16T13:29:59Z</time>
      </trkpt>
      <trkpt lat="48.47279" lon="7.13351">
        <ele>687.77</ele>
        <time>2025-10-16T13:30:04Z</time>
      </trkpt>
      <trkpt lat="48.47282" lon="7.13356">
        <ele>687.77</ele>
        <time>2025-10-16T13:30:09Z</time>
      </trkpt>
      <trkpt lat="48.47286" lon="7.13363">
        <ele>687.77</ele>
        <time>2025-10-16T13:30:14Z</time>
      </trkpt>
      <trkpt lat="48.47288" lon="7.13368">
        <ele>687.77</ele>
        <time>2025-10-16T13:30:19Z</time>
      </trkpt>
      <trkpt lat="48.47291" lon="7.13374">
        <ele>687.77</ele>
        <time>2025-10-16T13:30:24Z</time>
      </trkpt>
      <trkpt lat="48.47295" lon="7.13381">
        <ele>687.77</ele>
        <time>2025-10-16T13:30:29Z</time>
      </trkpt>
      <trkpt lat="48.47299" lon="7.13387">
        <ele>689.87256</ele>
        <time>2025-10-16T13:30:35Z</time>
      </trkpt>
      <trkpt lat="48.47302" lon="7.13393">
        <ele>691.97504</ele>
        <time>2025-10-16T13:30:40Z</time>
      </trkpt>
      <trkpt lat="48.47305" lon="7.13398">
        <ele>694.0776</ele>
        <time>2025-10-16T13:30:44Z</time>
      </trkpt>
      <trkpt lat="48.47308" lon="7.13403">
        <ele>696.18005</ele>
        <time>2025-10-16T13:30:50Z</time>
      </trkpt>
      <trkpt lat="48.47312" lon="7.13409">
        <ele>698.2826</ele>
        <time>2025-10-16T13:30:54Z</time>
      </trkpt>
      <trkpt lat="48.47315" lon="7.13415">
        <ele>698.2826</ele>
        <time>2025-10-16T13:30:59Z</time>
      </trkpt>
      <trkpt lat="48.47319" lon="7.13421">
        <ele>698.2826</ele>
        <time>2025-10-16T13:31:04Z</time>
      </trkpt>
      <trkpt lat="48.47323" lon="7.13426">
        <ele>698.2826</ele>
        <time>2025-10-16T13:31:09Z</time>
      </trkpt>
      <trkpt lat="48.47326" lon="7.13432">
        <ele>698.2826</ele>
        <time>2025-10-16T13:31:14Z</time>
      </trkpt>
      <trkpt lat="48.47329" lon="7.13438">
        <ele>698.2826</ele>
        <time>2025-10-16T13:31:19Z</time>
      </trkpt>
      <trkpt lat="48.47332" lon="7.13443">
        <ele>698.2826</ele>
        <time>2025-10-16T13:31:23Z</time>
      </trkpt>
      <trkpt lat="48.47336" lon="7.1345">
        <ele>698.2826</ele>
        <time>2025-10-16T13:31:29Z</time>
      </trkpt>
      <trkpt lat="48.4734" lon="7.13455">
        <ele>698.2826</ele>
        <time>2025-10-16T13:31:34Z</time>
      </trkpt>
      <trkpt lat="48.47343" lon="7.13461">
        <ele>698.2826</ele>
        <time>2025-10-16T13:31:40Z</time>
      </trkpt>
      <trkpt lat="48.47347" lon="7.13466">
        <ele>698.2826</ele>
        <time>2025-10-16T13:31:44Z</time>
      </trkpt>
      <trkpt lat="48.4735" lon="7.13471">
        <ele>698.2826</ele>
        <time>2025-10-16T13:31:48Z</time>
      </trkpt>
      <trkpt lat="48.47353" lon="7.13475">
        <ele>698.2826</ele>
        <time>2025-10-16T13:31:52Z</time>
      </trkpt>
      <trkpt lat="48.47357" lon="7.13481">
        <ele>698.2826</ele>
        <time>2025-10-16T13:31:57Z</time>
      </trkpt>
      <trkpt lat="48.47361" lon="7.13486">
        <ele>698.2826</ele>
        <time>2025-10-16T13:32:02Z</time>
      </trkpt>
      <trkpt lat="48.47365" lon="7.13491">
        <ele>698.2826</ele>
        <time>2025-10-16T13:32:07Z</time>
      </trkpt>
      <trkpt lat="48.47369" lon="7.13496">
        <ele>698.2826</ele>
        <time>2025-10-16T13:32:12Z</time>
      </trkpt>
      <trkpt lat="48.47374" lon="7.13501">
        <ele>698.2826</ele>
        <time>2025-10-16T13:32:18Z</time>
      </trkpt>
      <trkpt lat="48.47378" lon="7.13505">
        <ele>698.2826</ele>
        <time>2025-10-16T13:32:23Z</time>
      </trkpt>
      <trkpt lat="48.47382" lon="7.13508">
        <ele>698.2826</ele>
        <time>2025-10-16T13:32:28Z</time>
      </trkpt>
      <trkpt lat="48.47387" lon="7.13511">
        <ele>698.2826</ele>
        <time>2025-10-16T13:32:33Z</time>
      </trkpt>
      <trkpt lat="48.47392" lon="7.13512">
        <ele>698.2826</ele>
        <time>2025-10-16T13:32:37Z</time>
      </trkpt>
      <trkpt lat="48.47397" lon="7.13513">
        <ele>698.2826</ele>
        <time>2025-10-16T13:32:42Z</time>
      </trkpt>
      <trkpt lat="48.47401" lon="7.13513">
        <ele>698.2826</ele>
        <time>2025-10-16T13:32:46Z</time>
      </trkpt>
      <trkpt lat="48.47406" lon="7.13512">
        <ele>698.2826</ele>
        <time>2025-10-16T13:32:52Z</time>
      </trkpt>
      <trkpt lat="48.47411" lon="7.1351">
        <ele>698.2826</ele>
        <time>2025-10-16T13:32:56Z</time>
      </trkpt>
      <trkpt lat="48.47417" lon="7.1351">
        <ele>698.2826</ele>
        <time>2025-10-16T13:33:00Z</time>
      </trkpt>
      <trkpt lat="48.47422" lon="7.13509">
        <ele>698.2826</ele>
        <time>2025-10-16T13:33:04Z</time>
      </trkpt>
      <trkpt lat="48.47427" lon="7.13507">
        <ele>698.2826</ele>
        <time>2025-10-16T13:33:10Z</time>
      </trkpt>
      <trkpt lat="48.47432" lon="7.13507">
        <ele>698.2826</ele>
        <time>2025-10-16T13:33:14Z</time>
      </trkpt>
      <trkpt lat="48.47436" lon="7.13507">
        <ele>698.2826</ele>
        <time>2025-10-16T13:33:19Z</time>
      </trkpt>
      <trkpt lat="48.47441" lon="7.13507">
        <ele>698.2826</ele>
        <time>2025-10-16T13:33:23Z</time>
      </trkpt>
      <trkpt lat="48.47446" lon="7.13508">
        <ele>700.355</ele>
        <time>2025-10-16T13:33:27Z</time>
      </trkpt>
      <trkpt lat="48.47451" lon="7.13509">
        <ele>702.42737</ele>
        <time>2025-10-16T13:33:32Z</time>
      </trkpt>
      <trkpt lat="48.47456" lon="7.1351">
        <ele>704.4997</ele>
        <time>2025-10-16T13:33:37Z</time>
      </trkpt>
      <trkpt lat="48.4746" lon="7.13512">
        <ele>706.5721</ele>
        <time>2025-10-16T13:33:41Z</time>
      </trkpt>
      <trkpt lat="48.47465" lon="7.13515">
        <ele>708.6445</ele>
        <time>2025-10-16T13:33:45Z</time>
      </trkpt>
      <trkpt lat="48.47469" lon="7.13519">
        <ele>708.6445</ele>
        <time>2025-10-16T13:33:50Z</time>
      </trkpt>
      <trkpt lat="48.47474" lon="7.13522">
        <ele>708.6445</ele>
        <time>2025-10-16T13:33:55Z</time>
      </trkpt>
      <trkpt lat="48.47479" lon="7.13525">
        <ele>708.6445</ele>
        <time>2025-10-16T13:33:59Z</time>
      </trkpt>
      <trkpt lat="48.47483" lon="7.13528">
        <ele>708.6445</ele>
        <time>2025-10-16T13:34:03Z</time>
      </trkpt>
      <trkpt lat="48.47487" lon="7.13531">
        <ele>708.6445</ele>
        <time>2025-10-16T13:34:07Z</time>
      </trkpt>
      <trkpt lat="48.47493" lon="7.13535">
        <ele>708.6445</ele>
        <time>2025-10-16T13:34:14Z</time>
      </trkpt>
      <trkpt lat="48.47498" lon="7.13537">
        <ele>708.6445</ele>
        <time>2025-10-16T13:34:18Z</time>
      </trkpt>
      <trkpt lat="48.47503" lon="7.1354">
        <ele>708.6445</ele>
        <time>2025-10-16T13:34:24Z</time>
      </trkpt>
      <trkpt lat="48.47507" lon="7.13542">
        <ele>708.6445</ele>
        <time>2025-10-16T13:34:31Z</time>
      </trkpt>
      <trkpt lat="48.47512" lon="7.13543">
        <ele>708.6445</ele>
        <time>2025-10-16T13:34:37Z</time>
      </trkpt>
      <trkpt lat="48.47516" lon="7.13545">
        <ele>708.6445</ele>
        <time>2025-10-16T13:34:41Z</time>
      </trkpt>
      <trkpt lat="48.47521" lon="7.13544">
        <ele>708.6445</ele>
        <time>2025-10-16T13:34:46Z</time>
      </trkpt>
      <trkpt lat="48.47527" lon="7.13544">
        <ele>708.6445</ele>
        <time>2025-10-16T13:34:49Z</time>
      </trkpt>
      <trkpt lat="48.47531" lon="7.13541">
        <ele>708.6445</ele>
        <time>2025-10-16T13:34:55Z</time>
      </trkpt>
      <trkpt lat="48.47535" lon="7.13538">
        <ele>708.6445</ele>
        <time>2025-10-16T13:34:59Z</time>
      </trkpt>
      <trkpt lat="48.47539" lon="7.13532">
        <ele>708.6445</ele>
        <time>2025-10-16T13:35:04Z</time>
      </trkpt>
      <trkpt lat="48.47542" lon="7.13526">
        <ele>708.6445</ele>
        <time>2025-10-16T13:35:09Z</time>
      </trkpt>
      <trkpt lat="48.47544" lon="7.1352">
        <ele>708.6445</ele>
        <time>2025-10-16T13:35:13Z</time>
      </trkpt>
      <trkpt lat="48.47546" lon="7.13513">
        <ele>708.6445</ele>
        <time>2025-10-16T13:35:18Z</time>
      </trkpt>
      <trkpt lat="48.47547" lon="7.13506">
        <ele>708.6445</ele>
        <time>2025-10-16T13:35:23Z</time>
      </trkpt>
      <trkpt lat="48.47548" lon="7.13499">
        <ele>708.6445</ele>
        <time>2025-10-16T13:35:28Z</time>
      </trkpt>
      <trkpt lat="48.47549" lon="7.13492">
        <ele>708.6445</ele>
        <time>2025-10-16T13:35:33Z</time>
      </trkpt>
      <trkpt lat="48.4755" lon="7.13484">
        <ele>708.6445</ele>
        <time>2025-10-16T13:35:37Z</time>
      </trkpt>
      <trkpt lat="48.47551" lon="7.13476">
        <ele>708.6445</ele>
        <time>2025-10-16T13:35:42Z</time>
      </trkpt>
      <trkpt lat="48.47552" lon="7.13468">
        <ele>708.6445</ele>
        <time>2025-10-16T13:35:47Z</time>
      </trkpt>
      <trkpt lat="48.47553" lon="7.1346">
        <ele>708.6445</ele>
        <time>2025-10-16T13:35:52Z</time>
      </trkpt>
      <trkpt lat="48.47553" lon="7.13453">
        <ele>708.6445</ele>
        <time>2025-10-16T13:35:57Z</time>
      </trkpt>
      <trkpt lat="48.47553" lon="7.13445">
        <ele>708.6445</ele>
        <time>2025-10-16T13:36:01Z</time>
      </trkpt>
      <trkpt lat="48.47551" lon="7.13439">
        <ele>708.6445</ele>
        <time>2025-10-16T13:36:30Z</time>
      </trkpt>
      <trkpt lat="48.47551" lon="7.13445">
        <ele>706.56995</ele>
        <time>2025-10-16T13:37:39Z</time>
      </trkpt>
      <trkpt lat="48.47546" lon="7.13444">
        <ele>704.4954</ele>
        <time>2025-10-16T13:38:27Z</time>
      </trkpt>
      <trkpt lat="48.47542" lon="7.13447">
        <ele>702.4209</ele>
        <time>2025-10-16T13:39:05Z</time>
      </trkpt>
      <trkpt lat="48.47545" lon="7.13442">
        <ele>702.4978</ele>
        <time>2025-10-16T13:40:00Z</time>
      </trkpt>
      <trkpt lat="48.47547" lon="7.13434">
        <ele>702.5747</ele>
        <time>2025-10-16T13:41:42Z</time>
      </trkpt>
      <trkpt lat="48.47546" lon="7.13427">
        <ele>704.7261</ele>
        <time>2025-10-16T13:41:51Z</time>
      </trkpt>
      <trkpt lat="48.47546" lon="7.1342">
        <ele>706.8775</ele>
        <time>2025-10-16T13:41:57Z</time>
      </trkpt>
      <trkpt lat="48.47546" lon="7.13413">
        <ele>709.02893</ele>
        <time>2025-10-16T13:42:01Z</time>
      </trkpt>
      <trkpt lat="48.47544" lon="7.13407">
        <ele>709.02893</ele>
        <time>2025-10-16T13:42:06Z</time>
      </trkpt>
      <trkpt lat="48.47545" lon="7.13399">
        <ele>709.02893</ele>
        <time>2025-10-16T13:42:11Z</time>
      </trkpt>
      <trkpt lat="48.47545" lon="7.1339">
        <ele>709.02893</ele>
        <time>2025-10-16T13:42:17Z</time>
      </trkpt>
      <trkpt lat="48.47545" lon="7.13383">
        <ele>709.02893</ele>
        <time>2025-10-16T13:42:22Z</time>
      </trkpt>
      <trkpt lat="48.47545" lon="7.13374">
        <ele>709.02893</ele>
        <time>2025-10-16T13:42:27Z</time>
      </trkpt>
      <trkpt lat="48.47544" lon="7.13368">
        <ele>709.02893</ele>
        <time>2025-10-16T13:42:32Z</time>
      </trkpt>
      <trkpt lat="48.47543" lon="7.1336">
        <ele>709.02893</ele>
        <time>2025-10-16T13:42:37Z</time>
      </trkpt>
      <trkpt lat="48.4754" lon="7.13352">
        <ele>709.02893</ele>
        <time>2025-10-16T13:42:42Z</time>
      </trkpt>
      <trkpt lat="48.47538" lon="7.13345">
        <ele>709.02893</ele>
        <time>2025-10-16T13:42:47Z</time>
      </trkpt>
      <trkpt lat="48.47535" lon="7.13339">
        <ele>709.02893</ele>
        <time>2025-10-16T13:42:52Z</time>
      </trkpt>
      <trkpt lat="48.47533" lon="7.13332">
        <ele>709.02893</ele>
        <time>2025-10-16T13:42:56Z</time>
      </trkpt>
      <trkpt lat="48.47532" lon="7.13326">
        <ele>709.02893</ele>
        <time>2025-10-16T13:43:00Z</time>
      </trkpt>
      <trkpt lat="48.47531" lon="7.13319">
        <ele>709.02893</ele>
        <time>2025-10-16T13:43:04Z</time>
      </trkpt>
      <trkpt lat="48.47529" lon="7.13311">
        <ele>709.02893</ele>
        <time>2025-10-16T13:43:09Z</time>
      </trkpt>
      <trkpt lat="48.47529" lon="7.13304">
        <ele>709.02893</ele>
        <time>2025-10-16T13:43:13Z</time>
      </trkpt>
      <trkpt lat="48.47528" lon="7.13297">
        <ele>709.02893</ele>
        <time>2025-10-16T13:43:18Z</time>
      </trkpt>
      <trkpt lat="48.47528" lon="7.13289">
        <ele>709.02893</ele>
        <time>2025-10-16T13:43:22Z</time>
      </trkpt>
      <trkpt lat="48.47528" lon="7.13281">
        <ele>709.02893</ele>
        <time>2025-10-16T13:43:26Z</time>
      </trkpt>
      <trkpt lat="48.4753" lon="7.13274">
        <ele>709.02893</ele>
        <time>2025-10-16T13:43:31Z</time>
      </trkpt>
      <trkpt lat="48.47531" lon="7.13267">
        <ele>709.02893</ele>
        <time>2025-10-16T13:43:35Z</time>
      </trkpt>
      <trkpt lat="48.47533" lon="7.1326">
        <ele>709.02893</ele>
        <time>2025-10-16T13:43:40Z</time>
      </trkpt>
      <trkpt lat="48.47537" lon="7.13255">
        <ele>709.02893</ele>
        <time>2025-10-16T13:43:44Z</time>
      </trkpt>
      <trkpt lat="48.47541" lon="7.13253">
        <ele>709.02893</ele>
        <time>2025-10-16T13:43:49Z</time>
      </trkpt>
      <trkpt lat="48.47546" lon="7.13252">
        <ele>709.02893</ele>
        <time>2025-10-16T13:43:53Z</time>
      </trkpt>
      <trkpt lat="48.47551" lon="7.13251">
        <ele>709.02893</ele>
        <time>2025-10-16T13:43:57Z</time>
      </trkpt>
      <trkpt lat="48.47556" lon="7.13251">
        <ele>709.02893</ele>
        <time>2025-10-16T13:44:02Z</time>
      </trkpt>
      <trkpt lat="48.47561" lon="7.13253">
        <ele>709.02893</ele>
        <time>2025-10-16T13:44:08Z</time>
      </trkpt>
      <trkpt lat="48.47568" lon="7.13253">
        <ele>709.02893</ele>
        <time>2025-10-16T13:44:11Z</time>
      </trkpt>
      <trkpt lat="48.47572" lon="7.13252">
        <ele>709.02893</ele>
        <time>2025-10-16T13:44:17Z</time>
      </trkpt>
      <trkpt lat="48.47577" lon="7.13251">
        <ele>709.02893</ele>
        <time>2025-10-16T13:44:27Z</time>
      </trkpt>
      <trkpt lat="48.47582" lon="7.13251">
        <ele>709.02893</ele>
        <time>2025-10-16T13:44:31Z</time>
      </trkpt>
      <trkpt lat="48.47587" lon="7.1325">
        <ele>709.02893</ele>
        <time>2025-10-16T13:44:34Z</time>
      </trkpt>
      <trkpt lat="48.47592" lon="7.13249">
        <ele>709.02893</ele>
        <time>2025-10-16T13:44:38Z</time>
      </trkpt>
      <trkpt lat="48.47598" lon="7.13248">
        <ele>709.02893</ele>
        <time>2025-10-16T13:44:44Z</time>
      </trkpt>
      <trkpt lat="48.47603" lon="7.13244">
        <ele>709.02893</ele>
        <time>2025-10-16T13:44:54Z</time>
      </trkpt>
      <trkpt lat="48.47607" lon="7.13242">
        <ele>709.02893</ele>
        <time>2025-10-16T13:44:58Z</time>
      </trkpt>
      <trkpt lat="48.47606" lon="7.13234">
        <ele>709.02893</ele>
        <time>2025-10-16T13:45:45Z</time>
      </trkpt>
      <trkpt lat="48.4761" lon="7.13236">
        <ele>709.02893</ele>
        <time>2025-10-16T13:46:31Z</time>
      </trkpt>
      <trkpt lat="48.47615" lon="7.13232">
        <ele>709.02893</ele>
        <time>2025-10-16T13:46:34Z</time>
      </trkpt>
      <trkpt lat="48.47622" lon="7.13231">
        <ele>709.02893</ele>
        <time>2025-10-16T13:46:38Z</time>
      </trkpt>
      <trkpt lat="48.47619" lon="7.13222">
        <ele>709.02893</ele>
        <time>2025-10-16T13:46:41Z</time>
      </trkpt>
      <trkpt lat="48.47621" lon="7.13216">
        <ele>709.02893</ele>
        <time>2025-10-16T13:46:45Z</time>
      </trkpt>
      <trkpt lat="48.47624" lon="7.13208">
        <ele>709.02893</ele>
        <time>2025-10-16T13:46:51Z</time>
      </trkpt>
      <trkpt lat="48.47628" lon="7.13204">
        <ele>709.02893</ele>
        <time>2025-10-16T13:46:55Z</time>
      </trkpt>
      <trkpt lat="48.47632" lon="7.13198">
        <ele>709.02893</ele>
        <time>2025-10-16T13:47:00Z</time>
      </trkpt>
      <trkpt lat="48.47634" lon="7.13191">
        <ele>709.02893</ele>
        <time>2025-10-16T13:47:05Z</time>
      </trkpt>
      <trkpt lat="48.47641" lon="7.13186">
        <ele>709.02893</ele>
        <time>2025-10-16T13:47:10Z</time>
      </trkpt>
      <trkpt lat="48.47644" lon="7.1318">
        <ele>709.02893</ele>
        <time>2025-10-16T13:47:15Z</time>
      </trkpt>
      <trkpt lat="48.47648" lon="7.13174">
        <ele>709.02893</ele>
        <time>2025-10-16T13:47:20Z</time>
      </trkpt>
      <trkpt lat="48.47652" lon="7.13172">
        <ele>709.02893</ele>
        <time>2025-10-16T13:47:25Z</time>
      </trkpt>
      <trkpt lat="48.47657" lon="7.13167">
        <ele>709.02893</ele>
        <time>2025-10-16T13:47:31Z</time>
      </trkpt>
      <trkpt lat="48.4766" lon="7.13162">
        <ele>709.02893</ele>
        <time>2025-10-16T13:47:35Z</time>
      </trkpt>
      <trkpt lat="48.47665" lon="7.13157">
        <ele>709.02893</ele>
        <time>2025-10-16T13:47:40Z</time>
      </trkpt>
      <trkpt lat="48.47669" lon="7.13151">
        <ele>709.02893</ele>
        <time>2025-10-16T13:47:45Z</time>
      </trkpt>
      <trkpt lat="48.47672" lon="7.13145">
        <ele>709.02893</ele>
        <time>2025-10-16T13:47:50Z</time>
      </trkpt>
      <trkpt lat="48.47675" lon="7.13139">
        <ele>709.02893</ele>
        <time>2025-10-16T13:47:54Z</time>
      </trkpt>
      <trkpt lat="48.4768" lon="7.13136">
        <ele>709.02893</ele>
        <time>2025-10-16T13:47:58Z</time>
      </trkpt>
      <trkpt lat="48.47681" lon="7.13127">
        <ele>709.02893</ele>
        <time>2025-10-16T13:48:03Z</time>
      </trkpt>
      <trkpt lat="48.47685" lon="7.13123">
        <ele>709.02893</ele>
        <time>2025-10-16T13:48:08Z</time>
      </trkpt>
      <trkpt lat="48.47689" lon="7.13118">
        <ele>709.02893</ele>
        <time>2025-10-16T13:48:13Z</time>
      </trkpt>
      <trkpt lat="48.47691" lon="7.13111">
        <ele>709.02893</ele>
        <time>2025-10-16T13:48:19Z</time>
      </trkpt>
      <trkpt lat="48.47693" lon="7.13105">
        <ele>709.02893</ele>
        <time>2025-10-16T13:48:24Z</time>
      </trkpt>
      <trkpt lat="48.47693" lon="7.13097">
        <ele>709.02893</ele>
        <time>2025-10-16T13:48:30Z</time>
      </trkpt>
      <trkpt lat="48.47695" lon="7.13089">
        <ele>709.02893</ele>
        <time>2025-10-16T13:48:33Z</time>
      </trkpt>
      <trkpt lat="48.477" lon="7.13084">
        <ele>709.02893</ele>
        <time>2025-10-16T13:48:37Z</time>
      </trkpt>
      <trkpt lat="48.47702" lon="7.13076">
        <ele>709.02893</ele>
        <time>2025-10-16T13:48:42Z</time>
      </trkpt>
      <trkpt lat="48.47701" lon="7.1307">
        <ele>709.02893</ele>
        <time>2025-10-16T13:49:26Z</time>
      </trkpt>
      <trkpt lat="48.47706" lon="7.13064">
        <ele>709.02893</ele>
        <time>2025-10-16T13:49:31Z</time>
      </trkpt>
      <trkpt lat="48.4771" lon="7.13059">
        <ele>709.02893</ele>
        <time>2025-10-16T13:49:35Z</time>
      </trkpt>
      <trkpt lat="48.47714" lon="7.13054">
        <ele>709.02893</ele>
        <time>2025-10-16T13:49:40Z</time>
      </trkpt>
      <trkpt lat="48.47718" lon="7.13058">
        <ele>709.02893</ele>
        <time>2025-10-16T13:50:16Z</time>
      </trkpt>
      <trkpt lat="48.4772" lon="7.13051">
        <ele>709.02893</ele>
        <time>2025-10-16T13:50:20Z</time>
      </trkpt>
      <trkpt lat="48.47724" lon="7.13046">
        <ele>709.02893</ele>
        <time>2025-10-16T13:50:25Z</time>
      </trkpt>
      <trkpt lat="48.47726" lon="7.13039">
        <ele>709.02893</ele>
        <time>2025-10-16T13:50:30Z</time>
      </trkpt>
      <trkpt lat="48.47731" lon="7.13037">
        <ele>709.02893</ele>
        <time>2025-10-16T13:50:34Z</time>
      </trkpt>
      <trkpt lat="48.47736" lon="7.13035">
        <ele>709.02893</ele>
        <time>2025-10-16T13:50:38Z</time>
      </trkpt>
      <trkpt lat="48.47741" lon="7.13032">
        <ele>709.02893</ele>
        <time>2025-10-16T13:50:44Z</time>
      </trkpt>
      <trkpt lat="48.47744" lon="7.13026">
        <ele>709.02893</ele>
        <time>2025-10-16T13:50:47Z</time>
      </trkpt>
      <trkpt lat="48.47749" lon="7.13024">
        <ele>709.02893</ele>
        <time>2025-10-16T13:50:52Z</time>
      </trkpt>
      <trkpt lat="48.47754" lon="7.13023">
        <ele>711.1263</ele>
        <time>2025-10-16T13:50:56Z</time>
      </trkpt>
      <trkpt lat="48.47759" lon="7.13021">
        <ele>713.2237</ele>
        <time>2025-10-16T13:51:01Z</time>
      </trkpt>
      <trkpt lat="48.47763" lon="7.13018">
        <ele>715.32104</ele>
        <time>2025-10-16T13:51:06Z</time>
      </trkpt>
      <trkpt lat="48.47767" lon="7.13012">
        <ele>717.41846</ele>
        <time>2025-10-16T13:51:10Z</time>
      </trkpt>
      <trkpt lat="48.4777" lon="7.13006">
        <ele>719.5158</ele>
        <time>2025-10-16T13:51:14Z</time>
      </trkpt>
      <trkpt lat="48.47774" lon="7.13">
        <ele>719.5158</ele>
        <time>2025-10-16T13:51:18Z</time>
      </trkpt>
      <trkpt lat="48.47778" lon="7.12995">
        <ele>719.5158</ele>
        <time>2025-10-16T13:51:22Z</time>
      </trkpt>
      <trkpt lat="48.47783" lon="7.1299">
        <ele>719.5158</ele>
        <time>2025-10-16T13:51:26Z</time>
      </trkpt>
      <trkpt lat="48.47789" lon="7.12988">
        <ele>719.5158</ele>
        <time>2025-10-16T13:51:30Z</time>
      </trkpt>
      <trkpt lat="48.47793" lon="7.12986">
        <ele>719.5158</ele>
        <time>2025-10-16T13:51:34Z</time>
      </trkpt>
      <trkpt lat="48.47798" lon="7.12987">
        <ele>719.5158</ele>
        <time>2025-10-16T13:51:38Z</time>
      </trkpt>
      <trkpt lat="48.47804" lon="7.12989">
        <ele>719.5158</ele>
        <time>2025-10-16T13:51:43Z</time>
      </trkpt>
      <trkpt lat="48.47809" lon="7.1299">
        <ele>719.5158</ele>
        <time>2025-10-16T13:51:46Z</time>
      </trkpt>
      <trkpt lat="48.47813" lon="7.12989">
        <ele>719.5158</ele>
        <time>2025-10-16T13:51:50Z</time>
      </trkpt>
      <trkpt lat="48.47818" lon="7.12986">
        <ele>719.5158</ele>
        <time>2025-10-16T13:51:56Z</time>
      </trkpt>
      <trkpt lat="48.47823" lon="7.12981">
        <ele>719.5158</ele>
        <time>2025-10-16T13:52:02Z</time>
      </trkpt>
      <trkpt lat="48.47826" lon="7.12976">
        <ele>719.5158</ele>
        <time>2025-10-16T13:52:07Z</time>
      </trkpt>
      <trkpt lat="48.47829" lon="7.1297">
        <ele>719.5158</ele>
        <time>2025-10-16T13:52:12Z</time>
      </trkpt>
      <trkpt lat="48.47831" lon="7.12965">
        <ele>719.5158</ele>
        <time>2025-10-16T13:52:18Z</time>
      </trkpt>
      <trkpt lat="48.47834" lon="7.12958">
        <ele>719.5158</ele>
        <time>2025-10-16T13:52:23Z</time>
      </trkpt>
      <trkpt lat="48.47837" lon="7.12951">
        <ele>719.5158</ele>
        <time>2025-10-16T13:52:28Z</time>
      </trkpt>
      <trkpt lat="48.47839" lon="7.12944">
        <ele>719.5158</ele>
        <time>2025-10-16T13:52:32Z</time>
      </trkpt>
      <trkpt lat="48.47841" lon="7.12937">
        <ele>719.5158</ele>
        <time>2025-10-16T13:52:36Z</time>
      </trkpt>
      <trkpt lat="48.47839" lon="7.12929">
        <ele>719.5158</ele>
        <time>2025-10-16T13:52:40Z</time>
      </trkpt>
      <trkpt lat="48.47839" lon="7.12922">
        <ele>719.5158</ele>
        <time>2025-10-16T13:52:43Z</time>
      </trkpt>
      <trkpt lat="48.47842" lon="7.12917">
        <ele>719.5158</ele>
        <time>2025-10-16T13:52:48Z</time>
      </trkpt>
      <trkpt lat="48.47847" lon="7.12917">
        <ele>719.5158</ele>
        <time>2025-10-16T13:52:49Z</time>
      </trkpt>
      <trkpt lat="48.4785" lon="7.12911">
        <ele>719.5158</ele>
        <time>2025-10-16T13:52:54Z</time>
      </trkpt>
      <trkpt lat="48.47852" lon="7.12904">
        <ele>719.5158</ele>
        <time>2025-10-16T13:52:59Z</time>
      </trkpt>
      <trkpt lat="48.47854" lon="7.12897">
        <ele>719.5158</ele>
        <time>2025-10-16T13:53:06Z</time>
      </trkpt>
      <trkpt lat="48.47855" lon="7.1289">
        <ele>719.5158</ele>
        <time>2025-10-16T13:53:13Z</time>
      </trkpt>
      <trkpt lat="48.47857" lon="7.12882">
        <ele>719.5158</ele>
        <time>2025-10-16T13:53:19Z</time>
      </trkpt>
      <trkpt lat="48.47858" lon="7.12875">
        <ele>719.5158</ele>
        <time>2025-10-16T13:53:24Z</time>
      </trkpt>
      <trkpt lat="48.47857" lon="7.12868">
        <ele>719.5158</ele>
        <time>2025-10-16T13:53:28Z</time>
      </trkpt>
      <trkpt lat="48.47858" lon="7.1286">
        <ele>719.5158</ele>
        <time>2025-10-16T13:53:33Z</time>
      </trkpt>
      <trkpt lat="48.47858" lon="7.12852">
        <ele>719.5158</ele>
        <time>2025-10-16T13:53:39Z</time>
      </trkpt>
      <trkpt lat="48.47858" lon="7.12844">
        <ele>719.5158</ele>
        <time>2025-10-16T13:53:45Z</time>
      </trkpt>
      <trkpt lat="48.47858" lon="7.12836">
        <ele>719.5158</ele>
        <time>2025-10-16T13:53:51Z</time>
      </trkpt>
      <trkpt lat="48.47858" lon="7.1283">
        <ele>719.5158</ele>
        <time>2025-10-16T13:53:55Z</time>
      </trkpt>
      <trkpt lat="48.47858" lon="7.12823">
        <ele>719.5158</ele>
        <time>2025-10-16T13:53:59Z</time>
      </trkpt>
      <trkpt lat="48.47857" lon="7.12815">
        <ele>719.5158</ele>
        <time>2025-10-16T13:54:04Z</time>
      </trkpt>
      <trkpt lat="48.47858" lon="7.12808">
        <ele>719.5158</ele>
        <time>2025-10-16T13:54:08Z</time>
      </trkpt>
      <trkpt lat="48.47858" lon="7.12801">
        <ele>719.5158</ele>
        <time>2025-10-16T13:54:13Z</time>
      </trkpt>
      <trkpt lat="48.4786" lon="7.12794">
        <ele>719.5158</ele>
        <time>2025-10-16T13:54:18Z</time>
      </trkpt>
      <trkpt lat="48.47862" lon="7.12786">
        <ele>721.5978</ele>
        <time>2025-10-16T13:54:22Z</time>
      </trkpt>
      <trkpt lat="48.47864" lon="7.12779">
        <ele>723.67975</ele>
        <time>2025-10-16T13:54:27Z</time>
      </trkpt>
      <trkpt lat="48.47866" lon="7.12773">
        <ele>725.76166</ele>
        <time>2025-10-16T13:54:31Z</time>
      </trkpt>
      <trkpt lat="48.47869" lon="7.12766">
        <ele>727.8436</ele>
        <time>2025-10-16T13:54:36Z</time>
      </trkpt>
      <trkpt lat="48.47871" lon="7.1276">
        <ele>729.9256</ele>
        <time>2025-10-16T13:54:41Z</time>
      </trkpt>
      <trkpt lat="48.47874" lon="7.12753">
        <ele>729.9256</ele>
        <time>2025-10-16T13:54:47Z</time>
      </trkpt>
      <trkpt lat="48.47876" lon="7.12747">
        <ele>729.9256</ele>
        <time>2025-10-16T13:54:51Z</time>
      </trkpt>
      <trkpt lat="48.47877" lon="7.12738">
        <ele>729.9256</ele>
        <time>2025-10-16T13:54:55Z</time>
      </trkpt>
      <trkpt lat="48.47878" lon="7.12731">
        <ele>729.9256</ele>
        <time>2025-10-16T13:54:59Z</time>
      </trkpt>
      <trkpt lat="48.47878" lon="7.12724">
        <ele>729.9256</ele>
        <time>2025-10-16T13:55:03Z</time>
      </trkpt>
      <trkpt lat="48.47878" lon="7.12717">
        <ele>729.9256</ele>
        <time>2025-10-16T13:55:07Z</time>
      </trkpt>
      <trkpt lat="48.47878" lon="7.12709">
        <ele>729.9256</ele>
        <time>2025-10-16T13:55:11Z</time>
      </trkpt>
      <trkpt lat="48.47877" lon="7.12702">
        <ele>729.9256</ele>
        <time>2025-10-16T13:55:14Z</time>
      </trkpt>
      <trkpt lat="48.47873" lon="7.12704">
        <ele>729.9256</ele>
        <time>2025-10-16T13:55:20Z</time>
      </trkpt>
      <trkpt lat="48.47869" lon="7.12708">
        <ele>729.9256</ele>
        <time>2025-10-16T13:55:23Z</time>
      </trkpt>
      <trkpt lat="48.47865" lon="7.12712">
        <ele>729.9256</ele>
        <time>2025-10-16T13:55:25Z</time>
      </trkpt>
      <trkpt lat="48.47862" lon="7.12718">
        <ele>729.9256</ele>
        <time>2025-10-16T13:55:30Z</time>
      </trkpt>
      <trkpt lat="48.47862" lon="7.12726">
        <ele>729.9256</ele>
        <time>2025-10-16T13:55:36Z</time>
      </trkpt>
      <trkpt lat="48.47861" lon="7.12733">
        <ele>729.9256</ele>
        <time>2025-10-16T13:55:41Z</time>
      </trkpt>
      <trkpt lat="48.47858" lon="7.12739">
        <ele>729.9256</ele>
        <time>2025-10-16T13:55:44Z</time>
      </trkpt>
      <trkpt lat="48.47857" lon="7.12745">
        <ele>729.9256</ele>
        <time>2025-10-16T13:55:48Z</time>
      </trkpt>
      <trkpt lat="48.47857" lon="7.12754">
        <ele>729.9256</ele>
        <time>2025-10-16T13:55:53Z</time>
      </trkpt>
      <trkpt lat="48.47856" lon="7.12761">
        <ele>729.9256</ele>
        <time>2025-10-16T13:55:59Z</time>
      </trkpt>
      <trkpt lat="48.47853" lon="7.12769">
        <ele>729.9256</ele>
        <time>2025-10-16T13:56:04Z</time>
      </trkpt>
      <trkpt lat="48.47851" lon="7.12775">
        <ele>729.9256</ele>
        <time>2025-10-16T13:56:09Z</time>
      </trkpt>
      <trkpt lat="48.47849" lon="7.12781">
        <ele>729.9256</ele>
        <time>2025-10-16T13:56:14Z</time>
      </trkpt>
      <trkpt lat="48.47847" lon="7.12789">
        <ele>729.9256</ele>
        <time>2025-10-16T13:56:21Z</time>
      </trkpt>
      <trkpt lat="48.47845" lon="7.12796">
        <ele>729.9256</ele>
        <time>2025-10-16T13:56:26Z</time>
      </trkpt>
      <trkpt lat="48.47842" lon="7.12804">
        <ele>729.9256</ele>
        <time>2025-10-16T13:56:32Z</time>
      </trkpt>
      <trkpt lat="48.47841" lon="7.12811">
        <ele>729.9256</ele>
        <time>2025-10-16T13:56:36Z</time>
      </trkpt>
      <trkpt lat="48.4784" lon="7.12818">
        <ele>729.9256</ele>
        <time>2025-10-16T13:56:41Z</time>
      </trkpt>
      <trkpt lat="48.47838" lon="7.12825">
        <ele>729.9256</ele>
        <time>2025-10-16T13:56:46Z</time>
      </trkpt>
      <trkpt lat="48.47837" lon="7.12832">
        <ele>729.9256</ele>
        <time>2025-10-16T13:56:50Z</time>
      </trkpt>
      <trkpt lat="48.47834" lon="7.12838">
        <ele>729.9256</ele>
        <time>2025-10-16T13:56:54Z</time>
      </trkpt>
      <trkpt lat="48.47832" lon="7.12845">
        <ele>729.9256</ele>
        <time>2025-10-16T13:56:58Z</time>
      </trkpt>
      <trkpt lat="48.4783" lon="7.12851">
        <ele>729.9256</ele>
        <time>2025-10-16T13:57:02Z</time>
      </trkpt>
      <trkpt lat="48.47828" lon="7.12858">
        <ele>729.9256</ele>
        <time>2025-10-16T13:57:06Z</time>
      </trkpt>
      <trkpt lat="48.47825" lon="7.12863">
        <ele>729.9256</ele>
        <time>2025-10-16T13:57:10Z</time>
      </trkpt>
      <trkpt lat="48.47823" lon="7.12869">
        <ele>729.9256</ele>
        <time>2025-10-16T13:57:15Z</time>
      </trkpt>
      <trkpt lat="48.47819" lon="7.12876">
        <ele>729.9256</ele>
        <time>2025-10-16T13:57:21Z</time>
      </trkpt>
      <trkpt lat="48.47816" lon="7.12881">
        <ele>729.9256</ele>
        <time>2025-10-16T13:57:25Z</time>
      </trkpt>
      <trkpt lat="48.47813" lon="7.12886">
        <ele>729.9256</ele>
        <time>2025-10-16T13:57:30Z</time>
      </trkpt>
      <trkpt lat="48.47809" lon="7.12891">
        <ele>729.9256</ele>
        <time>2025-10-16T13:57:33Z</time>
      </trkpt>
      <trkpt lat="48.47805" lon="7.12895">
        <ele>729.9256</ele>
        <time>2025-10-16T13:57:37Z</time>
      </trkpt>
      <trkpt lat="48.47801" lon="7.12898">
        <ele>729.9256</ele>
        <time>2025-10-16T13:57:45Z</time>
      </trkpt>
      <trkpt lat="48.47797" lon="7.12901">
        <ele>729.9256</ele>
        <time>2025-10-16T13:57:50Z</time>
      </trkpt>
      <trkpt lat="48.47794" lon="7.12906">
        <ele>729.9256</ele>
        <time>2025-10-16T13:57:55Z</time>
      </trkpt>
      <trkpt lat="48.4779" lon="7.12911">
        <ele>729.9256</ele>
        <time>2025-10-16T13:58:00Z</time>
      </trkpt>
      <trkpt lat="48.47786" lon="7.12915">
        <ele>729.9256</ele>
        <time>2025-10-16T13:58:05Z</time>
      </trkpt>
      <trkpt lat="48.47781" lon="7.1292">
        <ele>729.9256</ele>
        <time>2025-10-16T13:58:10Z</time>
      </trkpt>
      <trkpt lat="48.47778" lon="7.12924">
        <ele>729.9256</ele>
        <time>2025-10-16T13:58:14Z</time>
      </trkpt>
      <trkpt lat="48.47773" lon="7.12928">
        <ele>732.2344</ele>
        <time>2025-10-16T13:58:19Z</time>
      </trkpt>
      <trkpt lat="48.47769" lon="7.12933">
        <ele>734.5431</ele>
        <time>2025-10-16T13:58:24Z</time>
      </trkpt>
      <trkpt lat="48.47765" lon="7.12938">
        <ele>736.85187</ele>
        <time>2025-10-16T13:58:29Z</time>
      </trkpt>
      <trkpt lat="48.47762" lon="7.12944">
        <ele>739.1606</ele>
        <time>2025-10-16T13:58:35Z</time>
      </trkpt>
      <trkpt lat="48.47758" lon="7.12949">
        <ele>741.46936</ele>
        <time>2025-10-16T13:58:40Z</time>
      </trkpt>
      <trkpt lat="48.47755" lon="7.12954">
        <ele>741.46936</ele>
        <time>2025-10-16T13:58:45Z</time>
      </trkpt>
      <trkpt lat="48.4775" lon="7.12957">
        <ele>741.46936</ele>
        <time>2025-10-16T13:58:50Z</time>
      </trkpt>
      <trkpt lat="48.47747" lon="7.12962">
        <ele>741.46936</ele>
        <time>2025-10-16T13:58:56Z</time>
      </trkpt>
      <trkpt lat="48.47743" lon="7.12967">
        <ele>741.46936</ele>
        <time>2025-10-16T13:59:02Z</time>
      </trkpt>
      <trkpt lat="48.47739" lon="7.12974">
        <ele>741.46936</ele>
        <time>2025-10-16T13:59:07Z</time>
      </trkpt>
      <trkpt lat="48.47736" lon="7.12977">
        <ele>741.46936</ele>
        <time>2025-10-16T13:59:11Z</time>
      </trkpt>
      <trkpt lat="48.47731" lon="7.12981">
        <ele>741.46936</ele>
        <time>2025-10-16T13:59:15Z</time>
      </trkpt>
      <trkpt lat="48.47727" lon="7.12986">
        <ele>741.46936</ele>
        <time>2025-10-16T13:59:20Z</time>
      </trkpt>
      <trkpt lat="48.47724" lon="7.12991">
        <ele>741.46936</ele>
        <time>2025-10-16T13:59:26Z</time>
      </trkpt>
      <trkpt lat="48.4772" lon="7.12992">
        <ele>741.46936</ele>
        <time>2025-10-16T13:59:34Z</time>
      </trkpt>
      <trkpt lat="48.47716" lon="7.12996">
        <ele>741.46936</ele>
        <time>2025-10-16T14:00:02Z</time>
      </trkpt>
      <trkpt lat="48.47712" lon="7.12998">
        <ele>741.46936</ele>
        <time>2025-10-16T14:00:09Z</time>
      </trkpt>
      <trkpt lat="48.47707" lon="7.13001">
        <ele>739.3692</ele>
        <time>2025-10-16T14:00:14Z</time>
      </trkpt>
      <trkpt lat="48.47703" lon="7.13004">
        <ele>737.26904</ele>
        <time>2025-10-16T14:00:19Z</time>
      </trkpt>
      <trkpt lat="48.47698" lon="7.13007">
        <ele>735.1689</ele>
        <time>2025-10-16T14:00:26Z</time>
      </trkpt>
      <trkpt lat="48.47694" lon="7.13009">
        <ele>733.0687</ele>
        <time>2025-10-16T14:00:34Z</time>
      </trkpt>
      <trkpt lat="48.47689" lon="7.13012">
        <ele>730.96857</ele>
        <time>2025-10-16T14:00:38Z</time>
      </trkpt>
      <trkpt lat="48.47684" lon="7.13015">
        <ele>730.96857</ele>
        <time>2025-10-16T14:00:43Z</time>
      </trkpt>
      <trkpt lat="48.47679" lon="7.13018">
        <ele>730.96857</ele>
        <time>2025-10-16T14:00:48Z</time>
      </trkpt>
      <trkpt lat="48.47677" lon="7.13026">
        <ele>730.96857</ele>
        <time>2025-10-16T14:00:52Z</time>
      </trkpt>
      <trkpt lat="48.47672" lon="7.13029">
        <ele>730.96857</ele>
        <time>2025-10-16T14:00:55Z</time>
      </trkpt>
      <trkpt lat="48.4767" lon="7.13037">
        <ele>730.96857</ele>
        <time>2025-10-16T14:00:59Z</time>
      </trkpt>
      <trkpt lat="48.47672" lon="7.13046">
        <ele>730.96857</ele>
        <time>2025-10-16T14:01:02Z</time>
      </trkpt>
      <trkpt lat="48.47675" lon="7.13052">
        <ele>730.96857</ele>
        <time>2025-10-16T14:01:05Z</time>
      </trkpt>
      <trkpt lat="48.47672" lon="7.13059">
        <ele>730.96857</ele>
        <time>2025-10-16T14:01:10Z</time>
      </trkpt>
      <trkpt lat="48.47671" lon="7.13067">
        <ele>730.96857</ele>
        <time>2025-10-16T14:01:14Z</time>
      </trkpt>
      <trkpt lat="48.47671" lon="7.13074">
        <ele>730.96857</ele>
        <time>2025-10-16T14:01:19Z</time>
      </trkpt>
      <trkpt lat="48.47669" lon="7.13081">
        <ele>730.96857</ele>
        <time>2025-10-16T14:01:24Z</time>
      </trkpt>
      <trkpt lat="48.47667" lon="7.13088">
        <ele>730.96857</ele>
        <time>2025-10-16T14:01:29Z</time>
      </trkpt>
      <trkpt lat="48.47665" lon="7.13096">
        <ele>730.96857</ele>
        <time>2025-10-16T14:01:35Z</time>
      </trkpt>
      <trkpt lat="48.47663" lon="7.13104">
        <ele>730.96857</ele>
        <time>2025-10-16T14:01:42Z</time>
      </trkpt>
      <trkpt lat="48.4766" lon="7.13111">
        <ele>730.96857</ele>
        <time>2025-10-16T14:01:47Z</time>
      </trkpt>
      <trkpt lat="48.47658" lon="7.13117">
        <ele>730.96857</ele>
        <time>2025-10-16T14:01:53Z</time>
      </trkpt>
      <trkpt lat="48.47655" lon="7.13124">
        <ele>730.96857</ele>
        <time>2025-10-16T14:01:58Z</time>
      </trkpt>
      <trkpt lat="48.47653" lon="7.13132">
        <ele>730.96857</ele>
        <time>2025-10-16T14:02:06Z</time>
      </trkpt>
      <trkpt lat="48.47651" lon="7.13139">
        <ele>730.96857</ele>
        <time>2025-10-16T14:02:13Z</time>
      </trkpt>
      <trkpt lat="48.47648" lon="7.13145">
        <ele>730.96857</ele>
        <time>2025-10-16T14:02:18Z</time>
      </trkpt>
      <trkpt lat="48.47646" lon="7.13151">
        <ele>730.96857</ele>
        <time>2025-10-16T14:02:23Z</time>
      </trkpt>
      <trkpt lat="48.47643" lon="7.13157">
        <ele>728.73395</ele>
        <time>2025-10-16T14:02:29Z</time>
      </trkpt>
      <trkpt lat="48.4764" lon="7.13163">
        <ele>726.4994</ele>
        <time>2025-10-16T14:02:35Z</time>
      </trkpt>
      <trkpt lat="48.47636" lon="7.13169">
        <ele>724.2648</ele>
        <time>2025-10-16T14:02:40Z</time>
      </trkpt>
      <trkpt lat="48.47633" lon="7.13174">
        <ele>722.0302</ele>
        <time>2025-10-16T14:02:48Z</time>
      </trkpt>
      <trkpt lat="48.47628" lon="7.13177">
        <ele>719.7956</ele>
        <time>2025-10-16T14:02:58Z</time>
      </trkpt>
      <trkpt lat="48.47624" lon="7.13185">
        <ele>719.7956</ele>
        <time>2025-10-16T14:03:04Z</time>
      </trkpt>
      <trkpt lat="48.47622" lon="7.13192">
        <ele>719.7956</ele>
        <time>2025-10-16T14:03:08Z</time>
      </trkpt>
      <trkpt lat="48.47618" lon="7.13197">
        <ele>717.7539</ele>
        <time>2025-10-16T14:03:11Z</time>
      </trkpt>
      <trkpt lat="48.47616" lon="7.13205">
        <ele>715.7123</ele>
        <time>2025-10-16T14:03:16Z</time>
      </trkpt>
      <trkpt lat="48.47613" lon="7.1321">
        <ele>713.6706</ele>
        <time>2025-10-16T14:03:22Z</time>
      </trkpt>
      <trkpt lat="48.4761" lon="7.13216">
        <ele>711.62897</ele>
        <time>2025-10-16T14:03:27Z</time>
      </trkpt>
      <trkpt lat="48.47606" lon="7.13221">
        <ele>709.5873</ele>
        <time>2025-10-16T14:03:32Z</time>
      </trkpt>
      <trkpt lat="48.47602" lon="7.13226">
        <ele>709.5873</ele>
        <time>2025-10-16T14:03:38Z</time>
      </trkpt>
      <trkpt lat="48.47598" lon="7.1323">
        <ele>709.5873</ele>
        <time>2025-10-16T14:03:45Z</time>
      </trkpt>
      <trkpt lat="48.47594" lon="7.13234">
        <ele>709.5873</ele>
        <time>2025-10-16T14:03:52Z</time>
      </trkpt>
      <trkpt lat="48.4759" lon="7.13235">
        <ele>709.5873</ele>
        <time>2025-10-16T14:03:56Z</time>
      </trkpt>
      <trkpt lat="48.47585" lon="7.13237">
        <ele>709.5873</ele>
        <time>2025-10-16T14:04:01Z</time>
      </trkpt>
      <trkpt lat="48.47581" lon="7.1324">
        <ele>709.5873</ele>
        <time>2025-10-16T14:04:08Z</time>
      </trkpt>
      <trkpt lat="48.47576" lon="7.13242">
        <ele>709.5873</ele>
        <time>2025-10-16T14:04:13Z</time>
      </trkpt>
      <trkpt lat="48.47571" lon="7.13244">
        <ele>709.5873</ele>
        <time>2025-10-16T14:04:18Z</time>
      </trkpt>
      <trkpt lat="48.47567" lon="7.13246">
        <ele>709.5873</ele>
        <time>2025-10-16T14:04:24Z</time>
      </trkpt>
      <trkpt lat="48.47562" lon="7.1325">
        <ele>709.5873</ele>
        <time>2025-10-16T14:04:31Z</time>
      </trkpt>
      <trkpt lat="48.47559" lon="7.13257">
        <ele>709.5873</ele>
        <time>2025-10-16T14:04:36Z</time>
      </trkpt>
      <trkpt lat="48.47555" lon="7.13261">
        <ele>709.5873</ele>
        <time>2025-10-16T14:04:39Z</time>
      </trkpt>
      <trkpt lat="48.47551" lon="7.13263">
        <ele>709.5873</ele>
        <time>2025-10-16T14:04:43Z</time>
      </trkpt>
      <trkpt lat="48.47546" lon="7.13267">
        <ele>709.5873</ele>
        <time>2025-10-16T14:04:50Z</time>
      </trkpt>
      <trkpt lat="48.47544" lon="7.13273">
        <ele>709.5873</ele>
        <time>2025-10-16T14:05:23Z</time>
      </trkpt>
      <trkpt lat="48.47545" lon="7.1328">
        <ele>709.5873</ele>
        <time>2025-10-16T14:05:31Z</time>
      </trkpt>
      <trkpt lat="48.47544" lon="7.13287">
        <ele>709.5873</ele>
        <time>2025-10-16T14:05:38Z</time>
      </trkpt>
      <trkpt lat="48.47547" lon="7.13294">
        <ele>709.5873</ele>
        <time>2025-10-16T14:05:46Z</time>
      </trkpt>
      <trkpt lat="48.47548" lon="7.13302">
        <ele>709.5873</ele>
        <time>2025-10-16T14:05:51Z</time>
      </trkpt>
      <trkpt lat="48.47551" lon="7.13309">
        <ele>709.5873</ele>
        <time>2025-10-16T14:05:57Z</time>
      </trkpt>
      <trkpt lat="48.47551" lon="7.13316">
        <ele>709.5873</ele>
        <time>2025-10-16T14:06:02Z</time>
      </trkpt>
      <trkpt lat="48.47554" lon="7.13322">
        <ele>709.5873</ele>
        <time>2025-10-16T14:06:08Z</time>
      </trkpt>
      <trkpt lat="48.47556" lon="7.13329">
        <ele>707.456</ele>
        <time>2025-10-16T14:06:19Z</time>
      </trkpt>
      <trkpt lat="48.47559" lon="7.13335">
        <ele>705.3247</ele>
        <time>2025-10-16T14:06:26Z</time>
      </trkpt>
      <trkpt lat="48.47559" lon="7.13343">
        <ele>703.1935</ele>
        <time>2025-10-16T14:06:32Z</time>
      </trkpt>
      <trkpt lat="48.47559" lon="7.1335">
        <ele>701.0622</ele>
        <time>2025-10-16T14:06:38Z</time>
      </trkpt>
      <trkpt lat="48.47563" lon="7.13356">
        <ele>698.9309</ele>
        <time>2025-10-16T14:06:44Z</time>
      </trkpt>
      <trkpt lat="48.47565" lon="7.13363">
        <ele>698.9309</ele>
        <time>2025-10-16T14:06:49Z</time>
      </trkpt>
      <trkpt lat="48.47567" lon="7.1337">
        <ele>698.9309</ele>
        <time>2025-10-16T14:06:53Z</time>
      </trkpt>
      <trkpt lat="48.47569" lon="7.13377">
        <ele>698.9309</ele>
        <time>2025-10-16T14:06:57Z</time>
      </trkpt>
      <trkpt lat="48.47572" lon="7.13384">
        <ele>698.9309</ele>
        <time>2025-10-16T14:07:02Z</time>
      </trkpt>
      <trkpt lat="48.47573" lon="7.13391">
        <ele>698.9309</ele>
        <time>2025-10-16T14:07:07Z</time>
      </trkpt>
      <trkpt lat="48.47574" lon="7.13398">
        <ele>698.9309</ele>
        <time>2025-10-16T14:07:13Z</time>
      </trkpt>
      <trkpt lat="48.47575" lon="7.13404">
        <ele>696.8927</ele>
        <time>2025-10-16T14:07:18Z</time>
      </trkpt>
      <trkpt lat="48.47577" lon="7.13411">
        <ele>694.8545</ele>
        <time>2025-10-16T14:07:25Z</time>
      </trkpt>
      <trkpt lat="48.47578" lon="7.13418">
        <ele>692.8163</ele>
        <time>2025-10-16T14:07:33Z</time>
      </trkpt>
      <trkpt lat="48.47578" lon="7.13425">
        <ele>690.7781</ele>
        <time>2025-10-16T14:07:39Z</time>
      </trkpt>
      <trkpt lat="48.47579" lon="7.13432">
        <ele>688.73987</ele>
        <time>2025-10-16T14:07:47Z</time>
      </trkpt>
      <trkpt lat="48.47579" lon="7.13439">
        <ele>688.73987</ele>
        <time>2025-10-16T14:07:52Z</time>
      </trkpt>
      <trkpt lat="48.4758" lon="7.13447">
        <ele>688.73987</ele>
        <time>2025-10-16T14:07:56Z</time>
      </trkpt>
      <trkpt lat="48.4758" lon="7.13454">
        <ele>688.73987</ele>
        <time>2025-10-16T14:08:00Z</time>
      </trkpt>
      <trkpt lat="48.4758" lon="7.13461">
        <ele>688.73987</ele>
        <time>2025-10-16T14:08:04Z</time>
      </trkpt>
      <trkpt lat="48.47581" lon="7.13468">
        <ele>688.73987</ele>
        <time>2025-10-16T14:08:07Z</time>
      </trkpt>
      <trkpt lat="48.47581" lon="7.13476">
        <ele>688.73987</ele>
        <time>2025-10-16T14:08:11Z</time>
      </trkpt>
      <trkpt lat="48.47581" lon="7.13483">
        <ele>688.73987</ele>
        <time>2025-10-16T14:08:20Z</time>
      </trkpt>
      <trkpt lat="48.47582" lon="7.1349">
        <ele>688.73987</ele>
        <time>2025-10-16T14:08:27Z</time>
      </trkpt>
      <trkpt lat="48.4758" lon="7.13497">
        <ele>688.73987</ele>
        <time>2025-10-16T14:08:34Z</time>
      </trkpt>
      <trkpt lat="48.47581" lon="7.13505">
        <ele>688.73987</ele>
        <time>2025-10-16T14:08:40Z</time>
      </trkpt>
      <trkpt lat="48.47582" lon="7.13512">
        <ele>688.73987</ele>
        <time>2025-10-16T14:08:45Z</time>
      </trkpt>
      <trkpt lat="48.47582" lon="7.1352">
        <ele>688.73987</ele>
        <time>2025-10-16T14:08:51Z</time>
      </trkpt>
      <trkpt lat="48.47582" lon="7.13527">
        <ele>688.73987</ele>
        <time>2025-10-16T14:08:56Z</time>
      </trkpt>
      <trkpt lat="48.47582" lon="7.13535">
        <ele>688.73987</ele>
        <time>2025-10-16T14:09:01Z</time>
      </trkpt>
      <trkpt lat="48.47582" lon="7.13543">
        <ele>686.71936</ele>
        <time>2025-10-16T14:09:07Z</time>
      </trkpt>
      <trkpt lat="48.47582" lon="7.1355">
        <ele>684.69885</ele>
        <time>2025-10-16T14:09:12Z</time>
      </trkpt>
      <trkpt lat="48.47582" lon="7.13558">
        <ele>682.6783</ele>
        <time>2025-10-16T14:09:18Z</time>
      </trkpt>
      <trkpt lat="48.47582" lon="7.13566">
        <ele>680.6578</ele>
        <time>2025-10-16T14:09:24Z</time>
      </trkpt>
      <trkpt lat="48.47582" lon="7.13573">
        <ele>678.63727</ele>
        <time>2025-10-16T14:09:29Z</time>
      </trkpt>
      <trkpt lat="48.47582" lon="7.1358">
        <ele>678.63727</ele>
        <time>2025-10-16T14:09:34Z</time>
      </trkpt>
      <trkpt lat="48.47582" lon="7.13587">
        <ele>678.63727</ele>
        <time>2025-10-16T14:09:40Z</time>
      </trkpt>
      <trkpt lat="48.47582" lon="7.13594">
        <ele>678.63727</ele>
        <time>2025-10-16T14:09:47Z</time>
      </trkpt>
      <trkpt lat="48.47582" lon="7.13601">
        <ele>678.63727</ele>
        <time>2025-10-16T14:09:57Z</time>
      </trkpt>
      <trkpt lat="48.47582" lon="7.13608">
        <ele>676.4592</ele>
        <time>2025-10-16T14:10:19Z</time>
      </trkpt>
      <trkpt lat="48.47582" lon="7.13617">
        <ele>674.2811</ele>
        <time>2025-10-16T14:10:25Z</time>
      </trkpt>
      <trkpt lat="48.47582" lon="7.13624">
        <ele>672.1031</ele>
        <time>2025-10-16T14:10:35Z</time>
      </trkpt>
      <trkpt lat="48.47581" lon="7.1363">
        <ele>669.925</ele>
        <time>2025-10-16T14:10:43Z</time>
      </trkpt>
      <trkpt lat="48.4758" lon="7.13638">
        <ele>667.74695</ele>
        <time>2025-10-16T14:10:50Z</time>
      </trkpt>
      <trkpt lat="48.4758" lon="7.13645">
        <ele>667.74695</ele>
        <time>2025-10-16T14:10:56Z</time>
      </trkpt>
      <trkpt lat="48.47578" lon="7.13652">
        <ele>667.74695</ele>
        <time>2025-10-16T14:11:02Z</time>
      </trkpt>
      <trkpt lat="48.47578" lon="7.1366">
        <ele>667.74695</ele>
        <time>2025-10-16T14:11:09Z</time>
      </trkpt>
      <trkpt lat="48.47577" lon="7.13667">
        <ele>667.74695</ele>
        <time>2025-10-16T14:11:16Z</time>
      </trkpt>
      <trkpt lat="48.47575" lon="7.13674">
        <ele>667.74695</ele>
        <time>2025-10-16T14:11:22Z</time>
      </trkpt>
      <trkpt lat="48.47574" lon="7.13681">
        <ele>667.74695</ele>
        <time>2025-10-16T14:11:28Z</time>
      </trkpt>
      <trkpt lat="48.4757" lon="7.13687">
        <ele>667.74695</ele>
        <time>2025-10-16T14:11:33Z</time>
      </trkpt>
      <trkpt lat="48.47567" lon="7.13694">
        <ele>665.63904</ele>
        <time>2025-10-16T14:11:39Z</time>
      </trkpt>
      <trkpt lat="48.47562" lon="7.13698">
        <ele>663.53107</ele>
        <time>2025-10-16T14:11:45Z</time>
      </trkpt>
      <trkpt lat="48.47557" lon="7.137">
        <ele>661.42316</ele>
        <time>2025-10-16T14:11:51Z</time>
      </trkpt>
      <trkpt lat="48.47553" lon="7.13701">
        <ele>659.3152</ele>
        <time>2025-10-16T14:11:56Z</time>
      </trkpt>
      <trkpt lat="48.47548" lon="7.13701">
        <ele>657.2073</ele>
        <time>2025-10-16T14:12:04Z</time>
      </trkpt>
      <trkpt lat="48.47543" lon="7.137">
        <ele>657.2073</ele>
        <time>2025-10-16T14:12:10Z</time>
      </trkpt>
      <trkpt lat="48.47538" lon="7.13698">
        <ele>657.2073</ele>
        <time>2025-10-16T14:12:14Z</time>
      </trkpt>
      <trkpt lat="48.47533" lon="7.13696">
        <ele>657.2073</ele>
        <time>2025-10-16T14:12:20Z</time>
      </trkpt>
      <trkpt lat="48.47529" lon="7.13693">
        <ele>657.2073</ele>
        <time>2025-10-16T14:12:26Z</time>
      </trkpt>
      <trkpt lat="48.47524" lon="7.13691">
        <ele>657.2073</ele>
        <time>2025-10-16T14:12:32Z</time>
      </trkpt>
      <trkpt lat="48.47519" lon="7.13689">
        <ele>657.2073</ele>
        <time>2025-10-16T14:12:38Z</time>
      </trkpt>
      <trkpt lat="48.47514" lon="7.13686">
        <ele>657.2073</ele>
        <time>2025-10-16T14:12:44Z</time>
      </trkpt>
      <trkpt lat="48.47509" lon="7.13684">
        <ele>657.2073</ele>
        <time>2025-10-16T14:12:51Z</time>
      </trkpt>
      <trkpt lat="48.47505" lon="7.13682">
        <ele>657.2073</ele>
        <time>2025-10-16T14:12:56Z</time>
      </trkpt>
      <trkpt lat="48.475" lon="7.1368">
        <ele>657.2073</ele>
        <time>2025-10-16T14:13:03Z</time>
      </trkpt>
      <trkpt lat="48.47495" lon="7.13679">
        <ele>657.2073</ele>
        <time>2025-10-16T14:13:07Z</time>
      </trkpt>
      <trkpt lat="48.4749" lon="7.13678">
        <ele>657.2073</ele>
        <time>2025-10-16T14:13:12Z</time>
      </trkpt>
      <trkpt lat="48.47485" lon="7.13677">
        <ele>657.2073</ele>
        <time>2025-10-16T14:13:19Z</time>
      </trkpt>
      <trkpt lat="48.47481" lon="7.13676">
        <ele>657.2073</ele>
        <time>2025-10-16T14:13:25Z</time>
      </trkpt>
      <trkpt lat="48.47477" lon="7.13674">
        <ele>657.2073</ele>
        <time>2025-10-16T14:13:32Z</time>
      </trkpt>
      <trkpt lat="48.47472" lon="7.13673">
        <ele>657.2073</ele>
        <time>2025-10-16T14:13:39Z</time>
      </trkpt>
      <trkpt lat="48.47467" lon="7.13672">
        <ele>655.18274</ele>
        <time>2025-10-16T14:13:47Z</time>
      </trkpt>
      <trkpt lat="48.47463" lon="7.13672">
        <ele>653.1582</ele>
        <time>2025-10-16T14:13:54Z</time>
      </trkpt>
      <trkpt lat="48.47457" lon="7.13671">
        <ele>651.1337</ele>
        <time>2025-10-16T14:14:00Z</time>
      </trkpt>
      <trkpt lat="48.47451" lon="7.13671">
        <ele>649.1092</ele>
        <time>2025-10-16T14:14:06Z</time>
      </trkpt>
      <trkpt lat="48.47446" lon="7.13672">
        <ele>647.08466</ele>
        <time>2025-10-16T14:14:12Z</time>
      </trkpt>
      <trkpt lat="48.47441" lon="7.13674">
        <ele>647.08466</ele>
        <time>2025-10-16T14:14:25Z</time>
      </trkpt>
      <trkpt lat="48.47436" lon="7.13676">
        <ele>647.08466</ele>
        <time>2025-10-16T14:14:30Z</time>
      </trkpt>
      <trkpt lat="48.47431" lon="7.13679">
        <ele>647.08466</ele>
        <time>2025-10-16T14:14:34Z</time>
      </trkpt>
      <trkpt lat="48.47427" lon="7.13682">
        <ele>647.08466</ele>
        <time>2025-10-16T14:14:39Z</time>
      </trkpt>
      <trkpt lat="48.47422" lon="7.13686">
        <ele>647.08466</ele>
        <time>2025-10-16T14:14:43Z</time>
      </trkpt>
      <trkpt lat="48.47417" lon="7.1369">
        <ele>647.08466</ele>
        <time>2025-10-16T14:14:49Z</time>
      </trkpt>
      <trkpt lat="48.47413" lon="7.13694">
        <ele>647.08466</ele>
        <time>2025-10-16T14:14:54Z</time>
      </trkpt>
      <trkpt lat="48.47409" lon="7.13698">
        <ele>647.08466</ele>
        <time>2025-10-16T14:15:02Z</time>
      </trkpt>
      <trkpt lat="48.47405" lon="7.13703">
        <ele>647.08466</ele>
        <time>2025-10-16T14:15:09Z</time>
      </trkpt>
      <trkpt lat="48.47401" lon="7.13707">
        <ele>645.013</ele>
        <time>2025-10-16T14:15:17Z</time>
      </trkpt>
      <trkpt lat="48.47397" lon="7.1371">
        <ele>642.94135</ele>
        <time>2025-10-16T14:15:23Z</time>
      </trkpt>
      <trkpt lat="48.47393" lon="7.13715">
        <ele>640.8696</ele>
        <time>2025-10-16T14:15:30Z</time>
      </trkpt>
      <trkpt lat="48.47389" lon="7.13719">
        <ele>638.798</ele>
        <time>2025-10-16T14:15:51Z</time>
      </trkpt>
      <trkpt lat="48.47386" lon="7.13711">
        <ele>636.7263</ele>
        <time>2025-10-16T14:16:44Z</time>
      </trkpt>
      <trkpt lat="48.47382" lon="7.13715">
        <ele>636.7263</ele>
        <time>2025-10-16T14:17:16Z</time>
      </trkpt>
      <trkpt lat="48.47378" lon="7.1372">
        <ele>636.7263</ele>
        <time>2025-10-16T14:17:22Z</time>
      </trkpt>
      <trkpt lat="48.47373" lon="7.13723">
        <ele>636.7263</ele>
        <time>2025-10-16T14:17:27Z</time>
      </trkpt>
      <trkpt lat="48.47371" lon="7.13729">
        <ele>636.7263</ele>
        <time>2025-10-16T14:17:32Z</time>
      </trkpt>
      <trkpt lat="48.4737" lon="7.13736">
        <ele>636.7263</ele>
        <time>2025-10-16T14:17:37Z</time>
      </trkpt>
      <trkpt lat="48.47365" lon="7.13743">
        <ele>636.7263</ele>
        <time>2025-10-16T14:17:42Z</time>
      </trkpt>
      <trkpt lat="48.47361" lon="7.13746">
        <ele>636.7263</ele>
        <time>2025-10-16T14:17:47Z</time>
      </trkpt>
      <trkpt lat="48.47358" lon="7.13751">
        <ele>636.7263</ele>
        <time>2025-10-16T14:17:51Z</time>
      </trkpt>
      <trkpt lat="48.47353" lon="7.13755">
        <ele>636.7263</ele>
        <time>2025-10-16T14:17:56Z</time>
      </trkpt>
      <trkpt lat="48.47349" lon="7.13759">
        <ele>636.7263</ele>
        <time>2025-10-16T14:18:04Z</time>
      </trkpt>
      <trkpt lat="48.47346" lon="7.13765">
        <ele>636.7263</ele>
        <time>2025-10-16T14:18:16Z</time>
      </trkpt>
      <trkpt lat="48.47342" lon="7.13769">
        <ele>636.7263</ele>
        <time>2025-10-16T14:18:27Z</time>
      </trkpt>
      <trkpt lat="48.47338" lon="7.13773">
        <ele>634.69867</ele>
        <time>2025-10-16T14:18:36Z</time>
      </trkpt>
      <trkpt lat="48.47334" lon="7.13778">
        <ele>632.6711</ele>
        <time>2025-10-16T14:18:43Z</time>
      </trkpt>
      <trkpt lat="48.4733" lon="7.13782">
        <ele>630.64343</ele>
        <time>2025-10-16T14:18:54Z</time>
      </trkpt>
      <trkpt lat="48.47326" lon="7.13787">
        <ele>628.61584</ele>
        <time>2025-10-16T14:19:01Z</time>
      </trkpt>
      <trkpt lat="48.47329" lon="7.13801">
        <ele>626.5882</ele>
        <time>2025-10-16T14:19:08Z</time>
      </trkpt>
      <trkpt lat="48.47326" lon="7.13806">
        <ele>626.5882</ele>
        <time>2025-10-16T14:19:15Z</time>
      </trkpt>
      <trkpt lat="48.47323" lon="7.13811">
        <ele>626.5882</ele>
        <time>2025-10-16T14:19:22Z</time>
      </trkpt>
      <trkpt lat="48.47321" lon="7.13817">
        <ele>626.5882</ele>
        <time>2025-10-16T14:19:28Z</time>
      </trkpt>
      <trkpt lat="48.47318" lon="7.13823">
        <ele>626.5882</ele>
        <time>2025-10-16T14:19:34Z</time>
      </trkpt>
      <trkpt lat="48.47313" lon="7.13827">
        <ele>626.5882</ele>
        <time>2025-10-16T14:19:41Z</time>
      </trkpt>
      <trkpt lat="48.47309" lon="7.1383">
        <ele>626.5882</ele>
        <time>2025-10-16T14:19:47Z</time>
      </trkpt>
      <trkpt lat="48.47305" lon="7.13834">
        <ele>624.4841</ele>
        <time>2025-10-16T14:19:53Z</time>
      </trkpt>
      <trkpt lat="48.473" lon="7.13837">
        <ele>622.3799</ele>
        <time>2025-10-16T14:20:02Z</time>
      </trkpt>
      <trkpt lat="48.47296" lon="7.1384">
        <ele>620.27576</ele>
        <time>2025-10-16T14:20:11Z</time>
      </trkpt>
      <trkpt lat="48.47292" lon="7.13843">
        <ele>618.1716</ele>
        <time>2025-10-16T14:20:25Z</time>
      </trkpt>
      <trkpt lat="48.47287" lon="7.13844">
        <ele>616.06744</ele>
        <time>2025-10-16T14:20:34Z</time>
      </trkpt>
      <trkpt lat="48.47283" lon="7.13849">
        <ele>616.06744</ele>
        <time>2025-10-16T14:20:44Z</time>
      </trkpt>
      <trkpt lat="48.47278" lon="7.13851">
        <ele>616.06744</ele>
        <time>2025-10-16T14:20:53Z</time>
      </trkpt>
      <trkpt lat="48.47275" lon="7.13857">
        <ele>613.699</ele>
        <time>2025-10-16T14:21:06Z</time>
      </trkpt>
      <trkpt lat="48.47271" lon="7.13861">
        <ele>611.3305</ele>
        <time>2025-10-16T14:21:11Z</time>
      </trkpt>
      <trkpt lat="48.47268" lon="7.13865">
        <ele>608.9621</ele>
        <time>2025-10-16T14:21:16Z</time>
      </trkpt>
      <trkpt lat="48.47262" lon="7.13868">
        <ele>606.5936</ele>
        <time>2025-10-16T14:21:22Z</time>
      </trkpt>
      <trkpt lat="48.47258" lon="7.13872">
        <ele>604.22516</ele>
        <time>2025-10-16T14:21:32Z</time>
      </trkpt>
      <trkpt lat="48.47253" lon="7.1387">
        <ele>604.22516</ele>
        <time>2025-10-16T14:21:39Z</time>
      </trkpt>
      <trkpt lat="48.47249" lon="7.13873">
        <ele>604.22516</ele>
        <time>2025-10-16T14:21:46Z</time>
      </trkpt>
      <trkpt lat="48.47246" lon="7.13879">
        <ele>604.22516</ele>
        <time>2025-10-16T14:21:51Z</time>
      </trkpt>
      <trkpt lat="48.47242" lon="7.13883">
        <ele>604.22516</ele>
        <time>2025-10-16T14:23:06Z</time>
      </trkpt>
      <trkpt lat="48.4724" lon="7.1389">
        <ele>604.22516</ele>
        <time>2025-10-16T14:23:12Z</time>
      </trkpt>
      <trkpt lat="48.47239" lon="7.13897">
        <ele>604.22516</ele>
        <time>2025-10-16T14:23:17Z</time>
      </trkpt>
      <trkpt lat="48.4724" lon="7.13905">
        <ele>604.22516</ele>
        <time>2025-10-16T14:23:24Z</time>
      </trkpt>
      <trkpt lat="48.4724" lon="7.13913">
        <ele>602.2134</ele>
        <time>2025-10-16T14:23:30Z</time>
      </trkpt>
      <trkpt lat="48.47243" lon="7.13919">
        <ele>600.2016</ele>
        <time>2025-10-16T14:23:35Z</time>
      </trkpt>
      <trkpt lat="48.47242" lon="7.13926">
        <ele>598.1899</ele>
        <time>2025-10-16T14:23:42Z</time>
      </trkpt>
      <trkpt lat="48.4724" lon="7.13932">
        <ele>596.1781</ele>
        <time>2025-10-16T14:23:49Z</time>
      </trkpt>
      <trkpt lat="48.47239" lon="7.13939">
        <ele>594.1663</ele>
        <time>2025-10-16T14:23:56Z</time>
      </trkpt>
      <trkpt lat="48.47235" lon="7.13945">
        <ele>594.1663</ele>
        <time>2025-10-16T14:24:00Z</time>
      </trkpt>
      <trkpt lat="48.47231" lon="7.1395">
        <ele>594.1663</ele>
        <time>2025-10-16T14:24:04Z</time>
      </trkpt>
      <trkpt lat="48.47226" lon="7.13953">
        <ele>594.1663</ele>
        <time>2025-10-16T14:24:08Z</time>
      </trkpt>
      <trkpt lat="48.47221" lon="7.13957">
        <ele>594.1663</ele>
        <time>2025-10-16T14:24:11Z</time>
      </trkpt>
      <trkpt lat="48.47217" lon="7.13962">
        <ele>594.1663</ele>
        <time>2025-10-16T14:24:16Z</time>
      </trkpt>
      <trkpt lat="48.47214" lon="7.13969">
        <ele>594.1663</ele>
        <time>2025-10-16T14:24:22Z</time>
      </trkpt>
      <trkpt lat="48.47212" lon="7.13975">
        <ele>594.1663</ele>
        <time>2025-10-16T14:24:26Z</time>
      </trkpt>
      <trkpt lat="48.4721" lon="7.13981">
        <ele>594.1663</ele>
        <time>2025-10-16T14:24:29Z</time>
      </trkpt>
      <trkpt lat="48.4721" lon="7.13988">
        <ele>594.1663</ele>
        <time>2025-10-16T14:24:36Z</time>
      </trkpt>
      <trkpt lat="48.47208" lon="7.13995">
        <ele>592.0512</ele>
        <time>2025-10-16T14:24:42Z</time>
      </trkpt>
      <trkpt lat="48.47204" lon="7.14">
        <ele>589.9361</ele>
        <time>2025-10-16T14:24:51Z</time>
      </trkpt>
      <trkpt lat="48.47199" lon="7.14003">
        <ele>587.821</ele>
        <time>2025-10-16T14:24:56Z</time>
      </trkpt>
      <trkpt lat="48.47195" lon="7.14007">
        <ele>585.7059</ele>
        <time>2025-10-16T14:25:03Z</time>
      </trkpt>
      <trkpt lat="48.47191" lon="7.14011">
        <ele>583.59076</ele>
        <time>2025-10-16T14:25:09Z</time>
      </trkpt>
      <trkpt lat="48.47191" lon="7.14018">
        <ele>583.59076</ele>
        <time>2025-10-16T14:25:20Z</time>
      </trkpt>
      <trkpt lat="48.47188" lon="7.14025">
        <ele>581.2693</ele>
        <time>2025-10-16T14:25:27Z</time>
      </trkpt>
      <trkpt lat="48.47186" lon="7.14031">
        <ele>578.9478</ele>
        <time>2025-10-16T14:25:42Z</time>
      </trkpt>
      <trkpt lat="48.47184" lon="7.14038">
        <ele>576.6263</ele>
        <time>2025-10-16T14:25:49Z</time>
      </trkpt>
      <trkpt lat="48.47182" lon="7.14045">
        <ele>574.3048</ele>
        <time>2025-10-16T14:25:59Z</time>
      </trkpt>
      <trkpt lat="48.47179" lon="7.14052">
        <ele>571.98334</ele>
        <time>2025-10-16T14:26:08Z</time>
      </trkpt>
      <trkpt lat="48.47176" lon="7.14057">
        <ele>571.98334</ele>
        <time>2025-10-16T14:26:16Z</time>
      </trkpt>
      <trkpt lat="48.47173" lon="7.14062">
        <ele>571.98334</ele>
        <time>2025-10-16T14:26:21Z</time>
      </trkpt>
      <trkpt lat="48.47171" lon="7.14069">
        <ele>571.98334</ele>
        <time>2025-10-16T14:26:26Z</time>
      </trkpt>
      <trkpt lat="48.47167" lon="7.14073">
        <ele>571.98334</ele>
        <time>2025-10-16T14:26:31Z</time>
      </trkpt>
      <trkpt lat="48.47163" lon="7.14077">
        <ele>571.98334</ele>
        <time>2025-10-16T14:26:41Z</time>
      </trkpt>
      <trkpt lat="48.47159" lon="7.14083">
        <ele>571.98334</ele>
        <time>2025-10-16T14:26:47Z</time>
      </trkpt>
      <trkpt lat="48.47157" lon="7.14089">
        <ele>571.98334</ele>
        <time>2025-10-16T14:26:51Z</time>
      </trkpt>
      <trkpt lat="48.47154" lon="7.14095">
        <ele>571.98334</ele>
        <time>2025-10-16T14:26:56Z</time>
      </trkpt>
      <trkpt lat="48.47152" lon="7.14101">
        <ele>571.98334</ele>
        <time>2025-10-16T14:27:01Z</time>
      </trkpt>
      <trkpt lat="48.47149" lon="7.14108">
        <ele>571.98334</ele>
        <time>2025-10-16T14:27:10Z</time>
      </trkpt>
      <trkpt lat="48.47144" lon="7.14113">
        <ele>571.98334</ele>
        <time>2025-10-16T14:27:16Z</time>
      </trkpt>
      <trkpt lat="48.47138" lon="7.14112">
        <ele>571.98334</ele>
        <time>2025-10-16T14:27:21Z</time>
      </trkpt>
      <trkpt lat="48.47134" lon="7.14115">
        <ele>571.98334</ele>
        <time>2025-10-16T14:27:26Z</time>
      </trkpt>
      <trkpt lat="48.47129" lon="7.14118">
        <ele>571.98334</ele>
        <time>2025-10-16T14:27:36Z</time>
      </trkpt>
      <trkpt lat="48.47125" lon="7.14122">
        <ele>571.98334</ele>
        <time>2025-10-16T14:27:43Z</time>
      </trkpt>
      <trkpt lat="48.47122" lon="7.14117">
        <ele>569.5858</ele>
        <time>2025-10-16T14:28:19Z</time>
      </trkpt>
      <trkpt lat="48.47119" lon="7.14112">
        <ele>567.18823</ele>
        <time>2025-10-16T14:28:41Z</time>
      </trkpt>
      <trkpt lat="48.47114" lon="7.14112">
        <ele>564.7907</ele>
        <time>2025-10-16T14:29:38Z</time>
      </trkpt>
      <trkpt lat="48.47118" lon="7.1411">
        <ele>562.3931</ele>
        <time>2025-10-16T14:29:50Z</time>
      </trkpt>
      <trkpt lat="48.47113" lon="7.14113">
        <ele>559.9956</ele>
        <time>2025-10-16T14:30:10Z</time>
      </trkpt>
      <trkpt lat="48.47111" lon="7.14107">
        <ele>559.9956</ele>
        <time>2025-10-16T14:31:08Z</time>
      </trkpt>
      <trkpt lat="48.47108" lon="7.141">
        <ele>559.9956</ele>
        <time>2025-10-16T14:31:21Z</time>
      </trkpt>
      <trkpt lat="48.47104" lon="7.14094">
        <ele>559.9956</ele>
        <time>2025-10-16T14:31:26Z</time>
      </trkpt>
      <trkpt lat="48.471" lon="7.14089">
        <ele>559.9956</ele>
        <time>2025-10-16T14:31:31Z</time>
      </trkpt>
      <trkpt lat="48.47097" lon="7.14085">
        <ele>559.9956</ele>
        <time>2025-10-16T14:31:36Z</time>
      </trkpt>
      <trkpt lat="48.47093" lon="7.14078">
        <ele>559.9956</ele>
        <time>2025-10-16T14:31:42Z</time>
      </trkpt>
      <trkpt lat="48.47091" lon="7.14072">
        <ele>559.9956</ele>
        <time>2025-10-16T14:31:48Z</time>
      </trkpt>
      <trkpt lat="48.47088" lon="7.14067">
        <ele>559.9956</ele>
        <time>2025-10-16T14:31:53Z</time>
      </trkpt>
      <trkpt lat="48.47084" lon="7.14062">
        <ele>559.9956</ele>
        <time>2025-10-16T14:31:57Z</time>
      </trkpt>
      <trkpt lat="48.47081" lon="7.14056">
        <ele>559.9956</ele>
        <time>2025-10-16T14:32:02Z</time>
      </trkpt>
      <trkpt lat="48.47078" lon="7.1405">
        <ele>559.9956</ele>
        <time>2025-10-16T14:32:09Z</time>
      </trkpt>
      <trkpt lat="48.47076" lon="7.14044">
        <ele>559.9956</ele>
        <time>2025-10-16T14:32:14Z</time>
      </trkpt>
      <trkpt lat="48.47073" lon="7.14038">
        <ele>559.9956</ele>
        <time>2025-10-16T14:32:19Z</time>
      </trkpt>
      <trkpt lat="48.47071" lon="7.14032">
        <ele>559.9956</ele>
        <time>2025-10-16T14:32:23Z</time>
      </trkpt>
      <trkpt lat="48.47066" lon="7.14024">
        <ele>559.9956</ele>
        <time>2025-10-16T14:32:27Z</time>
      </trkpt>
      <trkpt lat="48.47068" lon="7.14017">
        <ele>559.9956</ele>
        <time>2025-10-16T14:32:35Z</time>
      </trkpt>
      <trkpt lat="48.47066" lon="7.14011">
        <ele>559.9956</ele>
        <time>2025-10-16T14:32:38Z</time>
      </trkpt>
      <trkpt lat="48.47065" lon="7.14003">
        <ele>559.9956</ele>
        <time>2025-10-16T14:32:43Z</time>
      </trkpt>
      <trkpt lat="48.47063" lon="7.13996">
        <ele>559.9956</ele>
        <time>2025-10-16T14:32:48Z</time>
      </trkpt>
      <trkpt lat="48.4706" lon="7.1399">
        <ele>559.9956</ele>
        <time>2025-10-16T14:32:53Z</time>
      </trkpt>
      <trkpt lat="48.47058" lon="7.13983">
        <ele>559.9956</ele>
        <time>2025-10-16T14:32:58Z</time>
      </trkpt>
      <trkpt lat="48.47055" lon="7.13976">
        <ele>559.9956</ele>
        <time>2025-10-16T14:33:03Z</time>
      </trkpt>
      <trkpt lat="48.47052" lon="7.13971">
        <ele>559.9956</ele>
        <time>2025-10-16T14:33:08Z</time>
      </trkpt>
      <trkpt lat="48.4705" lon="7.13963">
        <ele>559.9956</ele>
        <time>2025-10-16T14:33:13Z</time>
      </trkpt>
      <trkpt lat="48.47048" lon="7.13956">
        <ele>559.9956</ele>
        <time>2025-10-16T14:33:17Z</time>
      </trkpt>
      <trkpt lat="48.47046" lon="7.13949">
        <ele>559.9956</ele>
        <time>2025-10-16T14:33:22Z</time>
      </trkpt>
      <trkpt lat="48.47043" lon="7.13942">
        <ele>559.9956</ele>
        <time>2025-10-16T14:33:27Z</time>
      </trkpt>
      <trkpt lat="48.47041" lon="7.13934">
        <ele>559.9956</ele>
        <time>2025-10-16T14:33:32Z</time>
      </trkpt>
      <trkpt lat="48.47039" lon="7.13928">
        <ele>559.9956</ele>
        <time>2025-10-16T14:33:36Z</time>
      </trkpt>
      <trkpt lat="48.47037" lon="7.13921">
        <ele>559.9956</ele>
        <time>2025-10-16T14:33:41Z</time>
      </trkpt>
      <trkpt lat="48.47035" lon="7.13915">
        <ele>559.9956</ele>
        <time>2025-10-16T14:33:46Z</time>
      </trkpt>
      <trkpt lat="48.47033" lon="7.13908">
        <ele>559.9956</ele>
        <time>2025-10-16T14:33:51Z</time>
      </trkpt>
      <trkpt lat="48.47031" lon="7.139">
        <ele>559.9956</ele>
        <time>2025-10-16T14:33:56Z</time>
      </trkpt>
      <trkpt lat="48.47028" lon="7.13893">
        <ele>559.9956</ele>
        <time>2025-10-16T14:34:02Z</time>
      </trkpt>
      <trkpt lat="48.47026" lon="7.13887">
        <ele>559.9956</ele>
        <time>2025-10-16T14:34:07Z</time>
      </trkpt>
      <trkpt lat="48.47024" lon="7.1388">
        <ele>559.9956</ele>
        <time>2025-10-16T14:34:12Z</time>
      </trkpt>
      <trkpt lat="48.47022" lon="7.13874">
        <ele>559.9956</ele>
        <time>2025-10-16T14:34:17Z</time>
      </trkpt>
      <trkpt lat="48.4702" lon="7.13867">
        <ele>559.9956</ele>
        <time>2025-10-16T14:34:21Z</time>
      </trkpt>
      <trkpt lat="48.47017" lon="7.13858">
        <ele>559.9956</ele>
        <time>2025-10-16T14:34:25Z</time>
      </trkpt>
      <trkpt lat="48.47015" lon="7.13851">
        <ele>559.9956</ele>
        <time>2025-10-16T14:34:29Z</time>
      </trkpt>
      <trkpt lat="48.47013" lon="7.13844">
        <ele>559.9956</ele>
        <time>2025-10-16T14:34:34Z</time>
      </trkpt>
      <trkpt lat="48.47012" lon="7.13837">
        <ele>559.9956</ele>
        <time>2025-10-16T14:34:39Z</time>
      </trkpt>
      <trkpt lat="48.4701" lon="7.1383">
        <ele>557.9178</ele>
        <time>2025-10-16T14:34:46Z</time>
      </trkpt>
      <trkpt lat="48.47008" lon="7.13823">
        <ele>555.83997</ele>
        <time>2025-10-16T14:34:53Z</time>
      </trkpt>
      <trkpt lat="48.47006" lon="7.13816">
        <ele>553.7621</ele>
        <time>2025-10-16T14:34:59Z</time>
      </trkpt>
      <trkpt lat="48.47004" lon="7.13809">
        <ele>551.68427</ele>
        <time>2025-10-16T14:35:01Z</time>
      </trkpt>
      <trkpt lat="48.47001" lon="7.13803">
        <ele>549.60645</ele>
        <time>2025-10-16T14:35:08Z</time>
      </trkpt>
      <trkpt lat="48.46999" lon="7.13797">
        <ele>549.60645</ele>
        <time>2025-10-16T14:35:14Z</time>
      </trkpt>
      <trkpt lat="48.46996" lon="7.1379">
        <ele>549.60645</ele>
        <time>2025-10-16T14:35:18Z</time>
      </trkpt>
      <trkpt lat="48.46992" lon="7.13782">
        <ele>549.60645</ele>
        <time>2025-10-16T14:35:23Z</time>
      </trkpt>
      <trkpt lat="48.4699" lon="7.13776">
        <ele>549.60645</ele>
        <time>2025-10-16T14:35:31Z</time>
      </trkpt>
      <trkpt lat="48.46986" lon="7.13768">
        <ele>549.60645</ele>
        <time>2025-10-16T14:35:36Z</time>
      </trkpt>
      <trkpt lat="48.46983" lon="7.13762">
        <ele>549.60645</ele>
        <time>2025-10-16T14:35:42Z</time>
      </trkpt>
      <trkpt lat="48.4698" lon="7.13755">
        <ele>549.60645</ele>
        <time>2025-10-16T14:35:49Z</time>
      </trkpt>
      <trkpt lat="48.46977" lon="7.13749">
        <ele>549.60645</ele>
        <time>2025-10-16T14:35:55Z</time>
      </trkpt>
      <trkpt lat="48.46973" lon="7.13742">
        <ele>549.60645</ele>
        <time>2025-10-16T14:36:00Z</time>
      </trkpt>
      <trkpt lat="48.4697" lon="7.13737">
        <ele>549.60645</ele>
        <time>2025-10-16T14:36:06Z</time>
      </trkpt>
      <trkpt lat="48.46967" lon="7.1373">
        <ele>549.60645</ele>
        <time>2025-10-16T14:36:16Z</time>
      </trkpt>
      <trkpt lat="48.46965" lon="7.13723">
        <ele>549.60645</ele>
        <time>2025-10-16T14:36:19Z</time>
      </trkpt>
      <trkpt lat="48.46961" lon="7.13717">
        <ele>549.60645</ele>
        <time>2025-10-16T14:36:22Z</time>
      </trkpt>
      <trkpt lat="48.46959" lon="7.13711">
        <ele>549.60645</ele>
        <time>2025-10-16T14:36:27Z</time>
      </trkpt>
      <trkpt lat="48.46957" lon="7.13704">
        <ele>549.60645</ele>
        <time>2025-10-16T14:36:33Z</time>
      </trkpt>
      <trkpt lat="48.46955" lon="7.13698">
        <ele>549.60645</ele>
        <time>2025-10-16T14:36:41Z</time>
      </trkpt>
      <trkpt lat="48.46954" lon="7.13691">
        <ele>549.60645</ele>
        <time>2025-10-16T14:36:45Z</time>
      </trkpt>
      <trkpt lat="48.46952" lon="7.13684">
        <ele>549.60645</ele>
        <time>2025-10-16T14:36:51Z</time>
      </trkpt>
      <trkpt lat="48.4695" lon="7.13677">
        <ele>549.60645</ele>
        <time>2025-10-16T14:36:55Z</time>
      </trkpt>
      <trkpt lat="48.46947" lon="7.13669">
        <ele>549.60645</ele>
        <time>2025-10-16T14:37:01Z</time>
      </trkpt>
      <trkpt lat="48.46944" lon="7.13663">
        <ele>549.60645</ele>
        <time>2025-10-16T14:37:05Z</time>
      </trkpt>
      <trkpt lat="48.4694" lon="7.13659">
        <ele>549.60645</ele>
        <time>2025-10-16T14:37:11Z</time>
      </trkpt>
      <trkpt lat="48.46935" lon="7.13656">
        <ele>549.60645</ele>
        <time>2025-10-16T14:37:15Z</time>
      </trkpt>
      <trkpt lat="48.4693" lon="7.13654">
        <ele>549.60645</ele>
        <time>2025-10-16T14:37:22Z</time>
      </trkpt>
      <trkpt lat="48.46924" lon="7.13652">
        <ele>549.60645</ele>
        <time>2025-10-16T14:37:27Z</time>
      </trkpt>
      <trkpt lat="48.46919" lon="7.13649">
        <ele>549.60645</ele>
        <time>2025-10-16T14:37:33Z</time>
      </trkpt>
      <trkpt lat="48.46914" lon="7.13647">
        <ele>549.60645</ele>
        <time>2025-10-16T14:37:37Z</time>
      </trkpt>
      <trkpt lat="48.46909" lon="7.13644">
        <ele>549.60645</ele>
        <time>2025-10-16T14:37:44Z</time>
      </trkpt>
      <trkpt lat="48.46905" lon="7.13641">
        <ele>547.11194</ele>
        <time>2025-10-16T14:37:47Z</time>
      </trkpt>
      <trkpt lat="48.46901" lon="7.13637">
        <ele>544.61743</ele>
        <time>2025-10-16T14:37:52Z</time>
      </trkpt>
      <trkpt lat="48.46898" lon="7.1363">
        <ele>542.1229</ele>
        <time>2025-10-16T14:38:00Z</time>
      </trkpt>
      <trkpt lat="48.46896" lon="7.13624">
        <ele>539.6284</ele>
        <time>2025-10-16T14:38:14Z</time>
      </trkpt>
      <trkpt lat="48.46892" lon="7.13617">
        <ele>537.1339</ele>
        <time>2025-10-16T14:38:17Z</time>
      </trkpt>
      <trkpt lat="48.46889" lon="7.13611">
        <ele>537.1339</ele>
        <time>2025-10-16T14:38:19Z</time>
      </trkpt>
      <trkpt lat="48.46885" lon="7.13607">
        <ele>537.1339</ele>
        <time>2025-10-16T14:38:22Z</time>
      </trkpt>
      <trkpt lat="48.4688" lon="7.13604">
        <ele>537.1339</ele>
        <time>2025-10-16T14:38:27Z</time>
      </trkpt>
      <trkpt lat="48.46875" lon="7.13603">
        <ele>537.1339</ele>
        <time>2025-10-16T14:38:32Z</time>
      </trkpt>
      <trkpt lat="48.4687" lon="7.13602">
        <ele>537.1339</ele>
        <time>2025-10-16T14:38:37Z</time>
      </trkpt>
      <trkpt lat="48.46865" lon="7.13602">
        <ele>537.1339</ele>
        <time>2025-10-16T14:38:42Z</time>
      </trkpt>
      <trkpt lat="48.4686" lon="7.13604">
        <ele>537.1339</ele>
        <time>2025-10-16T14:38:47Z</time>
      </trkpt>
      <trkpt lat="48.46855" lon="7.13605">
        <ele>537.1339</ele>
        <time>2025-10-16T14:38:52Z</time>
      </trkpt>
      <trkpt lat="48.4685" lon="7.13608">
        <ele>537.1339</ele>
        <time>2025-10-16T14:38:58Z</time>
      </trkpt>
      <trkpt lat="48.46845" lon="7.13609">
        <ele>537.1339</ele>
        <time>2025-10-16T14:39:03Z</time>
      </trkpt>
      <trkpt lat="48.4684" lon="7.1361">
        <ele>537.1339</ele>
        <time>2025-10-16T14:39:08Z</time>
      </trkpt>
      <trkpt lat="48.46834" lon="7.13611">
        <ele>537.1339</ele>
        <time>2025-10-16T14:39:15Z</time>
      </trkpt>
      <trkpt lat="48.46829" lon="7.13613">
        <ele>537.1339</ele>
        <time>2025-10-16T14:39:21Z</time>
      </trkpt>
      <trkpt lat="48.46825" lon="7.13614">
        <ele>537.1339</ele>
        <time>2025-10-16T14:39:27Z</time>
      </trkpt>
      <trkpt lat="48.46819" lon="7.13615">
        <ele>537.1339</ele>
        <time>2025-10-16T14:39:33Z</time>
      </trkpt>
      <trkpt lat="48.46814" lon="7.13615">
        <ele>537.1339</ele>
        <time>2025-10-16T14:39:38Z</time>
      </trkpt>
      <trkpt lat="48.46809" lon="7.13616">
        <ele>537.1339</ele>
        <time>2025-10-16T14:39:46Z</time>
      </trkpt>
      <trkpt lat="48.46805" lon="7.13617">
        <ele>537.1339</ele>
        <time>2025-10-16T14:39:49Z</time>
      </trkpt>
      <trkpt lat="48.468" lon="7.13616">
        <ele>537.1339</ele>
        <time>2025-10-16T14:39:56Z</time>
      </trkpt>
      <trkpt lat="48.46795" lon="7.13615">
        <ele>537.1339</ele>
        <time>2025-10-16T14:40:05Z</time>
      </trkpt>
      <trkpt lat="48.4679" lon="7.13616">
        <ele>537.1339</ele>
        <time>2025-10-16T14:40:11Z</time>
      </trkpt>
      <trkpt lat="48.46785" lon="7.13617">
        <ele>537.1339</ele>
        <time>2025-10-16T14:40:17Z</time>
      </trkpt>
      <trkpt lat="48.46781" lon="7.13619">
        <ele>537.1339</ele>
        <time>2025-10-16T14:40:22Z</time>
      </trkpt>
      <trkpt lat="48.46776" lon="7.13621">
        <ele>535.0686</ele>
        <time>2025-10-16T14:40:27Z</time>
      </trkpt>
      <trkpt lat="48.46772" lon="7.13622">
        <ele>533.0033</ele>
        <time>2025-10-16T14:40:36Z</time>
      </trkpt>
      <trkpt lat="48.46766" lon="7.13624">
        <ele>530.938</ele>
        <time>2025-10-16T14:40:38Z</time>
      </trkpt>
      <trkpt lat="48.46762" lon="7.13629">
        <ele>528.8727</ele>
        <time>2025-10-16T14:40:42Z</time>
      </trkpt>
      <trkpt lat="48.46762" lon="7.13637">
        <ele>526.8074</ele>
        <time>2025-10-16T14:40:44Z</time>
      </trkpt>
      <trkpt lat="48.46758" lon="7.13641">
        <ele>526.8074</ele>
        <time>2025-10-16T14:40:48Z</time>
      </trkpt>
      <trkpt lat="48.46755" lon="7.13648">
        <ele>526.8074</ele>
        <time>2025-10-16T14:40:53Z</time>
      </trkpt>
      <trkpt lat="48.46751" lon="7.13653">
        <ele>526.8074</ele>
        <time>2025-10-16T14:41:00Z</time>
      </trkpt>
      <trkpt lat="48.46754" lon="7.13661">
        <ele>526.8074</ele>
        <time>2025-10-16T14:41:08Z</time>
      </trkpt>
      <trkpt lat="48.46752" lon="7.13669">
        <ele>526.8074</ele>
        <time>2025-10-16T14:41:11Z</time>
      </trkpt>
      <trkpt lat="48.46752" lon="7.13678">
        <ele>526.8074</ele>
        <time>2025-10-16T14:41:15Z</time>
      </trkpt>
      <trkpt lat="48.46748" lon="7.13684">
        <ele>526.8074</ele>
        <time>2025-10-16T14:41:20Z</time>
      </trkpt>
      <trkpt lat="48.46749" lon="7.13692">
        <ele>526.8074</ele>
        <time>2025-10-16T14:41:31Z</time>
      </trkpt>
      <trkpt lat="48.46747" lon="7.137">
        <ele>526.8074</ele>
        <time>2025-10-16T14:41:37Z</time>
      </trkpt>
      <trkpt lat="48.46745" lon="7.13708">
        <ele>526.8074</ele>
        <time>2025-10-16T14:41:42Z</time>
      </trkpt>
      <trkpt lat="48.46748" lon="7.13715">
        <ele>526.8074</ele>
        <time>2025-10-16T14:41:45Z</time>
      </trkpt>
      <trkpt lat="48.4675" lon="7.13723">
        <ele>526.8074</ele>
        <time>2025-10-16T14:41:52Z</time>
      </trkpt>
      <trkpt lat="48.46751" lon="7.13731">
        <ele>526.8074</ele>
        <time>2025-10-16T14:41:59Z</time>
      </trkpt>
      <trkpt lat="48.46751" lon="7.13738">
        <ele>526.8074</ele>
        <time>2025-10-16T14:42:06Z</time>
      </trkpt>
      <trkpt lat="48.46754" lon="7.13746">
        <ele>526.8074</ele>
        <time>2025-10-16T14:42:12Z</time>
      </trkpt>
      <trkpt lat="48.46755" lon="7.13753">
        <ele>526.8074</ele>
        <time>2025-10-16T14:42:17Z</time>
      </trkpt>
      <trkpt lat="48.46753" lon="7.13759">
        <ele>526.8074</ele>
        <time>2025-10-16T14:42:21Z</time>
      </trkpt>
      <trkpt lat="48.46758" lon="7.13765">
        <ele>526.8074</ele>
        <time>2025-10-16T14:42:26Z</time>
      </trkpt>
      <trkpt lat="48.46758" lon="7.13772">
        <ele>526.8074</ele>
        <time>2025-10-16T14:42:30Z</time>
      </trkpt>
      <trkpt lat="48.46759" lon="7.13779">
        <ele>526.8074</ele>
        <time>2025-10-16T14:42:37Z</time>
      </trkpt>
      <trkpt lat="48.46763" lon="7.13785">
        <ele>526.8074</ele>
        <time>2025-10-16T14:42:42Z</time>
      </trkpt>
      <trkpt lat="48.46763" lon="7.13792">
        <ele>526.8074</ele>
        <time>2025-10-16T14:42:50Z</time>
      </trkpt>
      <trkpt lat="48.46764" lon="7.138">
        <ele>526.8074</ele>
        <time>2025-10-16T14:42:55Z</time>
      </trkpt>
      <trkpt lat="48.46765" lon="7.13808">
        <ele>526.8074</ele>
        <time>2025-10-16T14:43:00Z</time>
      </trkpt>
      <trkpt lat="48.46767" lon="7.13815">
        <ele>526.8074</ele>
        <time>2025-10-16T14:43:04Z</time>
      </trkpt>
      <trkpt lat="48.46764" lon="7.13823">
        <ele>523.76483</ele>
        <time>2025-10-16T14:43:15Z</time>
      </trkpt>
      <trkpt lat="48.46769" lon="7.13832">
        <ele>520.7223</ele>
        <time>2025-10-16T14:43:18Z</time>
      </trkpt>
      <trkpt lat="48.46769" lon="7.1384">
        <ele>517.67975</ele>
        <time>2025-10-16T14:43:25Z</time>
      </trkpt>
      <trkpt lat="48.46774" lon="7.13845">
        <ele>514.6372</ele>
        <time>2025-10-16T14:43:33Z</time>
      </trkpt>
      <trkpt lat="48.46776" lon="7.13852">
        <ele>511.5947</ele>
        <time>2025-10-16T14:43:35Z</time>
      </trkpt>
      <trkpt lat="48.46777" lon="7.13859">
        <ele>511.5947</ele>
        <time>2025-10-16T14:43:39Z</time>
      </trkpt>
      <trkpt lat="48.46782" lon="7.13863">
        <ele>511.5947</ele>
        <time>2025-10-16T14:43:46Z</time>
      </trkpt>
      <trkpt lat="48.46782" lon="7.13871">
        <ele>511.5947</ele>
        <time>2025-10-16T14:43:51Z</time>
      </trkpt>
      <trkpt lat="48.46782" lon="7.13879">
        <ele>511.5947</ele>
        <time>2025-10-16T14:43:56Z</time>
      </trkpt>
      <trkpt lat="48.46783" lon="7.13886">
        <ele>511.5947</ele>
        <time>2025-10-16T14:44:02Z</time>
      </trkpt>
      <trkpt lat="48.46787" lon="7.13892">
        <ele>511.5947</ele>
        <time>2025-10-16T14:44:08Z</time>
      </trkpt>
      <trkpt lat="48.4679" lon="7.13899">
        <ele>511.5947</ele>
        <time>2025-10-16T14:44:13Z</time>
      </trkpt>
      <trkpt lat="48.46793" lon="7.13905">
        <ele>511.5947</ele>
        <time>2025-10-16T14:44:17Z</time>
      </trkpt>
      <trkpt lat="48.46795" lon="7.13911">
        <ele>511.5947</ele>
        <time>2025-10-16T14:44:21Z</time>
      </trkpt>
      <trkpt lat="48.46796" lon="7.13918">
        <ele>511.5947</ele>
        <time>2025-10-16T14:44:26Z</time>
      </trkpt>
      <trkpt lat="48.46796" lon="7.13926">
        <ele>511.5947</ele>
        <time>2025-10-16T14:44:32Z</time>
      </trkpt>
      <trkpt lat="48.46798" lon="7.13932">
        <ele>511.5947</ele>
        <time>2025-10-16T14:44:37Z</time>
      </trkpt>
      <trkpt lat="48.46804" lon="7.13931">
        <ele>511.5947</ele>
        <time>2025-10-16T14:44:40Z</time>
      </trkpt>
      <trkpt lat="48.46801" lon="7.13938">
        <ele>511.5947</ele>
        <time>2025-10-16T14:44:54Z</time>
      </trkpt>
      <trkpt lat="48.46797" lon="7.13943">
        <ele>511.5947</ele>
        <time>2025-10-16T14:44:58Z</time>
      </trkpt>
      <trkpt lat="48.46795" lon="7.13949">
        <ele>511.5947</ele>
        <time>2025-10-16T14:45:03Z</time>
      </trkpt>
      <trkpt lat="48.46792" lon="7.13956">
        <ele>511.5947</ele>
        <time>2025-10-16T14:45:08Z</time>
      </trkpt>
      <trkpt lat="48.46793" lon="7.13963">
        <ele>511.5947</ele>
        <time>2025-10-16T14:45:11Z</time>
      </trkpt>
      <trkpt lat="48.46786" lon="7.13962">
        <ele>511.5947</ele>
        <time>2025-10-16T14:45:16Z</time>
      </trkpt>
      <trkpt lat="48.46782" lon="7.13969">
        <ele>511.5947</ele>
        <time>2025-10-16T14:45:21Z</time>
      </trkpt>
      <trkpt lat="48.4678" lon="7.13976">
        <ele>511.5947</ele>
        <time>2025-10-16T14:45:25Z</time>
      </trkpt>
      <trkpt lat="48.4678" lon="7.13984">
        <ele>511.5947</ele>
        <time>2025-10-16T14:45:30Z</time>
      </trkpt>
      <trkpt lat="48.4678" lon="7.13993">
        <ele>511.5947</ele>
        <time>2025-10-16T14:45:39Z</time>
      </trkpt>
      <trkpt lat="48.4678" lon="7.14">
        <ele>511.5947</ele>
        <time>2025-10-16T14:45:43Z</time>
      </trkpt>
      <trkpt lat="48.4678" lon="7.14007">
        <ele>511.5947</ele>
        <time>2025-10-16T14:45:47Z</time>
      </trkpt>
      <trkpt lat="48.46782" lon="7.14015">
        <ele>511.5947</ele>
        <time>2025-10-16T14:45:53Z</time>
      </trkpt>
      <trkpt lat="48.46782" lon="7.14023">
        <ele>511.5947</ele>
        <time>2025-10-16T14:45:57Z</time>
      </trkpt>
      <trkpt lat="48.46783" lon="7.1403">
        <ele>511.5947</ele>
        <time>2025-10-16T14:46:02Z</time>
      </trkpt>
      <trkpt lat="48.46784" lon="7.14037">
        <ele>511.5947</ele>
        <time>2025-10-16T14:46:06Z</time>
      </trkpt>
      <trkpt lat="48.46785" lon="7.14045">
        <ele>511.5947</ele>
        <time>2025-10-16T14:46:11Z</time>
      </trkpt>
      <trkpt lat="48.46786" lon="7.14052">
        <ele>511.5947</ele>
        <time>2025-10-16T14:46:15Z</time>
      </trkpt>
      <trkpt lat="48.46787" lon="7.1406">
        <ele>511.5947</ele>
        <time>2025-10-16T14:46:19Z</time>
      </trkpt>
      <trkpt lat="48.46788" lon="7.14068">
        <ele>511.5947</ele>
        <time>2025-10-16T14:46:23Z</time>
      </trkpt>
      <trkpt lat="48.4679" lon="7.14075">
        <ele>511.5947</ele>
        <time>2025-10-16T14:46:31Z</time>
      </trkpt>
      <trkpt lat="48.46791" lon="7.14081">
        <ele>511.5947</ele>
        <time>2025-10-16T14:46:36Z</time>
      </trkpt>
      <trkpt lat="48.46793" lon="7.14088">
        <ele>511.5947</ele>
        <time>2025-10-16T14:46:42Z</time>
      </trkpt>
      <trkpt lat="48.46795" lon="7.14097">
        <ele>511.5947</ele>
        <time>2025-10-16T14:46:47Z</time>
      </trkpt>
      <trkpt lat="48.46797" lon="7.14104">
        <ele>511.5947</ele>
        <time>2025-10-16T14:46:52Z</time>
      </trkpt>
      <trkpt lat="48.46799" lon="7.1411">
        <ele>511.5947</ele>
        <time>2025-10-16T14:47:00Z</time>
      </trkpt>
      <trkpt lat="48.46804" lon="7.14115">
        <ele>511.5947</ele>
        <time>2025-10-16T14:47:05Z</time>
      </trkpt>
      <trkpt lat="48.46807" lon="7.14122">
        <ele>511.5947</ele>
        <time>2025-10-16T14:47:10Z</time>
      </trkpt>
      <trkpt lat="48.46809" lon="7.14129">
        <ele>511.5947</ele>
        <time>2025-10-16T14:47:16Z</time>
      </trkpt>
      <trkpt lat="48.46811" lon="7.14135">
        <ele>511.5947</ele>
        <time>2025-10-16T14:47:21Z</time>
      </trkpt>
      <trkpt lat="48.46814" lon="7.14142">
        <ele>511.5947</ele>
        <time>2025-10-16T14:47:25Z</time>
      </trkpt>
      <trkpt lat="48.46816" lon="7.14149">
        <ele>511.5947</ele>
        <time>2025-10-16T14:47:29Z</time>
      </trkpt>
      <trkpt lat="48.46818" lon="7.14155">
        <ele>511.5947</ele>
        <time>2025-10-16T14:47:33Z</time>
      </trkpt>
      <trkpt lat="48.46821" lon="7.14163">
        <ele>511.5947</ele>
        <time>2025-10-16T14:47:41Z</time>
      </trkpt>
      <trkpt lat="48.46823" lon="7.14171">
        <ele>511.5947</ele>
        <time>2025-10-16T14:47:50Z</time>
      </trkpt>
      <trkpt lat="48.46825" lon="7.14179">
        <ele>509.15927</ele>
        <time>2025-10-16T14:47:57Z</time>
      </trkpt>
      <trkpt lat="48.46826" lon="7.14186">
        <ele>506.72388</ele>
        <time>2025-10-16T14:48:00Z</time>
      </trkpt>
      <trkpt lat="48.46827" lon="7.14193">
        <ele>504.28845</ele>
        <time>2025-10-16T14:48:04Z</time>
      </trkpt>
      <trkpt lat="48.46823" lon="7.14197">
        <ele>501.85306</ele>
        <time>2025-10-16T14:48:05Z</time>
      </trkpt>
      <trkpt lat="48.46823" lon="7.14205">
        <ele>499.41763</ele>
        <time>2025-10-16T14:48:12Z</time>
      </trkpt>
      <trkpt lat="48.46827" lon="7.14209">
        <ele>499.41763</ele>
        <time>2025-10-16T14:48:16Z</time>
      </trkpt>
      <trkpt lat="48.46826" lon="7.14217">
        <ele>499.41763</ele>
        <time>2025-10-16T14:48:21Z</time>
      </trkpt>
      <trkpt lat="48.46831" lon="7.14222">
        <ele>499.41763</ele>
        <time>2025-10-16T14:48:24Z</time>
      </trkpt>
      <trkpt lat="48.46835" lon="7.14229">
        <ele>499.41763</ele>
        <time>2025-10-16T14:48:28Z</time>
      </trkpt>
      <trkpt lat="48.46839" lon="7.14234">
        <ele>499.41763</ele>
        <time>2025-10-16T14:48:32Z</time>
      </trkpt>
      <trkpt lat="48.46837" lon="7.1424">
        <ele>499.41763</ele>
        <time>2025-10-16T14:48:36Z</time>
      </trkpt>
      <trkpt lat="48.46835" lon="7.14247">
        <ele>499.41763</ele>
        <time>2025-10-16T14:48:41Z</time>
      </trkpt>
      <trkpt lat="48.46834" lon="7.14255">
        <ele>499.41763</ele>
        <time>2025-10-16T14:48:46Z</time>
      </trkpt>
      <trkpt lat="48.46835" lon="7.14262">
        <ele>499.41763</ele>
        <time>2025-10-16T14:48:51Z</time>
      </trkpt>
      <trkpt lat="48.46829" lon="7.14262">
        <ele>499.41763</ele>
        <time>2025-10-16T14:49:00Z</time>
      </trkpt>
      <trkpt lat="48.46823" lon="7.14266">
        <ele>499.41763</ele>
        <time>2025-10-16T14:49:10Z</time>
      </trkpt>
      <trkpt lat="48.46822" lon="7.14273">
        <ele>499.41763</ele>
        <time>2025-10-16T14:49:13Z</time>
      </trkpt>
      <trkpt lat="48.46817" lon="7.14282">
        <ele>499.41763</ele>
        <time>2025-10-16T14:49:14Z</time>
      </trkpt>
      <trkpt lat="48.46828" lon="7.14282">
        <ele>499.41763</ele>
        <time>2025-10-16T14:49:15Z</time>
      </trkpt>
      <trkpt lat="48.46825" lon="7.14293">
        <ele>499.41763</ele>
        <time>2025-10-16T14:49:21Z</time>
      </trkpt>
      <trkpt lat="48.46822" lon="7.14303">
        <ele>499.41763</ele>
        <time>2025-10-16T14:49:25Z</time>
      </trkpt>
      <trkpt lat="48.46817" lon="7.14303">
        <ele>499.41763</ele>
        <time>2025-10-16T14:49:30Z</time>
      </trkpt>
      <trkpt lat="48.4682" lon="7.14308">
        <ele>499.41763</ele>
        <time>2025-10-16T14:49:35Z</time>
      </trkpt>
      <trkpt lat="48.46819" lon="7.14316">
        <ele>499.41763</ele>
        <time>2025-10-16T14:49:40Z</time>
      </trkpt>
      <trkpt lat="48.4682" lon="7.14322">
        <ele>499.41763</ele>
        <time>2025-10-16T14:49:54Z</time>
      </trkpt>
      <trkpt lat="48.46824" lon="7.14332">
        <ele>499.41763</ele>
        <time>2025-10-16T14:50:02Z</time>
      </trkpt>
      <trkpt lat="48.46824" lon="7.14344">
        <ele>499.41763</ele>
        <time>2025-10-16T14:50:04Z</time>
      </trkpt>
      <trkpt lat="48.46822" lon="7.14354">
        <ele>499.41763</ele>
        <time>2025-10-16T14:50:07Z</time>
      </trkpt>
      <trkpt lat="48.46827" lon="7.1435">
        <ele>499.41763</ele>
        <time>2025-10-16T14:50:10Z</time>
      </trkpt>
      <trkpt lat="48.46829" lon="7.14357">
        <ele>499.41763</ele>
        <time>2025-10-16T14:50:12Z</time>
      </trkpt>
      <trkpt lat="48.46826" lon="7.14363">
        <ele>499.41763</ele>
        <time>2025-10-16T14:50:17Z</time>
      </trkpt>
      <trkpt lat="48.46829" lon="7.1437">
        <ele>499.41763</ele>
        <time>2025-10-16T14:50:22Z</time>
      </trkpt>
      <trkpt lat="48.46833" lon="7.14364">
        <ele>499.41763</ele>
        <time>2025-10-16T14:50:28Z</time>
      </trkpt>
      <trkpt lat="48.46831" lon="7.14375">
        <ele>499.41763</ele>
        <time>2025-10-16T14:50:34Z</time>
      </trkpt>
      <trkpt lat="48.46833" lon="7.14385">
        <ele>499.41763</ele>
        <time>2025-10-16T14:50:37Z</time>
      </trkpt>
      <trkpt lat="48.46839" lon="7.14394">
        <ele>499.41763</ele>
        <time>2025-10-16T14:50:48Z</time>
      </trkpt>
      <trkpt lat="48.46844" lon="7.14399">
        <ele>499.41763</ele>
        <time>2025-10-16T14:50:53Z</time>
      </trkpt>
      <trkpt lat="48.46847" lon="7.14406">
        <ele>499.41763</ele>
        <time>2025-10-16T14:51:00Z</time>
      </trkpt>
      <trkpt lat="48.46848" lon="7.14415">
        <ele>499.41763</ele>
        <time>2025-10-16T14:51:06Z</time>
      </trkpt>
      <trkpt lat="48.46846" lon="7.14423">
        <ele>499.41763</ele>
        <time>2025-10-16T14:51:07Z</time>
      </trkpt>
      <trkpt lat="48.46843" lon="7.14432">
        <ele>499.41763</ele>
        <time>2025-10-16T14:51:11Z</time>
      </trkpt>
      <trkpt lat="48.46841" lon="7.14438">
        <ele>499.41763</ele>
        <time>2025-10-16T14:51:14Z</time>
      </trkpt>
      <trkpt lat="48.46846" lon="7.1444">
        <ele>497.09918</ele>
        <time>2025-10-16T14:51:19Z</time>
      </trkpt>
      <trkpt lat="48.46842" lon="7.14444">
        <ele>494.78073</ele>
        <time>2025-10-16T14:51:25Z</time>
      </trkpt>
      <trkpt lat="48.46841" lon="7.14452">
        <ele>492.4623</ele>
        <time>2025-10-16T14:51:31Z</time>
      </trkpt>
      <trkpt lat="48.46851" lon="7.14456">
        <ele>490.14386</ele>
        <time>2025-10-16T14:51:35Z</time>
      </trkpt>
      <trkpt lat="48.46849" lon="7.14467">
        <ele>487.8254</ele>
        <time>2025-10-16T14:51:38Z</time>
      </trkpt>
      <trkpt lat="48.46849" lon="7.14477">
        <ele>487.8254</ele>
        <time>2025-10-16T14:51:40Z</time>
      </trkpt>
      <trkpt lat="48.46855" lon="7.14482">
        <ele>487.8254</ele>
        <time>2025-10-16T14:51:43Z</time>
      </trkpt>
      <trkpt lat="48.46852" lon="7.14489">
        <ele>487.8254</ele>
        <time>2025-10-16T14:51:47Z</time>
      </trkpt>
    </trkseg>
  </trk>
</gpx>